<?xml version="1.0" encoding="UTF-8" standalone="no" ?>
<gpx xmlns="http://www.topografix.com/GPX/1/1" xmlns:xsi="http://www.w3.org/2001/XMLSchema-instance" xsi:schemaLocation="http://www.topografix.com/GPX/1/1 http://www.topografix.com/GPX/1/1/gpx.xsd" version="1.1" creator="VisuGPX - https://www.visugpx.com">
  <metadata>
    <name>LIRE VTT circuit n°15 G3</name>
    <desc><![CDATA[sortie vtt du club 30 participants,2 ème circuit difficile]]></desc>
  </metadata>
  <trk>
    <name><![CDATA[2017-09-23-15-02-28 on GPSies.com]]></name>
    <trkseg>
      <trkpt lat="47.34438" lon="-1.16095">
        <ele>8</ele>
        <time>2017-09-23T15:02:28Z</time>
      </trkpt>
      <trkpt lat="47.34432" lon="-1.16096">
        <ele>9</ele>
        <time>2017-09-23T15:04:10Z</time>
      </trkpt>
      <trkpt lat="47.34426" lon="-1.16096">
        <ele>9</ele>
        <time>2017-09-23T15:04:12Z</time>
      </trkpt>
      <trkpt lat="47.34404" lon="-1.16097">
        <ele>9</ele>
        <time>2017-09-23T15:04:19Z</time>
      </trkpt>
      <trkpt lat="47.34396" lon="-1.16096">
        <ele>9</ele>
        <time>2017-09-23T15:04:21Z</time>
      </trkpt>
      <trkpt lat="47.34384" lon="-1.16095">
        <ele>9</ele>
        <time>2017-09-23T15:04:25Z</time>
      </trkpt>
      <trkpt lat="47.34373" lon="-1.16092">
        <ele>10</ele>
        <time>2017-09-23T15:04:32Z</time>
      </trkpt>
      <trkpt lat="47.3437" lon="-1.1609">
        <ele>10</ele>
        <time>2017-09-23T15:04:35Z</time>
      </trkpt>
      <trkpt lat="47.34364" lon="-1.16088">
        <ele>11</ele>
        <time>2017-09-23T15:04:51Z</time>
      </trkpt>
      <trkpt lat="47.34362" lon="-1.16088">
        <ele>11</ele>
        <time>2017-09-23T15:04:52Z</time>
      </trkpt>
      <trkpt lat="47.34352" lon="-1.16088">
        <ele>12</ele>
        <time>2017-09-23T15:04:58Z</time>
      </trkpt>
      <trkpt lat="47.34351" lon="-1.16088">
        <ele>13</ele>
        <time>2017-09-23T15:04:59Z</time>
      </trkpt>
      <trkpt lat="47.3434" lon="-1.16086">
        <ele>13</ele>
        <time>2017-09-23T15:05:05Z</time>
      </trkpt>
      <trkpt lat="47.34335" lon="-1.16085">
        <ele>14</ele>
        <time>2017-09-23T15:05:07Z</time>
      </trkpt>
      <trkpt lat="47.34329" lon="-1.16085">
        <ele>15</ele>
        <time>2017-09-23T15:05:10Z</time>
      </trkpt>
      <trkpt lat="47.34321" lon="-1.16087">
        <ele>15</ele>
        <time>2017-09-23T15:05:49Z</time>
      </trkpt>
      <trkpt lat="47.34315" lon="-1.1609">
        <ele>15</ele>
        <time>2017-09-23T15:05:52Z</time>
      </trkpt>
      <trkpt lat="47.34301" lon="-1.16095">
        <ele>16</ele>
        <time>2017-09-23T15:05:56Z</time>
      </trkpt>
      <trkpt lat="47.34295" lon="-1.16098">
        <ele>16</ele>
        <time>2017-09-23T15:05:58Z</time>
      </trkpt>
      <trkpt lat="47.34268" lon="-1.16108">
        <ele>15</ele>
        <time>2017-09-23T15:06:05Z</time>
      </trkpt>
      <trkpt lat="47.34263" lon="-1.16109">
        <ele>15</ele>
        <time>2017-09-23T15:06:06Z</time>
      </trkpt>
      <trkpt lat="47.34253" lon="-1.1611">
        <ele>15</ele>
        <time>2017-09-23T15:06:08Z</time>
      </trkpt>
      <trkpt lat="47.34247" lon="-1.1611">
        <ele>14</ele>
        <time>2017-09-23T15:06:10Z</time>
      </trkpt>
      <trkpt lat="47.34238" lon="-1.16109">
        <ele>14</ele>
        <time>2017-09-23T15:06:15Z</time>
      </trkpt>
      <trkpt lat="47.34226" lon="-1.16109">
        <ele>12</ele>
        <time>2017-09-23T15:06:23Z</time>
      </trkpt>
      <trkpt lat="47.34219" lon="-1.16109">
        <ele>11</ele>
        <time>2017-09-23T15:06:26Z</time>
      </trkpt>
      <trkpt lat="47.34213" lon="-1.16106">
        <ele>10</ele>
        <time>2017-09-23T15:06:28Z</time>
      </trkpt>
      <trkpt lat="47.3421" lon="-1.16102">
        <ele>10</ele>
        <time>2017-09-23T15:06:30Z</time>
      </trkpt>
      <trkpt lat="47.34203" lon="-1.16097">
        <ele>10</ele>
        <time>2017-09-23T15:06:37Z</time>
      </trkpt>
      <trkpt lat="47.34197" lon="-1.16095">
        <ele>10</ele>
        <time>2017-09-23T15:06:39Z</time>
      </trkpt>
      <trkpt lat="47.34186" lon="-1.1609">
        <ele>9</ele>
        <time>2017-09-23T15:06:42Z</time>
      </trkpt>
      <trkpt lat="47.34179" lon="-1.16088">
        <ele>9</ele>
        <time>2017-09-23T15:06:44Z</time>
      </trkpt>
      <trkpt lat="47.34161" lon="-1.16083">
        <ele>9</ele>
        <time>2017-09-23T15:06:49Z</time>
      </trkpt>
      <trkpt lat="47.34151" lon="-1.16086">
        <ele>10</ele>
        <time>2017-09-23T15:06:53Z</time>
      </trkpt>
      <trkpt lat="47.34136" lon="-1.16092">
        <ele>9</ele>
        <time>2017-09-23T15:06:59Z</time>
      </trkpt>
      <trkpt lat="47.34113" lon="-1.16103">
        <ele>10</ele>
        <time>2017-09-23T15:07:06Z</time>
      </trkpt>
      <trkpt lat="47.341" lon="-1.16117">
        <ele>10</ele>
        <time>2017-09-23T15:07:11Z</time>
      </trkpt>
      <trkpt lat="47.34087" lon="-1.1613">
        <ele>10</ele>
        <time>2017-09-23T15:07:17Z</time>
      </trkpt>
      <trkpt lat="47.34075" lon="-1.16146">
        <ele>11</ele>
        <time>2017-09-23T15:07:22Z</time>
      </trkpt>
      <trkpt lat="47.34064" lon="-1.16163">
        <ele>10</ele>
        <time>2017-09-23T15:07:29Z</time>
      </trkpt>
      <trkpt lat="47.34055" lon="-1.16182">
        <ele>10</ele>
        <time>2017-09-23T15:07:35Z</time>
      </trkpt>
      <trkpt lat="47.34044" lon="-1.16209">
        <ele>10</ele>
        <time>2017-09-23T15:07:42Z</time>
      </trkpt>
      <trkpt lat="47.34037" lon="-1.16228">
        <ele>11</ele>
        <time>2017-09-23T15:07:48Z</time>
      </trkpt>
      <trkpt lat="47.34034" lon="-1.16242">
        <ele>11</ele>
        <time>2017-09-23T15:07:51Z</time>
      </trkpt>
      <trkpt lat="47.3403" lon="-1.16251">
        <ele>11</ele>
        <time>2017-09-23T15:07:53Z</time>
      </trkpt>
      <trkpt lat="47.34016" lon="-1.16268">
        <ele>11</ele>
        <time>2017-09-23T15:07:59Z</time>
      </trkpt>
      <trkpt lat="47.34001" lon="-1.16282">
        <ele>11</ele>
        <time>2017-09-23T15:08:05Z</time>
      </trkpt>
      <trkpt lat="47.3399" lon="-1.16295">
        <ele>11</ele>
        <time>2017-09-23T15:08:10Z</time>
      </trkpt>
      <trkpt lat="47.33988" lon="-1.16298">
        <ele>11</ele>
        <time>2017-09-23T15:08:11Z</time>
      </trkpt>
      <trkpt lat="47.33971" lon="-1.16315">
        <ele>12</ele>
        <time>2017-09-23T15:08:17Z</time>
      </trkpt>
      <trkpt lat="47.33955" lon="-1.16318">
        <ele>12</ele>
        <time>2017-09-23T15:08:22Z</time>
      </trkpt>
      <trkpt lat="47.33939" lon="-1.16319">
        <ele>12</ele>
        <time>2017-09-23T15:08:28Z</time>
      </trkpt>
      <trkpt lat="47.33935" lon="-1.16319">
        <ele>13</ele>
        <time>2017-09-23T15:08:31Z</time>
      </trkpt>
      <trkpt lat="47.33929" lon="-1.16321">
        <ele>13</ele>
        <time>2017-09-23T15:08:33Z</time>
      </trkpt>
      <trkpt lat="47.33913" lon="-1.16324">
        <ele>13</ele>
        <time>2017-09-23T15:08:38Z</time>
      </trkpt>
      <trkpt lat="47.33886" lon="-1.16327">
        <ele>14</ele>
        <time>2017-09-23T15:09:07Z</time>
      </trkpt>
      <trkpt lat="47.33884" lon="-1.16327">
        <ele>14</ele>
        <time>2017-09-23T15:09:08Z</time>
      </trkpt>
      <trkpt lat="47.33878" lon="-1.1633">
        <ele>14</ele>
        <time>2017-09-23T15:09:13Z</time>
      </trkpt>
      <trkpt lat="47.33875" lon="-1.16331">
        <ele>14</ele>
        <time>2017-09-23T15:09:15Z</time>
      </trkpt>
      <trkpt lat="47.33865" lon="-1.1633">
        <ele>14</ele>
        <time>2017-09-23T15:09:25Z</time>
      </trkpt>
      <trkpt lat="47.33863" lon="-1.16333">
        <ele>14</ele>
        <time>2017-09-23T15:09:27Z</time>
      </trkpt>
      <trkpt lat="47.33846" lon="-1.16342">
        <ele>14</ele>
        <time>2017-09-23T15:09:32Z</time>
      </trkpt>
      <trkpt lat="47.33824" lon="-1.16355">
        <ele>14</ele>
        <time>2017-09-23T15:09:38Z</time>
      </trkpt>
      <trkpt lat="47.33809" lon="-1.16359">
        <ele>14</ele>
        <time>2017-09-23T15:09:42Z</time>
      </trkpt>
      <trkpt lat="47.3379" lon="-1.16363">
        <ele>14</ele>
        <time>2017-09-23T15:09:47Z</time>
      </trkpt>
      <trkpt lat="47.3377" lon="-1.16372">
        <ele>15</ele>
        <time>2017-09-23T15:09:53Z</time>
      </trkpt>
      <trkpt lat="47.33751" lon="-1.16374">
        <ele>15</ele>
        <time>2017-09-23T15:09:58Z</time>
      </trkpt>
      <trkpt lat="47.33744" lon="-1.16374">
        <ele>15</ele>
        <time>2017-09-23T15:10:00Z</time>
      </trkpt>
      <trkpt lat="47.33724" lon="-1.16369">
        <ele>16</ele>
        <time>2017-09-23T15:10:05Z</time>
      </trkpt>
      <trkpt lat="47.33702" lon="-1.16366">
        <ele>16</ele>
        <time>2017-09-23T15:10:12Z</time>
      </trkpt>
      <trkpt lat="47.33688" lon="-1.16363">
        <ele>16</ele>
        <time>2017-09-23T15:10:16Z</time>
      </trkpt>
      <trkpt lat="47.33676" lon="-1.16357">
        <ele>15</ele>
        <time>2017-09-23T15:10:19Z</time>
      </trkpt>
      <trkpt lat="47.33667" lon="-1.16353">
        <ele>15</ele>
        <time>2017-09-23T15:10:21Z</time>
      </trkpt>
      <trkpt lat="47.33663" lon="-1.16351">
        <ele>15</ele>
        <time>2017-09-23T15:10:22Z</time>
      </trkpt>
      <trkpt lat="47.33649" lon="-1.16338">
        <ele>16</ele>
        <time>2017-09-23T15:10:26Z</time>
      </trkpt>
      <trkpt lat="47.33642" lon="-1.16332">
        <ele>16</ele>
        <time>2017-09-23T15:10:28Z</time>
      </trkpt>
      <trkpt lat="47.3363" lon="-1.16319">
        <ele>17</ele>
        <time>2017-09-23T15:10:33Z</time>
      </trkpt>
      <trkpt lat="47.33617" lon="-1.16325">
        <ele>18</ele>
        <time>2017-09-23T15:10:46Z</time>
      </trkpt>
      <trkpt lat="47.33615" lon="-1.16326">
        <ele>18</ele>
        <time>2017-09-23T15:10:47Z</time>
      </trkpt>
      <trkpt lat="47.33613" lon="-1.16328">
        <ele>18</ele>
        <time>2017-09-23T15:10:48Z</time>
      </trkpt>
      <trkpt lat="47.33596" lon="-1.16337">
        <ele>18</ele>
        <time>2017-09-23T15:10:53Z</time>
      </trkpt>
      <trkpt lat="47.33573" lon="-1.16347">
        <ele>18</ele>
        <time>2017-09-23T15:10:59Z</time>
      </trkpt>
      <trkpt lat="47.33553" lon="-1.16354">
        <ele>17</ele>
        <time>2017-09-23T15:11:04Z</time>
      </trkpt>
      <trkpt lat="47.33531" lon="-1.16362">
        <ele>17</ele>
        <time>2017-09-23T15:11:09Z</time>
      </trkpt>
      <trkpt lat="47.33523" lon="-1.16365">
        <ele>16</ele>
        <time>2017-09-23T15:11:11Z</time>
      </trkpt>
      <trkpt lat="47.33499" lon="-1.16372">
        <ele>16</ele>
        <time>2017-09-23T15:11:17Z</time>
      </trkpt>
      <trkpt lat="47.33473" lon="-1.16368">
        <ele>16</ele>
        <time>2017-09-23T15:11:23Z</time>
      </trkpt>
      <trkpt lat="47.33459" lon="-1.16379">
        <ele>17</ele>
        <time>2017-09-23T15:11:27Z</time>
      </trkpt>
      <trkpt lat="47.33455" lon="-1.16383">
        <ele>18</ele>
        <time>2017-09-23T15:11:28Z</time>
      </trkpt>
      <trkpt lat="47.33438" lon="-1.16398">
        <ele>18</ele>
        <time>2017-09-23T15:11:33Z</time>
      </trkpt>
      <trkpt lat="47.33427" lon="-1.16408">
        <ele>18</ele>
        <time>2017-09-23T15:11:39Z</time>
      </trkpt>
      <trkpt lat="47.33424" lon="-1.16423">
        <ele>17</ele>
        <time>2017-09-23T15:11:43Z</time>
      </trkpt>
      <trkpt lat="47.33416" lon="-1.16426">
        <ele>17</ele>
        <time>2017-09-23T15:11:45Z</time>
      </trkpt>
      <trkpt lat="47.33411" lon="-1.16432">
        <ele>17</ele>
        <time>2017-09-23T15:11:47Z</time>
      </trkpt>
      <trkpt lat="47.3341" lon="-1.16454">
        <ele>18</ele>
        <time>2017-09-23T15:11:51Z</time>
      </trkpt>
      <trkpt lat="47.33411" lon="-1.16467">
        <ele>18</ele>
        <time>2017-09-23T15:11:53Z</time>
      </trkpt>
      <trkpt lat="47.33412" lon="-1.16484">
        <ele>18</ele>
        <time>2017-09-23T15:11:56Z</time>
      </trkpt>
      <trkpt lat="47.33412" lon="-1.16494">
        <ele>19</ele>
        <time>2017-09-23T15:11:59Z</time>
      </trkpt>
      <trkpt lat="47.33412" lon="-1.16501">
        <ele>19</ele>
        <time>2017-09-23T15:12:02Z</time>
      </trkpt>
      <trkpt lat="47.33413" lon="-1.16507">
        <ele>20</ele>
        <time>2017-09-23T15:12:04Z</time>
      </trkpt>
      <trkpt lat="47.33414" lon="-1.16515">
        <ele>21</ele>
        <time>2017-09-23T15:12:08Z</time>
      </trkpt>
      <trkpt lat="47.33415" lon="-1.16516">
        <ele>21</ele>
        <time>2017-09-23T15:12:09Z</time>
      </trkpt>
      <trkpt lat="47.33416" lon="-1.16523">
        <ele>22</ele>
        <time>2017-09-23T15:12:12Z</time>
      </trkpt>
      <trkpt lat="47.33418" lon="-1.16526">
        <ele>22</ele>
        <time>2017-09-23T15:12:13Z</time>
      </trkpt>
      <trkpt lat="47.33419" lon="-1.16532">
        <ele>23</ele>
        <time>2017-09-23T15:12:15Z</time>
      </trkpt>
      <trkpt lat="47.33419" lon="-1.16535">
        <ele>23</ele>
        <time>2017-09-23T15:12:16Z</time>
      </trkpt>
      <trkpt lat="47.33421" lon="-1.1654">
        <ele>23</ele>
        <time>2017-09-23T15:12:18Z</time>
      </trkpt>
      <trkpt lat="47.33424" lon="-1.16549">
        <ele>24</ele>
        <time>2017-09-23T15:12:21Z</time>
      </trkpt>
      <trkpt lat="47.33428" lon="-1.16558">
        <ele>24</ele>
        <time>2017-09-23T15:12:25Z</time>
      </trkpt>
      <trkpt lat="47.33431" lon="-1.16565">
        <ele>25</ele>
        <time>2017-09-23T15:12:28Z</time>
      </trkpt>
      <trkpt lat="47.33436" lon="-1.1658">
        <ele>25</ele>
        <time>2017-09-23T15:12:34Z</time>
      </trkpt>
      <trkpt lat="47.33437" lon="-1.16582">
        <ele>25</ele>
        <time>2017-09-23T15:12:35Z</time>
      </trkpt>
      <trkpt lat="47.33443" lon="-1.166">
        <ele>27</ele>
        <time>2017-09-23T15:12:44Z</time>
      </trkpt>
      <trkpt lat="47.33444" lon="-1.16602">
        <ele>27</ele>
        <time>2017-09-23T15:12:45Z</time>
      </trkpt>
      <trkpt lat="47.3345" lon="-1.16617">
        <ele>28</ele>
        <time>2017-09-23T15:12:52Z</time>
      </trkpt>
      <trkpt lat="47.33451" lon="-1.1662">
        <ele>28</ele>
        <time>2017-09-23T15:12:53Z</time>
      </trkpt>
      <trkpt lat="47.33471" lon="-1.16758">
        <ele>45</ele>
        <time>2017-09-23T15:16:39Z</time>
      </trkpt>
      <trkpt lat="47.33471" lon="-1.16761">
        <ele>45</ele>
        <time>2017-09-23T15:16:40Z</time>
      </trkpt>
      <trkpt lat="47.33475" lon="-1.16777">
        <ele>45</ele>
        <time>2017-09-23T15:16:45Z</time>
      </trkpt>
      <trkpt lat="47.33483" lon="-1.16794">
        <ele>45</ele>
        <time>2017-09-23T15:16:50Z</time>
      </trkpt>
      <trkpt lat="47.3348" lon="-1.16819">
        <ele>45</ele>
        <time>2017-09-23T15:16:56Z</time>
      </trkpt>
      <trkpt lat="47.33479" lon="-1.16827">
        <ele>46</ele>
        <time>2017-09-23T15:16:58Z</time>
      </trkpt>
      <trkpt lat="47.33479" lon="-1.16841">
        <ele>47</ele>
        <time>2017-09-23T15:17:01Z</time>
      </trkpt>
      <trkpt lat="47.33478" lon="-1.1685">
        <ele>47</ele>
        <time>2017-09-23T15:17:03Z</time>
      </trkpt>
      <trkpt lat="47.33477" lon="-1.16859">
        <ele>48</ele>
        <time>2017-09-23T15:17:05Z</time>
      </trkpt>
      <trkpt lat="47.33473" lon="-1.16875">
        <ele>49</ele>
        <time>2017-09-23T15:17:09Z</time>
      </trkpt>
      <trkpt lat="47.33471" lon="-1.16883">
        <ele>50</ele>
        <time>2017-09-23T15:17:11Z</time>
      </trkpt>
      <trkpt lat="47.3347" lon="-1.16889">
        <ele>50</ele>
        <time>2017-09-23T15:17:13Z</time>
      </trkpt>
      <trkpt lat="47.33468" lon="-1.16903">
        <ele>51</ele>
        <time>2017-09-23T15:17:17Z</time>
      </trkpt>
      <trkpt lat="47.33468" lon="-1.16906">
        <ele>52</ele>
        <time>2017-09-23T15:17:18Z</time>
      </trkpt>
      <trkpt lat="47.33467" lon="-1.16927">
        <ele>52</ele>
        <time>2017-09-23T15:17:24Z</time>
      </trkpt>
      <trkpt lat="47.33461" lon="-1.1696">
        <ele>53</ele>
        <time>2017-09-23T15:17:33Z</time>
      </trkpt>
      <trkpt lat="47.33459" lon="-1.16972">
        <ele>54</ele>
        <time>2017-09-23T15:17:36Z</time>
      </trkpt>
      <trkpt lat="47.33456" lon="-1.16999">
        <ele>54</ele>
        <time>2017-09-23T15:17:42Z</time>
      </trkpt>
      <trkpt lat="47.33455" lon="-1.17003">
        <ele>55</ele>
        <time>2017-09-23T15:17:43Z</time>
      </trkpt>
      <trkpt lat="47.33451" lon="-1.17027">
        <ele>55</ele>
        <time>2017-09-23T15:17:49Z</time>
      </trkpt>
      <trkpt lat="47.33449" lon="-1.17036">
        <ele>56</ele>
        <time>2017-09-23T15:17:51Z</time>
      </trkpt>
      <trkpt lat="47.33448" lon="-1.1706">
        <ele>56</ele>
        <time>2017-09-23T15:17:56Z</time>
      </trkpt>
      <trkpt lat="47.33443" lon="-1.17093">
        <ele>56</ele>
        <time>2017-09-23T15:18:03Z</time>
      </trkpt>
      <trkpt lat="47.33441" lon="-1.17104">
        <ele>57</ele>
        <time>2017-09-23T15:18:05Z</time>
      </trkpt>
      <trkpt lat="47.33437" lon="-1.17123">
        <ele>57</ele>
        <time>2017-09-23T15:18:09Z</time>
      </trkpt>
      <trkpt lat="47.33434" lon="-1.17143">
        <ele>58</ele>
        <time>2017-09-23T15:18:13Z</time>
      </trkpt>
      <trkpt lat="47.3343" lon="-1.17169">
        <ele>58</ele>
        <time>2017-09-23T15:18:18Z</time>
      </trkpt>
      <trkpt lat="47.33426" lon="-1.17191">
        <ele>59</ele>
        <time>2017-09-23T15:18:22Z</time>
      </trkpt>
      <trkpt lat="47.33419" lon="-1.17232">
        <ele>60</ele>
        <time>2017-09-23T15:18:30Z</time>
      </trkpt>
      <trkpt lat="47.33412" lon="-1.17264">
        <ele>60</ele>
        <time>2017-09-23T15:18:37Z</time>
      </trkpt>
      <trkpt lat="47.33405" lon="-1.17289">
        <ele>61</ele>
        <time>2017-09-23T15:19:56Z</time>
      </trkpt>
      <trkpt lat="47.33407" lon="-1.17298">
        <ele>61</ele>
        <time>2017-09-23T15:19:59Z</time>
      </trkpt>
      <trkpt lat="47.33418" lon="-1.17317">
        <ele>61</ele>
        <time>2017-09-23T15:20:05Z</time>
      </trkpt>
      <trkpt lat="47.33434" lon="-1.17339">
        <ele>61</ele>
        <time>2017-09-23T15:20:12Z</time>
      </trkpt>
      <trkpt lat="47.33445" lon="-1.17358">
        <ele>61</ele>
        <time>2017-09-23T15:20:17Z</time>
      </trkpt>
      <trkpt lat="47.33447" lon="-1.17362">
        <ele>61</ele>
        <time>2017-09-23T15:20:18Z</time>
      </trkpt>
      <trkpt lat="47.33462" lon="-1.17392">
        <ele>61</ele>
        <time>2017-09-23T15:20:26Z</time>
      </trkpt>
      <trkpt lat="47.33469" lon="-1.17414">
        <ele>61</ele>
        <time>2017-09-23T15:20:32Z</time>
      </trkpt>
      <trkpt lat="47.33461" lon="-1.17426">
        <ele>61</ele>
        <time>2017-09-23T15:20:35Z</time>
      </trkpt>
      <trkpt lat="47.33453" lon="-1.17429">
        <ele>61</ele>
        <time>2017-09-23T15:20:37Z</time>
      </trkpt>
      <trkpt lat="47.33437" lon="-1.17437">
        <ele>61</ele>
        <time>2017-09-23T15:20:41Z</time>
      </trkpt>
      <trkpt lat="47.33402" lon="-1.17456">
        <ele>61</ele>
        <time>2017-09-23T15:20:50Z</time>
      </trkpt>
      <trkpt lat="47.33361" lon="-1.17482">
        <ele>60</ele>
        <time>2017-09-23T15:20:59Z</time>
      </trkpt>
      <trkpt lat="47.33327" lon="-1.17508">
        <ele>59</ele>
        <time>2017-09-23T15:21:07Z</time>
      </trkpt>
      <trkpt lat="47.33301" lon="-1.17533">
        <ele>59</ele>
        <time>2017-09-23T15:21:13Z</time>
      </trkpt>
      <trkpt lat="47.33296" lon="-1.17536">
        <ele>59</ele>
        <time>2017-09-23T15:21:14Z</time>
      </trkpt>
      <trkpt lat="47.33257" lon="-1.17567">
        <ele>58</ele>
        <time>2017-09-23T15:21:23Z</time>
      </trkpt>
      <trkpt lat="47.33233" lon="-1.17584">
        <ele>58</ele>
        <time>2017-09-23T15:21:30Z</time>
      </trkpt>
      <trkpt lat="47.33209" lon="-1.17608">
        <ele>58</ele>
        <time>2017-09-23T15:21:37Z</time>
      </trkpt>
      <trkpt lat="47.332" lon="-1.17617">
        <ele>58</ele>
        <time>2017-09-23T15:21:39Z</time>
      </trkpt>
      <trkpt lat="47.33186" lon="-1.17634">
        <ele>56</ele>
        <time>2017-09-23T15:21:42Z</time>
      </trkpt>
      <trkpt lat="47.33181" lon="-1.1764">
        <ele>56</ele>
        <time>2017-09-23T15:21:43Z</time>
      </trkpt>
      <trkpt lat="47.33163" lon="-1.17658">
        <ele>55</ele>
        <time>2017-09-23T15:21:47Z</time>
      </trkpt>
      <trkpt lat="47.33159" lon="-1.17662">
        <ele>55</ele>
        <time>2017-09-23T15:21:48Z</time>
      </trkpt>
      <trkpt lat="47.33154" lon="-1.1767">
        <ele>54</ele>
        <time>2017-09-23T15:21:50Z</time>
      </trkpt>
      <trkpt lat="47.33148" lon="-1.17678">
        <ele>54</ele>
        <time>2017-09-23T15:21:52Z</time>
      </trkpt>
      <trkpt lat="47.33137" lon="-1.17692">
        <ele>53</ele>
        <time>2017-09-23T15:21:55Z</time>
      </trkpt>
      <trkpt lat="47.33126" lon="-1.17707">
        <ele>52</ele>
        <time>2017-09-23T15:21:58Z</time>
      </trkpt>
      <trkpt lat="47.33118" lon="-1.17719">
        <ele>51</ele>
        <time>2017-09-23T15:22:00Z</time>
      </trkpt>
      <trkpt lat="47.33115" lon="-1.17726">
        <ele>50</ele>
        <time>2017-09-23T15:22:01Z</time>
      </trkpt>
      <trkpt lat="47.33103" lon="-1.17747">
        <ele>49</ele>
        <time>2017-09-23T15:22:04Z</time>
      </trkpt>
      <trkpt lat="47.33089" lon="-1.17772">
        <ele>48</ele>
        <time>2017-09-23T15:22:08Z</time>
      </trkpt>
      <trkpt lat="47.33082" lon="-1.17782">
        <ele>47</ele>
        <time>2017-09-23T15:22:10Z</time>
      </trkpt>
      <trkpt lat="47.33077" lon="-1.17786">
        <ele>47</ele>
        <time>2017-09-23T15:22:11Z</time>
      </trkpt>
      <trkpt lat="47.33063" lon="-1.17795">
        <ele>46</ele>
        <time>2017-09-23T15:22:14Z</time>
      </trkpt>
      <trkpt lat="47.33058" lon="-1.17798">
        <ele>45</ele>
        <time>2017-09-23T15:22:15Z</time>
      </trkpt>
      <trkpt lat="47.33042" lon="-1.17806">
        <ele>44</ele>
        <time>2017-09-23T15:22:18Z</time>
      </trkpt>
      <trkpt lat="47.33037" lon="-1.1781">
        <ele>44</ele>
        <time>2017-09-23T15:22:19Z</time>
      </trkpt>
      <trkpt lat="47.33032" lon="-1.17815">
        <ele>43</ele>
        <time>2017-09-23T15:22:20Z</time>
      </trkpt>
      <trkpt lat="47.33029" lon="-1.17821">
        <ele>43</ele>
        <time>2017-09-23T15:22:21Z</time>
      </trkpt>
      <trkpt lat="47.33019" lon="-1.17842">
        <ele>42</ele>
        <time>2017-09-23T15:22:24Z</time>
      </trkpt>
      <trkpt lat="47.33015" lon="-1.1785">
        <ele>41</ele>
        <time>2017-09-23T15:22:25Z</time>
      </trkpt>
      <trkpt lat="47.33009" lon="-1.17865">
        <ele>41</ele>
        <time>2017-09-23T15:22:27Z</time>
      </trkpt>
      <trkpt lat="47.32992" lon="-1.17895">
        <ele>39</ele>
        <time>2017-09-23T15:22:31Z</time>
      </trkpt>
      <trkpt lat="47.32989" lon="-1.17902">
        <ele>39</ele>
        <time>2017-09-23T15:22:32Z</time>
      </trkpt>
      <trkpt lat="47.32977" lon="-1.1792">
        <ele>38</ele>
        <time>2017-09-23T15:22:35Z</time>
      </trkpt>
      <trkpt lat="47.32967" lon="-1.1794">
        <ele>37</ele>
        <time>2017-09-23T15:22:38Z</time>
      </trkpt>
      <trkpt lat="47.32962" lon="-1.17955">
        <ele>36</ele>
        <time>2017-09-23T15:22:40Z</time>
      </trkpt>
      <trkpt lat="47.3296" lon="-1.17963">
        <ele>35</ele>
        <time>2017-09-23T15:22:41Z</time>
      </trkpt>
      <trkpt lat="47.32957" lon="-1.1798">
        <ele>35</ele>
        <time>2017-09-23T15:22:43Z</time>
      </trkpt>
      <trkpt lat="47.32955" lon="-1.17996">
        <ele>34</ele>
        <time>2017-09-23T15:22:45Z</time>
      </trkpt>
      <trkpt lat="47.32951" lon="-1.18008">
        <ele>33</ele>
        <time>2017-09-23T15:22:47Z</time>
      </trkpt>
      <trkpt lat="47.32949" lon="-1.18012">
        <ele>33</ele>
        <time>2017-09-23T15:22:48Z</time>
      </trkpt>
      <trkpt lat="47.32943" lon="-1.1802">
        <ele>32</ele>
        <time>2017-09-23T15:22:50Z</time>
      </trkpt>
      <trkpt lat="47.3294" lon="-1.18023">
        <ele>32</ele>
        <time>2017-09-23T15:22:51Z</time>
      </trkpt>
      <trkpt lat="47.32937" lon="-1.18027">
        <ele>31</ele>
        <time>2017-09-23T15:22:52Z</time>
      </trkpt>
      <trkpt lat="47.32932" lon="-1.1803">
        <ele>31</ele>
        <time>2017-09-23T15:22:53Z</time>
      </trkpt>
      <trkpt lat="47.32918" lon="-1.18037">
        <ele>30</ele>
        <time>2017-09-23T15:22:56Z</time>
      </trkpt>
      <trkpt lat="47.32913" lon="-1.18038">
        <ele>30</ele>
        <time>2017-09-23T15:22:57Z</time>
      </trkpt>
      <trkpt lat="47.32903" lon="-1.18039">
        <ele>29</ele>
        <time>2017-09-23T15:22:59Z</time>
      </trkpt>
      <trkpt lat="47.32887" lon="-1.18032">
        <ele>28</ele>
        <time>2017-09-23T15:23:02Z</time>
      </trkpt>
      <trkpt lat="47.32883" lon="-1.18029">
        <ele>28</ele>
        <time>2017-09-23T15:23:03Z</time>
      </trkpt>
      <trkpt lat="47.32876" lon="-1.18022">
        <ele>27</ele>
        <time>2017-09-23T15:23:05Z</time>
      </trkpt>
      <trkpt lat="47.32871" lon="-1.18016">
        <ele>27</ele>
        <time>2017-09-23T15:23:07Z</time>
      </trkpt>
      <trkpt lat="47.32866" lon="-1.18013">
        <ele>26</ele>
        <time>2017-09-23T15:23:09Z</time>
      </trkpt>
      <trkpt lat="47.32861" lon="-1.18018">
        <ele>25</ele>
        <time>2017-09-23T15:23:11Z</time>
      </trkpt>
      <trkpt lat="47.32861" lon="-1.18021">
        <ele>25</ele>
        <time>2017-09-23T15:23:12Z</time>
      </trkpt>
      <trkpt lat="47.32863" lon="-1.18029">
        <ele>24</ele>
        <time>2017-09-23T15:23:14Z</time>
      </trkpt>
      <trkpt lat="47.32868" lon="-1.18037">
        <ele>24</ele>
        <time>2017-09-23T15:23:16Z</time>
      </trkpt>
      <trkpt lat="47.32871" lon="-1.18042">
        <ele>23</ele>
        <time>2017-09-23T15:23:17Z</time>
      </trkpt>
      <trkpt lat="47.32876" lon="-1.18054">
        <ele>22</ele>
        <time>2017-09-23T15:23:19Z</time>
      </trkpt>
      <trkpt lat="47.32885" lon="-1.18074">
        <ele>21</ele>
        <time>2017-09-23T15:23:23Z</time>
      </trkpt>
      <trkpt lat="47.32885" lon="-1.18079">
        <ele>21</ele>
        <time>2017-09-23T15:23:24Z</time>
      </trkpt>
      <trkpt lat="47.32885" lon="-1.18084">
        <ele>20</ele>
        <time>2017-09-23T15:23:25Z</time>
      </trkpt>
      <trkpt lat="47.32883" lon="-1.18087">
        <ele>20</ele>
        <time>2017-09-23T15:23:26Z</time>
      </trkpt>
      <trkpt lat="47.32878" lon="-1.18089">
        <ele>19</ele>
        <time>2017-09-23T15:23:28Z</time>
      </trkpt>
      <trkpt lat="47.32876" lon="-1.18087">
        <ele>18</ele>
        <time>2017-09-23T15:23:29Z</time>
      </trkpt>
      <trkpt lat="47.32871" lon="-1.18081">
        <ele>18</ele>
        <time>2017-09-23T15:23:31Z</time>
      </trkpt>
      <trkpt lat="47.32863" lon="-1.18074">
        <ele>17</ele>
        <time>2017-09-23T15:23:33Z</time>
      </trkpt>
      <trkpt lat="47.32853" lon="-1.18069">
        <ele>17</ele>
        <time>2017-09-23T15:23:35Z</time>
      </trkpt>
      <trkpt lat="47.32835" lon="-1.1807">
        <ele>16</ele>
        <time>2017-09-23T15:23:39Z</time>
      </trkpt>
      <trkpt lat="47.32826" lon="-1.18075">
        <ele>16</ele>
        <time>2017-09-23T15:23:41Z</time>
      </trkpt>
      <trkpt lat="47.3282" lon="-1.1808">
        <ele>16</ele>
        <time>2017-09-23T15:23:44Z</time>
      </trkpt>
      <trkpt lat="47.32812" lon="-1.18089">
        <ele>15</ele>
        <time>2017-09-23T15:23:48Z</time>
      </trkpt>
      <trkpt lat="47.32809" lon="-1.18089">
        <ele>15</ele>
        <time>2017-09-23T15:23:49Z</time>
      </trkpt>
      <trkpt lat="47.32803" lon="-1.18086">
        <ele>15</ele>
        <time>2017-09-23T15:23:52Z</time>
      </trkpt>
      <trkpt lat="47.32789" lon="-1.1808">
        <ele>16</ele>
        <time>2017-09-23T15:23:57Z</time>
      </trkpt>
      <trkpt lat="47.32784" lon="-1.18081">
        <ele>16</ele>
        <time>2017-09-23T15:23:59Z</time>
      </trkpt>
      <trkpt lat="47.32777" lon="-1.18088">
        <ele>16</ele>
        <time>2017-09-23T15:24:02Z</time>
      </trkpt>
      <trkpt lat="47.32774" lon="-1.18094">
        <ele>17</ele>
        <time>2017-09-23T15:24:04Z</time>
      </trkpt>
      <trkpt lat="47.32769" lon="-1.18109">
        <ele>17</ele>
        <time>2017-09-23T15:24:09Z</time>
      </trkpt>
      <trkpt lat="47.32766" lon="-1.18132">
        <ele>18</ele>
        <time>2017-09-23T15:24:17Z</time>
      </trkpt>
      <trkpt lat="47.32765" lon="-1.18145">
        <ele>18</ele>
        <time>2017-09-23T15:24:21Z</time>
      </trkpt>
      <trkpt lat="47.32763" lon="-1.18163">
        <ele>19</ele>
        <time>2017-09-23T15:24:27Z</time>
      </trkpt>
      <trkpt lat="47.32762" lon="-1.18179">
        <ele>20</ele>
        <time>2017-09-23T15:24:33Z</time>
      </trkpt>
      <trkpt lat="47.32762" lon="-1.18182">
        <ele>20</ele>
        <time>2017-09-23T15:24:34Z</time>
      </trkpt>
      <trkpt lat="47.3276" lon="-1.18201">
        <ele>21</ele>
        <time>2017-09-23T15:24:40Z</time>
      </trkpt>
      <trkpt lat="47.3276" lon="-1.18203">
        <ele>22</ele>
        <time>2017-09-23T15:24:41Z</time>
      </trkpt>
      <trkpt lat="47.32757" lon="-1.18215">
        <ele>23</ele>
        <time>2017-09-23T15:24:46Z</time>
      </trkpt>
      <trkpt lat="47.32755" lon="-1.18226">
        <ele>24</ele>
        <time>2017-09-23T15:24:50Z</time>
      </trkpt>
      <trkpt lat="47.32754" lon="-1.18228">
        <ele>24</ele>
        <time>2017-09-23T15:24:51Z</time>
      </trkpt>
      <trkpt lat="47.3275" lon="-1.18242">
        <ele>25</ele>
        <time>2017-09-23T15:24:56Z</time>
      </trkpt>
      <trkpt lat="47.32747" lon="-1.18249">
        <ele>26</ele>
        <time>2017-09-23T15:24:59Z</time>
      </trkpt>
      <trkpt lat="47.32745" lon="-1.18253">
        <ele>26</ele>
        <time>2017-09-23T15:25:01Z</time>
      </trkpt>
      <trkpt lat="47.3274" lon="-1.18261">
        <ele>27</ele>
        <time>2017-09-23T15:25:06Z</time>
      </trkpt>
      <trkpt lat="47.32739" lon="-1.18263">
        <ele>27</ele>
        <time>2017-09-23T15:25:07Z</time>
      </trkpt>
      <trkpt lat="47.32736" lon="-1.18268">
        <ele>28</ele>
        <time>2017-09-23T15:25:10Z</time>
      </trkpt>
      <trkpt lat="47.32731" lon="-1.18279">
        <ele>29</ele>
        <time>2017-09-23T15:25:16Z</time>
      </trkpt>
      <trkpt lat="47.3273" lon="-1.18281">
        <ele>30</ele>
        <time>2017-09-23T15:25:17Z</time>
      </trkpt>
      <trkpt lat="47.32725" lon="-1.18291">
        <ele>30</ele>
        <time>2017-09-23T15:25:22Z</time>
      </trkpt>
      <trkpt lat="47.32723" lon="-1.18295">
        <ele>31</ele>
        <time>2017-09-23T15:25:24Z</time>
      </trkpt>
      <trkpt lat="47.3272" lon="-1.18299">
        <ele>31</ele>
        <time>2017-09-23T15:25:27Z</time>
      </trkpt>
      <trkpt lat="47.32714" lon="-1.18306">
        <ele>32</ele>
        <time>2017-09-23T15:25:32Z</time>
      </trkpt>
      <trkpt lat="47.32713" lon="-1.18308">
        <ele>33</ele>
        <time>2017-09-23T15:25:33Z</time>
      </trkpt>
      <trkpt lat="47.32708" lon="-1.18316">
        <ele>34</ele>
        <time>2017-09-23T15:25:38Z</time>
      </trkpt>
      <trkpt lat="47.32707" lon="-1.18319">
        <ele>34</ele>
        <time>2017-09-23T15:25:40Z</time>
      </trkpt>
      <trkpt lat="47.32704" lon="-1.18324">
        <ele>35</ele>
        <time>2017-09-23T15:25:43Z</time>
      </trkpt>
      <trkpt lat="47.32698" lon="-1.18332">
        <ele>36</ele>
        <time>2017-09-23T15:25:48Z</time>
      </trkpt>
      <trkpt lat="47.32696" lon="-1.18334">
        <ele>36</ele>
        <time>2017-09-23T15:25:49Z</time>
      </trkpt>
      <trkpt lat="47.3269" lon="-1.18339">
        <ele>37</ele>
        <time>2017-09-23T15:25:53Z</time>
      </trkpt>
      <trkpt lat="47.32686" lon="-1.18344">
        <ele>38</ele>
        <time>2017-09-23T15:25:56Z</time>
      </trkpt>
      <trkpt lat="47.32684" lon="-1.18347">
        <ele>39</ele>
        <time>2017-09-23T15:25:58Z</time>
      </trkpt>
      <trkpt lat="47.32678" lon="-1.18354">
        <ele>40</ele>
        <time>2017-09-23T15:26:03Z</time>
      </trkpt>
      <trkpt lat="47.32677" lon="-1.18356">
        <ele>40</ele>
        <time>2017-09-23T15:26:04Z</time>
      </trkpt>
      <trkpt lat="47.32673" lon="-1.18361">
        <ele>41</ele>
        <time>2017-09-23T15:26:08Z</time>
      </trkpt>
      <trkpt lat="47.32668" lon="-1.18368">
        <ele>42</ele>
        <time>2017-09-23T15:26:12Z</time>
      </trkpt>
      <trkpt lat="47.32667" lon="-1.1837">
        <ele>42</ele>
        <time>2017-09-23T15:26:13Z</time>
      </trkpt>
      <trkpt lat="47.3266" lon="-1.18382">
        <ele>43</ele>
        <time>2017-09-23T15:26:19Z</time>
      </trkpt>
      <trkpt lat="47.32659" lon="-1.18383">
        <ele>43</ele>
        <time>2017-09-23T15:26:20Z</time>
      </trkpt>
      <trkpt lat="47.32655" lon="-1.18389">
        <ele>44</ele>
        <time>2017-09-23T15:26:24Z</time>
      </trkpt>
      <trkpt lat="47.3265" lon="-1.18396">
        <ele>45</ele>
        <time>2017-09-23T15:26:28Z</time>
      </trkpt>
      <trkpt lat="47.32648" lon="-1.18398">
        <ele>45</ele>
        <time>2017-09-23T15:26:29Z</time>
      </trkpt>
      <trkpt lat="47.3264" lon="-1.18405">
        <ele>47</ele>
        <time>2017-09-23T15:26:34Z</time>
      </trkpt>
      <trkpt lat="47.32638" lon="-1.18407">
        <ele>47</ele>
        <time>2017-09-23T15:26:35Z</time>
      </trkpt>
      <trkpt lat="47.3263" lon="-1.18413">
        <ele>48</ele>
        <time>2017-09-23T15:26:39Z</time>
      </trkpt>
      <trkpt lat="47.32621" lon="-1.18418">
        <ele>49</ele>
        <time>2017-09-23T15:26:43Z</time>
      </trkpt>
      <trkpt lat="47.32619" lon="-1.18419">
        <ele>49</ele>
        <time>2017-09-23T15:26:44Z</time>
      </trkpt>
      <trkpt lat="47.32607" lon="-1.18424">
        <ele>50</ele>
        <time>2017-09-23T15:26:49Z</time>
      </trkpt>
      <trkpt lat="47.32601" lon="-1.18424">
        <ele>50</ele>
        <time>2017-09-23T15:26:51Z</time>
      </trkpt>
      <trkpt lat="47.32587" lon="-1.18428">
        <ele>51</ele>
        <time>2017-09-23T15:26:56Z</time>
      </trkpt>
      <trkpt lat="47.32585" lon="-1.18429">
        <ele>51</ele>
        <time>2017-09-23T15:26:57Z</time>
      </trkpt>
      <trkpt lat="47.32571" lon="-1.18437">
        <ele>52</ele>
        <time>2017-09-23T15:27:03Z</time>
      </trkpt>
      <trkpt lat="47.32568" lon="-1.18438">
        <ele>52</ele>
        <time>2017-09-23T15:27:04Z</time>
      </trkpt>
      <trkpt lat="47.32552" lon="-1.18449">
        <ele>53</ele>
        <time>2017-09-23T15:27:11Z</time>
      </trkpt>
      <trkpt lat="47.32537" lon="-1.18458">
        <ele>54</ele>
        <time>2017-09-23T15:27:18Z</time>
      </trkpt>
      <trkpt lat="47.32521" lon="-1.18467">
        <ele>55</ele>
        <time>2017-09-23T15:27:25Z</time>
      </trkpt>
      <trkpt lat="47.32518" lon="-1.18468">
        <ele>55</ele>
        <time>2017-09-23T15:27:26Z</time>
      </trkpt>
      <trkpt lat="47.32502" lon="-1.18479">
        <ele>56</ele>
        <time>2017-09-23T15:27:33Z</time>
      </trkpt>
      <trkpt lat="47.32489" lon="-1.18488">
        <ele>58</ele>
        <time>2017-09-23T15:27:39Z</time>
      </trkpt>
      <trkpt lat="47.32477" lon="-1.18498">
        <ele>59</ele>
        <time>2017-09-23T15:27:45Z</time>
      </trkpt>
      <trkpt lat="47.32475" lon="-1.18499">
        <ele>59</ele>
        <time>2017-09-23T15:27:46Z</time>
      </trkpt>
      <trkpt lat="47.32462" lon="-1.18509">
        <ele>60</ele>
        <time>2017-09-23T15:27:52Z</time>
      </trkpt>
      <trkpt lat="47.32456" lon="-1.18514">
        <ele>60</ele>
        <time>2017-09-23T15:27:55Z</time>
      </trkpt>
      <trkpt lat="47.3245" lon="-1.18519">
        <ele>61</ele>
        <time>2017-09-23T15:27:58Z</time>
      </trkpt>
      <trkpt lat="47.3244" lon="-1.18527">
        <ele>62</ele>
        <time>2017-09-23T15:28:03Z</time>
      </trkpt>
      <trkpt lat="47.32437" lon="-1.18529">
        <ele>62</ele>
        <time>2017-09-23T15:28:04Z</time>
      </trkpt>
      <trkpt lat="47.32427" lon="-1.18538">
        <ele>63</ele>
        <time>2017-09-23T15:28:09Z</time>
      </trkpt>
      <trkpt lat="47.32418" lon="-1.18545">
        <ele>64</ele>
        <time>2017-09-23T15:28:13Z</time>
      </trkpt>
      <trkpt lat="47.32409" lon="-1.18553">
        <ele>65</ele>
        <time>2017-09-23T15:28:17Z</time>
      </trkpt>
      <trkpt lat="47.32398" lon="-1.18563">
        <ele>66</ele>
        <time>2017-09-23T15:28:22Z</time>
      </trkpt>
      <trkpt lat="47.32382" lon="-1.18578">
        <ele>67</ele>
        <time>2017-09-23T15:28:28Z</time>
      </trkpt>
      <trkpt lat="47.32376" lon="-1.18582">
        <ele>67</ele>
        <time>2017-09-23T15:28:30Z</time>
      </trkpt>
      <trkpt lat="47.32364" lon="-1.1859">
        <ele>68</ele>
        <time>2017-09-23T15:28:34Z</time>
      </trkpt>
      <trkpt lat="47.32355" lon="-1.18596">
        <ele>68</ele>
        <time>2017-09-23T15:28:37Z</time>
      </trkpt>
      <trkpt lat="47.3234" lon="-1.18601">
        <ele>69</ele>
        <time>2017-09-23T15:28:41Z</time>
      </trkpt>
      <trkpt lat="47.32322" lon="-1.18608">
        <ele>70</ele>
        <time>2017-09-23T15:28:46Z</time>
      </trkpt>
      <trkpt lat="47.32302" lon="-1.18615">
        <ele>71</ele>
        <time>2017-09-23T15:28:52Z</time>
      </trkpt>
      <trkpt lat="47.32296" lon="-1.18617">
        <ele>72</ele>
        <time>2017-09-23T15:28:54Z</time>
      </trkpt>
      <trkpt lat="47.3228" lon="-1.18624">
        <ele>72</ele>
        <time>2017-09-23T15:28:59Z</time>
      </trkpt>
      <trkpt lat="47.32269" lon="-1.1863">
        <ele>73</ele>
        <time>2017-09-23T15:29:03Z</time>
      </trkpt>
      <trkpt lat="47.32267" lon="-1.18632">
        <ele>74</ele>
        <time>2017-09-23T15:29:04Z</time>
      </trkpt>
      <trkpt lat="47.32245" lon="-1.18644">
        <ele>74</ele>
        <time>2017-09-23T15:29:13Z</time>
      </trkpt>
      <trkpt lat="47.32236" lon="-1.18649">
        <ele>75</ele>
        <time>2017-09-23T15:29:16Z</time>
      </trkpt>
      <trkpt lat="47.32219" lon="-1.1866">
        <ele>75</ele>
        <time>2017-09-23T15:29:22Z</time>
      </trkpt>
      <trkpt lat="47.32214" lon="-1.18662">
        <ele>76</ele>
        <time>2017-09-23T15:29:24Z</time>
      </trkpt>
      <trkpt lat="47.32196" lon="-1.1867">
        <ele>76</ele>
        <time>2017-09-23T15:29:31Z</time>
      </trkpt>
      <trkpt lat="47.32189" lon="-1.18673">
        <ele>77</ele>
        <time>2017-09-23T15:29:34Z</time>
      </trkpt>
      <trkpt lat="47.32177" lon="-1.18678">
        <ele>77</ele>
        <time>2017-09-23T15:29:39Z</time>
      </trkpt>
      <trkpt lat="47.32164" lon="-1.18683">
        <ele>78</ele>
        <time>2017-09-23T15:29:46Z</time>
      </trkpt>
      <trkpt lat="47.3216" lon="-1.18677">
        <ele>80</ele>
        <time>2017-09-23T15:39:09Z</time>
      </trkpt>
      <trkpt lat="47.32159" lon="-1.1867">
        <ele>80</ele>
        <time>2017-09-23T15:39:11Z</time>
      </trkpt>
      <trkpt lat="47.32147" lon="-1.18642">
        <ele>80</ele>
        <time>2017-09-23T15:39:19Z</time>
      </trkpt>
      <trkpt lat="47.32129" lon="-1.18604">
        <ele>81</ele>
        <time>2017-09-23T15:39:28Z</time>
      </trkpt>
      <trkpt lat="47.32113" lon="-1.18567">
        <ele>81</ele>
        <time>2017-09-23T15:39:37Z</time>
      </trkpt>
      <trkpt lat="47.32091" lon="-1.18519">
        <ele>80</ele>
        <time>2017-09-23T15:39:47Z</time>
      </trkpt>
      <trkpt lat="47.32076" lon="-1.18475">
        <ele>80</ele>
        <time>2017-09-23T15:39:55Z</time>
      </trkpt>
      <trkpt lat="47.32071" lon="-1.18464">
        <ele>80</ele>
        <time>2017-09-23T15:39:57Z</time>
      </trkpt>
      <trkpt lat="47.32051" lon="-1.18425">
        <ele>79</ele>
        <time>2017-09-23T15:40:05Z</time>
      </trkpt>
      <trkpt lat="47.32046" lon="-1.18415">
        <ele>78</ele>
        <time>2017-09-23T15:40:07Z</time>
      </trkpt>
      <trkpt lat="47.32036" lon="-1.1841">
        <ele>78</ele>
        <time>2017-09-23T15:40:11Z</time>
      </trkpt>
      <trkpt lat="47.32034" lon="-1.18411">
        <ele>78</ele>
        <time>2017-09-23T15:40:12Z</time>
      </trkpt>
      <trkpt lat="47.32029" lon="-1.18419">
        <ele>77</ele>
        <time>2017-09-23T15:40:16Z</time>
      </trkpt>
      <trkpt lat="47.32014" lon="-1.18442">
        <ele>77</ele>
        <time>2017-09-23T15:40:24Z</time>
      </trkpt>
      <trkpt lat="47.32002" lon="-1.18466">
        <ele>77</ele>
        <time>2017-09-23T15:40:30Z</time>
      </trkpt>
      <trkpt lat="47.31987" lon="-1.18499">
        <ele>77</ele>
        <time>2017-09-23T15:40:37Z</time>
      </trkpt>
      <trkpt lat="47.31968" lon="-1.1854">
        <ele>77</ele>
        <time>2017-09-23T15:40:46Z</time>
      </trkpt>
      <trkpt lat="47.31946" lon="-1.18587">
        <ele>78</ele>
        <time>2017-09-23T15:40:56Z</time>
      </trkpt>
      <trkpt lat="47.31935" lon="-1.18611">
        <ele>79</ele>
        <time>2017-09-23T15:41:03Z</time>
      </trkpt>
      <trkpt lat="47.31934" lon="-1.18615">
        <ele>79</ele>
        <time>2017-09-23T15:41:04Z</time>
      </trkpt>
      <trkpt lat="47.31924" lon="-1.18637">
        <ele>80</ele>
        <time>2017-09-23T15:41:09Z</time>
      </trkpt>
      <trkpt lat="47.3192" lon="-1.18648">
        <ele>80</ele>
        <time>2017-09-23T15:41:11Z</time>
      </trkpt>
      <trkpt lat="47.31912" lon="-1.18671">
        <ele>81</ele>
        <time>2017-09-23T15:41:16Z</time>
      </trkpt>
      <trkpt lat="47.31903" lon="-1.1871">
        <ele>81</ele>
        <time>2017-09-23T15:41:24Z</time>
      </trkpt>
      <trkpt lat="47.31898" lon="-1.18726">
        <ele>81</ele>
        <time>2017-09-23T15:41:30Z</time>
      </trkpt>
      <trkpt lat="47.31899" lon="-1.18725">
        <ele>81</ele>
        <time>2017-09-23T15:46:31Z</time>
      </trkpt>
      <trkpt lat="47.31899" lon="-1.18732">
        <ele>81</ele>
        <time>2017-09-23T15:46:33Z</time>
      </trkpt>
      <trkpt lat="47.31899" lon="-1.1874">
        <ele>81</ele>
        <time>2017-09-23T15:46:35Z</time>
      </trkpt>
      <trkpt lat="47.319" lon="-1.18768">
        <ele>81</ele>
        <time>2017-09-23T15:46:41Z</time>
      </trkpt>
      <trkpt lat="47.31902" lon="-1.18813">
        <ele>81</ele>
        <time>2017-09-23T15:46:50Z</time>
      </trkpt>
      <trkpt lat="47.31907" lon="-1.18852">
        <ele>81</ele>
        <time>2017-09-23T15:46:58Z</time>
      </trkpt>
      <trkpt lat="47.31915" lon="-1.18887">
        <ele>81</ele>
        <time>2017-09-23T15:47:06Z</time>
      </trkpt>
      <trkpt lat="47.31911" lon="-1.18902">
        <ele>80</ele>
        <time>2017-09-23T15:47:11Z</time>
      </trkpt>
      <trkpt lat="47.31897" lon="-1.18911">
        <ele>80</ele>
        <time>2017-09-23T15:47:17Z</time>
      </trkpt>
      <trkpt lat="47.31878" lon="-1.18922">
        <ele>80</ele>
        <time>2017-09-23T15:47:23Z</time>
      </trkpt>
      <trkpt lat="47.31849" lon="-1.18938">
        <ele>80</ele>
        <time>2017-09-23T15:47:31Z</time>
      </trkpt>
      <trkpt lat="47.31831" lon="-1.18949">
        <ele>80</ele>
        <time>2017-09-23T15:47:35Z</time>
      </trkpt>
      <trkpt lat="47.31821" lon="-1.18955">
        <ele>79</ele>
        <time>2017-09-23T15:47:37Z</time>
      </trkpt>
      <trkpt lat="47.3181" lon="-1.18962">
        <ele>79</ele>
        <time>2017-09-23T15:47:40Z</time>
      </trkpt>
      <trkpt lat="47.31808" lon="-1.18967">
        <ele>78</ele>
        <time>2017-09-23T15:47:41Z</time>
      </trkpt>
      <trkpt lat="47.31808" lon="-1.18972">
        <ele>78</ele>
        <time>2017-09-23T15:47:42Z</time>
      </trkpt>
      <trkpt lat="47.31809" lon="-1.18978">
        <ele>78</ele>
        <time>2017-09-23T15:47:43Z</time>
      </trkpt>
      <trkpt lat="47.31814" lon="-1.18988">
        <ele>77</ele>
        <time>2017-09-23T15:47:45Z</time>
      </trkpt>
      <trkpt lat="47.31817" lon="-1.18994">
        <ele>77</ele>
        <time>2017-09-23T15:47:46Z</time>
      </trkpt>
      <trkpt lat="47.31834" lon="-1.19025">
        <ele>77</ele>
        <time>2017-09-23T15:47:52Z</time>
      </trkpt>
      <trkpt lat="47.31852" lon="-1.1906">
        <ele>77</ele>
        <time>2017-09-23T15:47:58Z</time>
      </trkpt>
      <trkpt lat="47.31872" lon="-1.19095">
        <ele>77</ele>
        <time>2017-09-23T15:48:05Z</time>
      </trkpt>
      <trkpt lat="47.31889" lon="-1.19126">
        <ele>77</ele>
        <time>2017-09-23T15:48:11Z</time>
      </trkpt>
      <trkpt lat="47.31908" lon="-1.19164">
        <ele>77</ele>
        <time>2017-09-23T15:48:18Z</time>
      </trkpt>
      <trkpt lat="47.31937" lon="-1.19221">
        <ele>78</ele>
        <time>2017-09-23T15:48:29Z</time>
      </trkpt>
      <trkpt lat="47.31953" lon="-1.19239">
        <ele>78</ele>
        <time>2017-09-23T15:48:34Z</time>
      </trkpt>
      <trkpt lat="47.31957" lon="-1.19242">
        <ele>78</ele>
        <time>2017-09-23T15:48:35Z</time>
      </trkpt>
      <trkpt lat="47.31975" lon="-1.1925">
        <ele>79</ele>
        <time>2017-09-23T15:48:40Z</time>
      </trkpt>
      <trkpt lat="47.31994" lon="-1.19257">
        <ele>79</ele>
        <time>2017-09-23T15:48:46Z</time>
      </trkpt>
      <trkpt lat="47.32015" lon="-1.19268">
        <ele>80</ele>
        <time>2017-09-23T15:48:53Z</time>
      </trkpt>
      <trkpt lat="47.32022" lon="-1.19272">
        <ele>80</ele>
        <time>2017-09-23T15:48:55Z</time>
      </trkpt>
      <trkpt lat="47.32046" lon="-1.19287">
        <ele>81</ele>
        <time>2017-09-23T15:49:02Z</time>
      </trkpt>
      <trkpt lat="47.32053" lon="-1.19292">
        <ele>81</ele>
        <time>2017-09-23T15:49:04Z</time>
      </trkpt>
      <trkpt lat="47.32071" lon="-1.19308">
        <ele>81</ele>
        <time>2017-09-23T15:49:10Z</time>
      </trkpt>
      <trkpt lat="47.32086" lon="-1.19331">
        <ele>82</ele>
        <time>2017-09-23T15:49:16Z</time>
      </trkpt>
      <trkpt lat="47.32091" lon="-1.19339">
        <ele>82</ele>
        <time>2017-09-23T15:49:18Z</time>
      </trkpt>
      <trkpt lat="47.32102" lon="-1.19357">
        <ele>83</ele>
        <time>2017-09-23T15:49:23Z</time>
      </trkpt>
      <trkpt lat="47.32107" lon="-1.19365">
        <ele>83</ele>
        <time>2017-09-23T15:49:25Z</time>
      </trkpt>
      <trkpt lat="47.32119" lon="-1.19388">
        <ele>84</ele>
        <time>2017-09-23T15:49:31Z</time>
      </trkpt>
      <trkpt lat="47.32123" lon="-1.19396">
        <ele>84</ele>
        <time>2017-09-23T15:49:33Z</time>
      </trkpt>
      <trkpt lat="47.32139" lon="-1.19421">
        <ele>85</ele>
        <time>2017-09-23T15:49:39Z</time>
      </trkpt>
      <trkpt lat="47.32153" lon="-1.19453">
        <ele>85</ele>
        <time>2017-09-23T15:49:46Z</time>
      </trkpt>
      <trkpt lat="47.32155" lon="-1.19457">
        <ele>85</ele>
        <time>2017-09-23T15:49:47Z</time>
      </trkpt>
      <trkpt lat="47.32175" lon="-1.19489">
        <ele>85</ele>
        <time>2017-09-23T15:49:55Z</time>
      </trkpt>
      <trkpt lat="47.32178" lon="-1.19492">
        <ele>85</ele>
        <time>2017-09-23T15:49:56Z</time>
      </trkpt>
      <trkpt lat="47.32194" lon="-1.19516">
        <ele>85</ele>
        <time>2017-09-23T15:50:03Z</time>
      </trkpt>
      <trkpt lat="47.32218" lon="-1.19549">
        <ele>86</ele>
        <time>2017-09-23T15:50:13Z</time>
      </trkpt>
      <trkpt lat="47.32236" lon="-1.19569">
        <ele>86</ele>
        <time>2017-09-23T15:50:19Z</time>
      </trkpt>
      <trkpt lat="47.32244" lon="-1.19578">
        <ele>86</ele>
        <time>2017-09-23T15:50:22Z</time>
      </trkpt>
      <trkpt lat="47.32267" lon="-1.196">
        <ele>87</ele>
        <time>2017-09-23T15:50:30Z</time>
      </trkpt>
      <trkpt lat="47.32273" lon="-1.19606">
        <ele>88</ele>
        <time>2017-09-23T15:50:32Z</time>
      </trkpt>
      <trkpt lat="47.32295" lon="-1.19631">
        <ele>88</ele>
        <time>2017-09-23T15:50:40Z</time>
      </trkpt>
      <trkpt lat="47.32317" lon="-1.19654">
        <ele>88</ele>
        <time>2017-09-23T15:50:48Z</time>
      </trkpt>
      <trkpt lat="47.3234" lon="-1.19676">
        <ele>88</ele>
        <time>2017-09-23T15:50:56Z</time>
      </trkpt>
      <trkpt lat="47.32364" lon="-1.19701">
        <ele>88</ele>
        <time>2017-09-23T15:51:05Z</time>
      </trkpt>
      <trkpt lat="47.32376" lon="-1.19725">
        <ele>88</ele>
        <time>2017-09-23T15:51:12Z</time>
      </trkpt>
      <trkpt lat="47.32379" lon="-1.19732">
        <ele>88</ele>
        <time>2017-09-23T15:51:34Z</time>
      </trkpt>
      <trkpt lat="47.3238" lon="-1.19734">
        <ele>88</ele>
        <time>2017-09-23T15:51:35Z</time>
      </trkpt>
      <trkpt lat="47.32392" lon="-1.19748">
        <ele>88</ele>
        <time>2017-09-23T15:51:40Z</time>
      </trkpt>
      <trkpt lat="47.32394" lon="-1.19751">
        <ele>88</ele>
        <time>2017-09-23T15:51:41Z</time>
      </trkpt>
      <trkpt lat="47.32415" lon="-1.19774">
        <ele>89</ele>
        <time>2017-09-23T15:51:48Z</time>
      </trkpt>
      <trkpt lat="47.32435" lon="-1.19803">
        <ele>88</ele>
        <time>2017-09-23T15:51:55Z</time>
      </trkpt>
      <trkpt lat="47.3245" lon="-1.19831">
        <ele>87</ele>
        <time>2017-09-23T15:52:01Z</time>
      </trkpt>
      <trkpt lat="47.32454" lon="-1.19836">
        <ele>87</ele>
        <time>2017-09-23T15:52:02Z</time>
      </trkpt>
      <trkpt lat="47.32469" lon="-1.19854">
        <ele>87</ele>
        <time>2017-09-23T15:52:06Z</time>
      </trkpt>
      <trkpt lat="47.32473" lon="-1.19857">
        <ele>87</ele>
        <time>2017-09-23T15:52:07Z</time>
      </trkpt>
      <trkpt lat="47.32483" lon="-1.19861">
        <ele>86</ele>
        <time>2017-09-23T15:52:09Z</time>
      </trkpt>
      <trkpt lat="47.32499" lon="-1.19862">
        <ele>86</ele>
        <time>2017-09-23T15:52:12Z</time>
      </trkpt>
      <trkpt lat="47.32517" lon="-1.19858">
        <ele>85</ele>
        <time>2017-09-23T15:52:15Z</time>
      </trkpt>
      <trkpt lat="47.32528" lon="-1.19855">
        <ele>85</ele>
        <time>2017-09-23T15:52:17Z</time>
      </trkpt>
      <trkpt lat="47.32545" lon="-1.1985">
        <ele>84</ele>
        <time>2017-09-23T15:52:20Z</time>
      </trkpt>
      <trkpt lat="47.32566" lon="-1.19845">
        <ele>83</ele>
        <time>2017-09-23T15:52:24Z</time>
      </trkpt>
      <trkpt lat="47.32571" lon="-1.19843">
        <ele>83</ele>
        <time>2017-09-23T15:52:25Z</time>
      </trkpt>
      <trkpt lat="47.3259" lon="-1.19839">
        <ele>82</ele>
        <time>2017-09-23T15:52:29Z</time>
      </trkpt>
      <trkpt lat="47.32596" lon="-1.19833">
        <ele>81</ele>
        <time>2017-09-23T15:52:31Z</time>
      </trkpt>
      <trkpt lat="47.32598" lon="-1.19822">
        <ele>81</ele>
        <time>2017-09-23T15:52:33Z</time>
      </trkpt>
      <trkpt lat="47.32597" lon="-1.19815">
        <ele>81</ele>
        <time>2017-09-23T15:52:34Z</time>
      </trkpt>
      <trkpt lat="47.32596" lon="-1.19804">
        <ele>80</ele>
        <time>2017-09-23T15:52:36Z</time>
      </trkpt>
      <trkpt lat="47.32592" lon="-1.19772">
        <ele>80</ele>
        <time>2017-09-23T15:52:41Z</time>
      </trkpt>
      <trkpt lat="47.32581" lon="-1.19726">
        <ele>81</ele>
        <time>2017-09-23T15:52:48Z</time>
      </trkpt>
      <trkpt lat="47.32569" lon="-1.19682">
        <ele>82</ele>
        <time>2017-09-23T15:52:55Z</time>
      </trkpt>
      <trkpt lat="47.32563" lon="-1.1964">
        <ele>83</ele>
        <time>2017-09-23T15:53:02Z</time>
      </trkpt>
      <trkpt lat="47.32557" lon="-1.19588">
        <ele>84</ele>
        <time>2017-09-23T15:53:11Z</time>
      </trkpt>
      <trkpt lat="47.32557" lon="-1.19582">
        <ele>84</ele>
        <time>2017-09-23T15:53:12Z</time>
      </trkpt>
      <trkpt lat="47.32549" lon="-1.19535">
        <ele>84</ele>
        <time>2017-09-23T15:53:20Z</time>
      </trkpt>
      <trkpt lat="47.32541" lon="-1.19502">
        <ele>83</ele>
        <time>2017-09-23T15:53:26Z</time>
      </trkpt>
      <trkpt lat="47.3254" lon="-1.19485">
        <ele>82</ele>
        <time>2017-09-23T15:53:29Z</time>
      </trkpt>
      <trkpt lat="47.32545" lon="-1.19475">
        <ele>82</ele>
        <time>2017-09-23T15:53:31Z</time>
      </trkpt>
      <trkpt lat="47.32549" lon="-1.1947">
        <ele>82</ele>
        <time>2017-09-23T15:53:32Z</time>
      </trkpt>
      <trkpt lat="47.32554" lon="-1.19467">
        <ele>82</ele>
        <time>2017-09-23T15:53:33Z</time>
      </trkpt>
      <trkpt lat="47.3257" lon="-1.19461">
        <ele>81</ele>
        <time>2017-09-23T15:53:36Z</time>
      </trkpt>
      <trkpt lat="47.32575" lon="-1.19459">
        <ele>80</ele>
        <time>2017-09-23T15:53:37Z</time>
      </trkpt>
      <trkpt lat="47.32596" lon="-1.19452">
        <ele>80</ele>
        <time>2017-09-23T15:53:41Z</time>
      </trkpt>
      <trkpt lat="47.32613" lon="-1.19449">
        <ele>79</ele>
        <time>2017-09-23T15:53:44Z</time>
      </trkpt>
      <trkpt lat="47.32646" lon="-1.19439">
        <ele>79</ele>
        <time>2017-09-23T15:53:50Z</time>
      </trkpt>
      <trkpt lat="47.32688" lon="-1.19422">
        <ele>78</ele>
        <time>2017-09-23T15:53:58Z</time>
      </trkpt>
      <trkpt lat="47.32698" lon="-1.19403">
        <ele>78</ele>
        <time>2017-09-23T15:54:01Z</time>
      </trkpt>
      <trkpt lat="47.32699" lon="-1.19395">
        <ele>77</ele>
        <time>2017-09-23T15:54:02Z</time>
      </trkpt>
      <trkpt lat="47.32701" lon="-1.19379">
        <ele>77</ele>
        <time>2017-09-23T15:54:04Z</time>
      </trkpt>
      <trkpt lat="47.32702" lon="-1.19371">
        <ele>77</ele>
        <time>2017-09-23T15:54:05Z</time>
      </trkpt>
      <trkpt lat="47.32709" lon="-1.19335">
        <ele>76</ele>
        <time>2017-09-23T15:54:10Z</time>
      </trkpt>
      <trkpt lat="47.32716" lon="-1.19323">
        <ele>76</ele>
        <time>2017-09-23T15:54:12Z</time>
      </trkpt>
      <trkpt lat="47.32721" lon="-1.19321">
        <ele>75</ele>
        <time>2017-09-23T15:54:13Z</time>
      </trkpt>
      <trkpt lat="47.32727" lon="-1.19321">
        <ele>75</ele>
        <time>2017-09-23T15:54:14Z</time>
      </trkpt>
      <trkpt lat="47.32732" lon="-1.19323">
        <ele>75</ele>
        <time>2017-09-23T15:54:15Z</time>
      </trkpt>
      <trkpt lat="47.32737" lon="-1.19324">
        <ele>75</ele>
        <time>2017-09-23T15:54:16Z</time>
      </trkpt>
      <trkpt lat="47.32751" lon="-1.19328">
        <ele>74</ele>
        <time>2017-09-23T15:54:19Z</time>
      </trkpt>
      <trkpt lat="47.3276" lon="-1.19333">
        <ele>73</ele>
        <time>2017-09-23T15:54:21Z</time>
      </trkpt>
      <trkpt lat="47.32763" lon="-1.19336">
        <ele>73</ele>
        <time>2017-09-23T15:54:22Z</time>
      </trkpt>
      <trkpt lat="47.32769" lon="-1.19352">
        <ele>72</ele>
        <time>2017-09-23T15:54:25Z</time>
      </trkpt>
      <trkpt lat="47.32775" lon="-1.19359">
        <ele>70</ele>
        <time>2017-09-23T15:54:27Z</time>
      </trkpt>
      <trkpt lat="47.32779" lon="-1.19362">
        <ele>70</ele>
        <time>2017-09-23T15:54:28Z</time>
      </trkpt>
      <trkpt lat="47.32782" lon="-1.19363">
        <ele>70</ele>
        <time>2017-09-23T15:54:29Z</time>
      </trkpt>
      <trkpt lat="47.32788" lon="-1.19365">
        <ele>69</ele>
        <time>2017-09-23T15:54:31Z</time>
      </trkpt>
      <trkpt lat="47.32798" lon="-1.19372">
        <ele>68</ele>
        <time>2017-09-23T15:54:34Z</time>
      </trkpt>
      <trkpt lat="47.328" lon="-1.19377">
        <ele>68</ele>
        <time>2017-09-23T15:54:35Z</time>
      </trkpt>
      <trkpt lat="47.32802" lon="-1.19391">
        <ele>67</ele>
        <time>2017-09-23T15:54:37Z</time>
      </trkpt>
      <trkpt lat="47.32802" lon="-1.19399">
        <ele>67</ele>
        <time>2017-09-23T15:54:38Z</time>
      </trkpt>
      <trkpt lat="47.32802" lon="-1.19413">
        <ele>66</ele>
        <time>2017-09-23T15:54:40Z</time>
      </trkpt>
      <trkpt lat="47.32802" lon="-1.19421">
        <ele>65</ele>
        <time>2017-09-23T15:54:41Z</time>
      </trkpt>
      <trkpt lat="47.32802" lon="-1.1943">
        <ele>65</ele>
        <time>2017-09-23T15:54:42Z</time>
      </trkpt>
      <trkpt lat="47.32802" lon="-1.19439">
        <ele>64</ele>
        <time>2017-09-23T15:54:43Z</time>
      </trkpt>
      <trkpt lat="47.32802" lon="-1.19456">
        <ele>63</ele>
        <time>2017-09-23T15:54:45Z</time>
      </trkpt>
      <trkpt lat="47.32803" lon="-1.19469">
        <ele>62</ele>
        <time>2017-09-23T15:54:47Z</time>
      </trkpt>
      <trkpt lat="47.32804" lon="-1.19472">
        <ele>61</ele>
        <time>2017-09-23T15:54:48Z</time>
      </trkpt>
      <trkpt lat="47.32806" lon="-1.19475">
        <ele>61</ele>
        <time>2017-09-23T15:54:49Z</time>
      </trkpt>
      <trkpt lat="47.32808" lon="-1.19477">
        <ele>60</ele>
        <time>2017-09-23T15:54:50Z</time>
      </trkpt>
      <trkpt lat="47.32813" lon="-1.1948">
        <ele>60</ele>
        <time>2017-09-23T15:54:52Z</time>
      </trkpt>
      <trkpt lat="47.32819" lon="-1.19485">
        <ele>60</ele>
        <time>2017-09-23T15:54:54Z</time>
      </trkpt>
      <trkpt lat="47.32833" lon="-1.195">
        <ele>61</ele>
        <time>2017-09-23T15:54:59Z</time>
      </trkpt>
      <trkpt lat="47.32842" lon="-1.19509">
        <ele>61</ele>
        <time>2017-09-23T15:55:03Z</time>
      </trkpt>
      <trkpt lat="47.32848" lon="-1.19514">
        <ele>62</ele>
        <time>2017-09-23T15:55:06Z</time>
      </trkpt>
      <trkpt lat="47.3285" lon="-1.19515">
        <ele>62</ele>
        <time>2017-09-23T15:55:07Z</time>
      </trkpt>
      <trkpt lat="47.32857" lon="-1.19521">
        <ele>64</ele>
        <time>2017-09-23T15:55:11Z</time>
      </trkpt>
      <trkpt lat="47.32863" lon="-1.19525">
        <ele>65</ele>
        <time>2017-09-23T15:55:14Z</time>
      </trkpt>
      <trkpt lat="47.32869" lon="-1.19531">
        <ele>66</ele>
        <time>2017-09-23T15:55:18Z</time>
      </trkpt>
      <trkpt lat="47.32876" lon="-1.19537">
        <ele>67</ele>
        <time>2017-09-23T15:55:23Z</time>
      </trkpt>
      <trkpt lat="47.32887" lon="-1.19545">
        <ele>68</ele>
        <time>2017-09-23T15:55:28Z</time>
      </trkpt>
      <trkpt lat="47.3289" lon="-1.19547">
        <ele>69</ele>
        <time>2017-09-23T15:55:29Z</time>
      </trkpt>
      <trkpt lat="47.3291" lon="-1.19556">
        <ele>69</ele>
        <time>2017-09-23T15:55:36Z</time>
      </trkpt>
      <trkpt lat="47.32912" lon="-1.19558">
        <ele>69</ele>
        <time>2017-09-23T15:55:37Z</time>
      </trkpt>
      <trkpt lat="47.32926" lon="-1.19576">
        <ele>70</ele>
        <time>2017-09-23T15:55:43Z</time>
      </trkpt>
      <trkpt lat="47.32941" lon="-1.19607">
        <ele>70</ele>
        <time>2017-09-23T15:55:51Z</time>
      </trkpt>
      <trkpt lat="47.32949" lon="-1.19617">
        <ele>70</ele>
        <time>2017-09-23T15:55:56Z</time>
      </trkpt>
      <trkpt lat="47.32951" lon="-1.19617">
        <ele>70</ele>
        <time>2017-09-23T15:55:57Z</time>
      </trkpt>
      <trkpt lat="47.32953" lon="-1.19613">
        <ele>70</ele>
        <time>2017-09-23T16:01:48Z</time>
      </trkpt>
      <trkpt lat="47.32954" lon="-1.19611">
        <ele>70</ele>
        <time>2017-09-23T16:01:49Z</time>
      </trkpt>
      <trkpt lat="47.32957" lon="-1.19588">
        <ele>70</ele>
        <time>2017-09-23T16:01:56Z</time>
      </trkpt>
      <trkpt lat="47.32964" lon="-1.19556">
        <ele>69</ele>
        <time>2017-09-23T16:02:03Z</time>
      </trkpt>
      <trkpt lat="47.3297" lon="-1.19534">
        <ele>69</ele>
        <time>2017-09-23T16:02:07Z</time>
      </trkpt>
      <trkpt lat="47.32977" lon="-1.19527">
        <ele>69</ele>
        <time>2017-09-23T16:02:09Z</time>
      </trkpt>
      <trkpt lat="47.32985" lon="-1.19522">
        <ele>69</ele>
        <time>2017-09-23T16:02:11Z</time>
      </trkpt>
      <trkpt lat="47.33" lon="-1.19518">
        <ele>68</ele>
        <time>2017-09-23T16:02:14Z</time>
      </trkpt>
      <trkpt lat="47.33004" lon="-1.19516">
        <ele>68</ele>
        <time>2017-09-23T16:02:15Z</time>
      </trkpt>
      <trkpt lat="47.33021" lon="-1.19509">
        <ele>67</ele>
        <time>2017-09-23T16:02:19Z</time>
      </trkpt>
      <trkpt lat="47.33031" lon="-1.19501">
        <ele>67</ele>
        <time>2017-09-23T16:02:22Z</time>
      </trkpt>
      <trkpt lat="47.33051" lon="-1.19478">
        <ele>67</ele>
        <time>2017-09-23T16:02:29Z</time>
      </trkpt>
      <trkpt lat="47.3307" lon="-1.19457">
        <ele>67</ele>
        <time>2017-09-23T16:02:36Z</time>
      </trkpt>
      <trkpt lat="47.33089" lon="-1.19446">
        <ele>67</ele>
        <time>2017-09-23T16:02:42Z</time>
      </trkpt>
      <trkpt lat="47.33106" lon="-1.19454">
        <ele>67</ele>
        <time>2017-09-23T16:02:47Z</time>
      </trkpt>
      <trkpt lat="47.33131" lon="-1.19465">
        <ele>67</ele>
        <time>2017-09-23T16:02:55Z</time>
      </trkpt>
      <trkpt lat="47.3316" lon="-1.19476">
        <ele>67</ele>
        <time>2017-09-23T16:03:04Z</time>
      </trkpt>
      <trkpt lat="47.33176" lon="-1.19476">
        <ele>66</ele>
        <time>2017-09-23T16:03:10Z</time>
      </trkpt>
      <trkpt lat="47.33181" lon="-1.19463">
        <ele>66</ele>
        <time>2017-09-23T16:03:15Z</time>
      </trkpt>
      <trkpt lat="47.33187" lon="-1.19457">
        <ele>66</ele>
        <time>2017-09-23T16:03:20Z</time>
      </trkpt>
      <trkpt lat="47.33189" lon="-1.19457">
        <ele>65</ele>
        <time>2017-09-23T16:04:36Z</time>
      </trkpt>
      <trkpt lat="47.33195" lon="-1.19455">
        <ele>65</ele>
        <time>2017-09-23T16:04:39Z</time>
      </trkpt>
      <trkpt lat="47.33198" lon="-1.19455">
        <ele>65</ele>
        <time>2017-09-23T16:04:40Z</time>
      </trkpt>
      <trkpt lat="47.33207" lon="-1.19453">
        <ele>65</ele>
        <time>2017-09-23T16:04:43Z</time>
      </trkpt>
      <trkpt lat="47.33214" lon="-1.19452">
        <ele>65</ele>
        <time>2017-09-23T16:04:45Z</time>
      </trkpt>
      <trkpt lat="47.33218" lon="-1.19451">
        <ele>65</ele>
        <time>2017-09-23T16:04:46Z</time>
      </trkpt>
      <trkpt lat="47.33239" lon="-1.19447">
        <ele>65</ele>
        <time>2017-09-23T16:04:51Z</time>
      </trkpt>
      <trkpt lat="47.33249" lon="-1.19448">
        <ele>65</ele>
        <time>2017-09-23T16:04:53Z</time>
      </trkpt>
      <trkpt lat="47.33259" lon="-1.19452">
        <ele>64</ele>
        <time>2017-09-23T16:04:55Z</time>
      </trkpt>
      <trkpt lat="47.33274" lon="-1.19464">
        <ele>63</ele>
        <time>2017-09-23T16:04:58Z</time>
      </trkpt>
      <trkpt lat="47.33278" lon="-1.19468">
        <ele>63</ele>
        <time>2017-09-23T16:04:59Z</time>
      </trkpt>
      <trkpt lat="47.33283" lon="-1.19473">
        <ele>63</ele>
        <time>2017-09-23T16:05:00Z</time>
      </trkpt>
      <trkpt lat="47.33302" lon="-1.19494">
        <ele>62</ele>
        <time>2017-09-23T16:05:05Z</time>
      </trkpt>
      <trkpt lat="47.3331" lon="-1.195">
        <ele>62</ele>
        <time>2017-09-23T16:05:07Z</time>
      </trkpt>
      <trkpt lat="47.33324" lon="-1.19507">
        <ele>61</ele>
        <time>2017-09-23T16:05:11Z</time>
      </trkpt>
      <trkpt lat="47.33327" lon="-1.19508">
        <ele>61</ele>
        <time>2017-09-23T16:05:12Z</time>
      </trkpt>
      <trkpt lat="47.33336" lon="-1.19512">
        <ele>59</ele>
        <time>2017-09-23T16:05:15Z</time>
      </trkpt>
      <trkpt lat="47.3334" lon="-1.19513">
        <ele>59</ele>
        <time>2017-09-23T16:05:17Z</time>
      </trkpt>
      <trkpt lat="47.33344" lon="-1.19513">
        <ele>58</ele>
        <time>2017-09-23T16:05:19Z</time>
      </trkpt>
      <trkpt lat="47.33352" lon="-1.19513">
        <ele>57</ele>
        <time>2017-09-23T16:05:22Z</time>
      </trkpt>
      <trkpt lat="47.33355" lon="-1.19513">
        <ele>57</ele>
        <time>2017-09-23T16:05:23Z</time>
      </trkpt>
      <trkpt lat="47.33364" lon="-1.19514">
        <ele>56</ele>
        <time>2017-09-23T16:05:27Z</time>
      </trkpt>
      <trkpt lat="47.33366" lon="-1.19514">
        <ele>55</ele>
        <time>2017-09-23T16:05:28Z</time>
      </trkpt>
      <trkpt lat="47.33373" lon="-1.19517">
        <ele>52</ele>
        <time>2017-09-23T16:08:00Z</time>
      </trkpt>
      <trkpt lat="47.33375" lon="-1.19518">
        <ele>52</ele>
        <time>2017-09-23T16:08:01Z</time>
      </trkpt>
      <trkpt lat="47.33386" lon="-1.19513">
        <ele>52</ele>
        <time>2017-09-23T16:08:05Z</time>
      </trkpt>
      <trkpt lat="47.33394" lon="-1.19502">
        <ele>51</ele>
        <time>2017-09-23T16:08:08Z</time>
      </trkpt>
      <trkpt lat="47.33399" lon="-1.19498">
        <ele>50</ele>
        <time>2017-09-23T16:08:10Z</time>
      </trkpt>
      <trkpt lat="47.33404" lon="-1.19495">
        <ele>50</ele>
        <time>2017-09-23T16:08:12Z</time>
      </trkpt>
      <trkpt lat="47.3341" lon="-1.19494">
        <ele>48</ele>
        <time>2017-09-23T16:08:15Z</time>
      </trkpt>
      <trkpt lat="47.33416" lon="-1.19497">
        <ele>47</ele>
        <time>2017-09-23T16:08:18Z</time>
      </trkpt>
      <trkpt lat="47.33417" lon="-1.19499">
        <ele>47</ele>
        <time>2017-09-23T16:08:19Z</time>
      </trkpt>
      <trkpt lat="47.33419" lon="-1.195">
        <ele>46</ele>
        <time>2017-09-23T16:08:20Z</time>
      </trkpt>
      <trkpt lat="47.3342" lon="-1.19501">
        <ele>46</ele>
        <time>2017-09-23T16:08:21Z</time>
      </trkpt>
      <trkpt lat="47.33422" lon="-1.19502">
        <ele>45</ele>
        <time>2017-09-23T16:08:22Z</time>
      </trkpt>
      <trkpt lat="47.33426" lon="-1.19508">
        <ele>44</ele>
        <time>2017-09-23T16:08:24Z</time>
      </trkpt>
      <trkpt lat="47.33431" lon="-1.19515">
        <ele>43</ele>
        <time>2017-09-23T16:08:26Z</time>
      </trkpt>
      <trkpt lat="47.33433" lon="-1.19519">
        <ele>42</ele>
        <time>2017-09-23T16:08:27Z</time>
      </trkpt>
      <trkpt lat="47.33438" lon="-1.19525">
        <ele>41</ele>
        <time>2017-09-23T16:08:29Z</time>
      </trkpt>
      <trkpt lat="47.33443" lon="-1.19529">
        <ele>39</ele>
        <time>2017-09-23T16:08:31Z</time>
      </trkpt>
      <trkpt lat="47.33447" lon="-1.19532">
        <ele>38</ele>
        <time>2017-09-23T16:08:33Z</time>
      </trkpt>
      <trkpt lat="47.33518" lon="-1.19585">
        <ele>40</ele>
        <time>2017-09-23T16:13:10Z</time>
      </trkpt>
      <trkpt lat="47.33521" lon="-1.19592">
        <ele>41</ele>
        <time>2017-09-23T16:13:13Z</time>
      </trkpt>
      <trkpt lat="47.33524" lon="-1.19602">
        <ele>42</ele>
        <time>2017-09-23T16:13:19Z</time>
      </trkpt>
      <trkpt lat="47.33545" lon="-1.19679">
        <ele>51</ele>
        <time>2017-09-23T16:14:40Z</time>
      </trkpt>
      <trkpt lat="47.33545" lon="-1.19682">
        <ele>52</ele>
        <time>2017-09-23T16:14:41Z</time>
      </trkpt>
      <trkpt lat="47.33546" lon="-1.19691">
        <ele>53</ele>
        <time>2017-09-23T16:14:45Z</time>
      </trkpt>
      <trkpt lat="47.33547" lon="-1.19698">
        <ele>53</ele>
        <time>2017-09-23T16:14:48Z</time>
      </trkpt>
      <trkpt lat="47.33547" lon="-1.19703">
        <ele>54</ele>
        <time>2017-09-23T16:14:50Z</time>
      </trkpt>
      <trkpt lat="47.33548" lon="-1.19713">
        <ele>55</ele>
        <time>2017-09-23T16:14:54Z</time>
      </trkpt>
      <trkpt lat="47.33549" lon="-1.19726">
        <ele>56</ele>
        <time>2017-09-23T16:14:59Z</time>
      </trkpt>
      <trkpt lat="47.33549" lon="-1.19731">
        <ele>56</ele>
        <time>2017-09-23T16:15:01Z</time>
      </trkpt>
      <trkpt lat="47.33551" lon="-1.19742">
        <ele>57</ele>
        <time>2017-09-23T16:15:06Z</time>
      </trkpt>
      <trkpt lat="47.33552" lon="-1.19748">
        <ele>57</ele>
        <time>2017-09-23T16:15:09Z</time>
      </trkpt>
      <trkpt lat="47.33553" lon="-1.19753">
        <ele>58</ele>
        <time>2017-09-23T16:15:11Z</time>
      </trkpt>
      <trkpt lat="47.33555" lon="-1.19765">
        <ele>59</ele>
        <time>2017-09-23T16:15:16Z</time>
      </trkpt>
      <trkpt lat="47.33555" lon="-1.19767">
        <ele>59</ele>
        <time>2017-09-23T16:15:17Z</time>
      </trkpt>
      <trkpt lat="47.33555" lon="-1.19775">
        <ele>60</ele>
        <time>2017-09-23T16:15:21Z</time>
      </trkpt>
      <trkpt lat="47.3356" lon="-1.19778">
        <ele>61</ele>
        <time>2017-09-23T16:19:19Z</time>
      </trkpt>
      <trkpt lat="47.33562" lon="-1.19776">
        <ele>61</ele>
        <time>2017-09-23T16:19:20Z</time>
      </trkpt>
      <trkpt lat="47.33574" lon="-1.19773">
        <ele>61</ele>
        <time>2017-09-23T16:19:24Z</time>
      </trkpt>
      <trkpt lat="47.33583" lon="-1.19775">
        <ele>61</ele>
        <time>2017-09-23T16:19:26Z</time>
      </trkpt>
      <trkpt lat="47.33597" lon="-1.19776">
        <ele>61</ele>
        <time>2017-09-23T16:19:29Z</time>
      </trkpt>
      <trkpt lat="47.33611" lon="-1.19776">
        <ele>60</ele>
        <time>2017-09-23T16:19:32Z</time>
      </trkpt>
      <trkpt lat="47.33629" lon="-1.19774">
        <ele>60</ele>
        <time>2017-09-23T16:19:36Z</time>
      </trkpt>
      <trkpt lat="47.33644" lon="-1.19771">
        <ele>59</ele>
        <time>2017-09-23T16:19:40Z</time>
      </trkpt>
      <trkpt lat="47.33655" lon="-1.19769">
        <ele>59</ele>
        <time>2017-09-23T16:19:43Z</time>
      </trkpt>
      <trkpt lat="47.33677" lon="-1.19765">
        <ele>59</ele>
        <time>2017-09-23T16:19:50Z</time>
      </trkpt>
      <trkpt lat="47.33716" lon="-1.19759">
        <ele>60</ele>
        <time>2017-09-23T16:20:02Z</time>
      </trkpt>
      <trkpt lat="47.33746" lon="-1.19751">
        <ele>60</ele>
        <time>2017-09-23T16:20:11Z</time>
      </trkpt>
      <trkpt lat="47.33751" lon="-1.1975">
        <ele>60</ele>
        <time>2017-09-23T16:20:12Z</time>
      </trkpt>
      <trkpt lat="47.33779" lon="-1.19735">
        <ele>60</ele>
        <time>2017-09-23T16:20:19Z</time>
      </trkpt>
      <trkpt lat="47.33782" lon="-1.19731">
        <ele>60</ele>
        <time>2017-09-23T16:20:20Z</time>
      </trkpt>
      <trkpt lat="47.33793" lon="-1.19712">
        <ele>60</ele>
        <time>2017-09-23T16:20:24Z</time>
      </trkpt>
      <trkpt lat="47.33797" lon="-1.19681">
        <ele>60</ele>
        <time>2017-09-23T16:20:28Z</time>
      </trkpt>
      <trkpt lat="47.33795" lon="-1.19664">
        <ele>60</ele>
        <time>2017-09-23T16:20:30Z</time>
      </trkpt>
      <trkpt lat="47.33792" lon="-1.19632">
        <ele>59</ele>
        <time>2017-09-23T16:20:34Z</time>
      </trkpt>
      <trkpt lat="47.33791" lon="-1.19625">
        <ele>59</ele>
        <time>2017-09-23T16:20:35Z</time>
      </trkpt>
      <trkpt lat="47.33788" lon="-1.1959">
        <ele>58</ele>
        <time>2017-09-23T16:20:40Z</time>
      </trkpt>
      <trkpt lat="47.33787" lon="-1.19577">
        <ele>57</ele>
        <time>2017-09-23T16:20:42Z</time>
      </trkpt>
      <trkpt lat="47.33787" lon="-1.19564">
        <ele>57</ele>
        <time>2017-09-23T16:20:44Z</time>
      </trkpt>
      <trkpt lat="47.33786" lon="-1.19544">
        <ele>56</ele>
        <time>2017-09-23T16:20:48Z</time>
      </trkpt>
      <trkpt lat="47.33788" lon="-1.19537">
        <ele>56</ele>
        <time>2017-09-23T16:20:50Z</time>
      </trkpt>
      <trkpt lat="47.33789" lon="-1.19534">
        <ele>55</ele>
        <time>2017-09-23T16:20:52Z</time>
      </trkpt>
      <trkpt lat="47.33791" lon="-1.19531">
        <ele>54</ele>
        <time>2017-09-23T16:20:54Z</time>
      </trkpt>
      <trkpt lat="47.33799" lon="-1.19528">
        <ele>54</ele>
        <time>2017-09-23T16:20:57Z</time>
      </trkpt>
      <trkpt lat="47.33823" lon="-1.19527">
        <ele>54</ele>
        <time>2017-09-23T16:21:04Z</time>
      </trkpt>
      <trkpt lat="47.33855" lon="-1.19528">
        <ele>55</ele>
        <time>2017-09-23T16:21:12Z</time>
      </trkpt>
      <trkpt lat="47.33894" lon="-1.19528">
        <ele>55</ele>
        <time>2017-09-23T16:21:21Z</time>
      </trkpt>
      <trkpt lat="47.33937" lon="-1.19532">
        <ele>54</ele>
        <time>2017-09-23T16:21:31Z</time>
      </trkpt>
      <trkpt lat="47.33949" lon="-1.19536">
        <ele>54</ele>
        <time>2017-09-23T16:21:34Z</time>
      </trkpt>
      <trkpt lat="47.33967" lon="-1.19546">
        <ele>55</ele>
        <time>2017-09-23T16:21:39Z</time>
      </trkpt>
      <trkpt lat="47.33974" lon="-1.19549">
        <ele>55</ele>
        <time>2017-09-23T16:21:41Z</time>
      </trkpt>
      <trkpt lat="47.33989" lon="-1.19557">
        <ele>56</ele>
        <time>2017-09-23T16:21:46Z</time>
      </trkpt>
      <trkpt lat="47.34003" lon="-1.19564">
        <ele>56</ele>
        <time>2017-09-23T16:21:50Z</time>
      </trkpt>
      <trkpt lat="47.34018" lon="-1.19572">
        <ele>56</ele>
        <time>2017-09-23T16:21:54Z</time>
      </trkpt>
      <trkpt lat="47.34043" lon="-1.1958">
        <ele>57</ele>
        <time>2017-09-23T16:22:01Z</time>
      </trkpt>
      <trkpt lat="47.34062" lon="-1.19571">
        <ele>57</ele>
        <time>2017-09-23T16:22:06Z</time>
      </trkpt>
      <trkpt lat="47.34086" lon="-1.19544">
        <ele>57</ele>
        <time>2017-09-23T16:22:13Z</time>
      </trkpt>
      <trkpt lat="47.34093" lon="-1.19534">
        <ele>57</ele>
        <time>2017-09-23T16:22:15Z</time>
      </trkpt>
      <trkpt lat="47.34103" lon="-1.19511">
        <ele>57</ele>
        <time>2017-09-23T16:22:19Z</time>
      </trkpt>
      <trkpt lat="47.34109" lon="-1.195">
        <ele>56</ele>
        <time>2017-09-23T16:22:21Z</time>
      </trkpt>
      <trkpt lat="47.34123" lon="-1.19481">
        <ele>56</ele>
        <time>2017-09-23T16:22:25Z</time>
      </trkpt>
      <trkpt lat="47.34138" lon="-1.19468">
        <ele>55</ele>
        <time>2017-09-23T16:22:29Z</time>
      </trkpt>
      <trkpt lat="47.34143" lon="-1.19467">
        <ele>55</ele>
        <time>2017-09-23T16:22:31Z</time>
      </trkpt>
      <trkpt lat="47.34145" lon="-1.19469">
        <ele>55</ele>
        <time>2017-09-23T16:22:32Z</time>
      </trkpt>
      <trkpt lat="47.34147" lon="-1.19479">
        <ele>55</ele>
        <time>2017-09-23T16:22:35Z</time>
      </trkpt>
      <trkpt lat="47.34143" lon="-1.195">
        <ele>55</ele>
        <time>2017-09-23T16:22:40Z</time>
      </trkpt>
      <trkpt lat="47.34151" lon="-1.19504">
        <ele>56</ele>
        <time>2017-09-23T16:22:43Z</time>
      </trkpt>
      <trkpt lat="47.34155" lon="-1.19504">
        <ele>56</ele>
        <time>2017-09-23T16:22:44Z</time>
      </trkpt>
      <trkpt lat="47.34179" lon="-1.19501">
        <ele>56</ele>
        <time>2017-09-23T16:22:51Z</time>
      </trkpt>
      <trkpt lat="47.34183" lon="-1.19501">
        <ele>56</ele>
        <time>2017-09-23T16:22:52Z</time>
      </trkpt>
      <trkpt lat="47.34207" lon="-1.195">
        <ele>57</ele>
        <time>2017-09-23T16:22:59Z</time>
      </trkpt>
      <trkpt lat="47.3421" lon="-1.19513">
        <ele>56</ele>
        <time>2017-09-23T16:23:03Z</time>
      </trkpt>
      <trkpt lat="47.3421" lon="-1.19522">
        <ele>56</ele>
        <time>2017-09-23T16:23:06Z</time>
      </trkpt>
      <trkpt lat="47.34208" lon="-1.19536">
        <ele>56</ele>
        <time>2017-09-23T16:23:09Z</time>
      </trkpt>
      <trkpt lat="47.34201" lon="-1.19584">
        <ele>57</ele>
        <time>2017-09-23T16:23:19Z</time>
      </trkpt>
      <trkpt lat="47.34186" lon="-1.19624">
        <ele>57</ele>
        <time>2017-09-23T16:23:27Z</time>
      </trkpt>
      <trkpt lat="47.34175" lon="-1.19649">
        <ele>57</ele>
        <time>2017-09-23T16:23:33Z</time>
      </trkpt>
      <trkpt lat="47.34172" lon="-1.19665">
        <ele>58</ele>
        <time>2017-09-23T16:23:36Z</time>
      </trkpt>
      <trkpt lat="47.3417" lon="-1.19701">
        <ele>57</ele>
        <time>2017-09-23T16:23:43Z</time>
      </trkpt>
      <trkpt lat="47.34166" lon="-1.19744">
        <ele>58</ele>
        <time>2017-09-23T16:23:51Z</time>
      </trkpt>
      <trkpt lat="47.3416" lon="-1.19785">
        <ele>58</ele>
        <time>2017-09-23T16:23:59Z</time>
      </trkpt>
      <trkpt lat="47.34152" lon="-1.19821">
        <ele>58</ele>
        <time>2017-09-23T16:24:07Z</time>
      </trkpt>
      <trkpt lat="47.34142" lon="-1.19851">
        <ele>58</ele>
        <time>2017-09-23T16:24:14Z</time>
      </trkpt>
      <trkpt lat="47.34133" lon="-1.19887">
        <ele>57</ele>
        <time>2017-09-23T16:24:21Z</time>
      </trkpt>
      <trkpt lat="47.34125" lon="-1.19929">
        <ele>57</ele>
        <time>2017-09-23T16:24:29Z</time>
      </trkpt>
      <trkpt lat="47.34121" lon="-1.19966">
        <ele>56</ele>
        <time>2017-09-23T16:24:36Z</time>
      </trkpt>
      <trkpt lat="47.34121" lon="-1.1997">
        <ele>56</ele>
        <time>2017-09-23T16:24:37Z</time>
      </trkpt>
      <trkpt lat="47.3412" lon="-1.19992">
        <ele>55</ele>
        <time>2017-09-23T16:24:42Z</time>
      </trkpt>
      <trkpt lat="47.34119" lon="-1.2001">
        <ele>54</ele>
        <time>2017-09-23T16:24:46Z</time>
      </trkpt>
      <trkpt lat="47.34119" lon="-1.20013">
        <ele>54</ele>
        <time>2017-09-23T16:24:47Z</time>
      </trkpt>
      <trkpt lat="47.3412" lon="-1.20024">
        <ele>53</ele>
        <time>2017-09-23T16:24:51Z</time>
      </trkpt>
      <trkpt lat="47.34123" lon="-1.20029">
        <ele>51</ele>
        <time>2017-09-23T16:24:59Z</time>
      </trkpt>
      <trkpt lat="47.34127" lon="-1.20029">
        <ele>51</ele>
        <time>2017-09-23T16:25:01Z</time>
      </trkpt>
      <trkpt lat="47.34132" lon="-1.20028">
        <ele>51</ele>
        <time>2017-09-23T16:25:03Z</time>
      </trkpt>
      <trkpt lat="47.34145" lon="-1.20027">
        <ele>50</ele>
        <time>2017-09-23T16:25:07Z</time>
      </trkpt>
      <trkpt lat="47.34151" lon="-1.20025">
        <ele>50</ele>
        <time>2017-09-23T16:25:09Z</time>
      </trkpt>
      <trkpt lat="47.34167" lon="-1.20026">
        <ele>49</ele>
        <time>2017-09-23T16:25:14Z</time>
      </trkpt>
      <trkpt lat="47.34169" lon="-1.20029">
        <ele>49</ele>
        <time>2017-09-23T16:25:15Z</time>
      </trkpt>
      <trkpt lat="47.34172" lon="-1.2004">
        <ele>48</ele>
        <time>2017-09-23T16:25:17Z</time>
      </trkpt>
      <trkpt lat="47.34174" lon="-1.20048">
        <ele>48</ele>
        <time>2017-09-23T16:25:18Z</time>
      </trkpt>
      <trkpt lat="47.34176" lon="-1.20067">
        <ele>47</ele>
        <time>2017-09-23T16:25:20Z</time>
      </trkpt>
      <trkpt lat="47.34177" lon="-1.20077">
        <ele>47</ele>
        <time>2017-09-23T16:25:21Z</time>
      </trkpt>
      <trkpt lat="47.3418" lon="-1.20097">
        <ele>46</ele>
        <time>2017-09-23T16:25:23Z</time>
      </trkpt>
      <trkpt lat="47.34181" lon="-1.20111">
        <ele>45</ele>
        <time>2017-09-23T16:25:25Z</time>
      </trkpt>
      <trkpt lat="47.34181" lon="-1.20116">
        <ele>45</ele>
        <time>2017-09-23T16:25:26Z</time>
      </trkpt>
      <trkpt lat="47.34184" lon="-1.20128">
        <ele>45</ele>
        <time>2017-09-23T16:25:29Z</time>
      </trkpt>
      <trkpt lat="47.34186" lon="-1.20149">
        <ele>46</ele>
        <time>2017-09-23T16:25:33Z</time>
      </trkpt>
      <trkpt lat="47.34187" lon="-1.20166">
        <ele>47</ele>
        <time>2017-09-23T16:25:36Z</time>
      </trkpt>
      <trkpt lat="47.34188" lon="-1.20171">
        <ele>47</ele>
        <time>2017-09-23T16:25:37Z</time>
      </trkpt>
      <trkpt lat="47.34191" lon="-1.20192">
        <ele>48</ele>
        <time>2017-09-23T16:25:41Z</time>
      </trkpt>
      <trkpt lat="47.34192" lon="-1.20218">
        <ele>49</ele>
        <time>2017-09-23T16:25:46Z</time>
      </trkpt>
      <trkpt lat="47.34193" lon="-1.20242">
        <ele>49</ele>
        <time>2017-09-23T16:25:51Z</time>
      </trkpt>
      <trkpt lat="47.34193" lon="-1.20261">
        <ele>49</ele>
        <time>2017-09-23T16:25:55Z</time>
      </trkpt>
      <trkpt lat="47.34194" lon="-1.20286">
        <ele>49</ele>
        <time>2017-09-23T16:26:00Z</time>
      </trkpt>
      <trkpt lat="47.34196" lon="-1.20289">
        <ele>49</ele>
        <time>2017-09-23T16:26:01Z</time>
      </trkpt>
      <trkpt lat="47.34202" lon="-1.20292">
        <ele>49</ele>
        <time>2017-09-23T16:26:03Z</time>
      </trkpt>
      <trkpt lat="47.34208" lon="-1.20292">
        <ele>48</ele>
        <time>2017-09-23T16:26:05Z</time>
      </trkpt>
      <trkpt lat="47.34217" lon="-1.20297">
        <ele>47</ele>
        <time>2017-09-23T16:26:08Z</time>
      </trkpt>
      <trkpt lat="47.3422" lon="-1.20314">
        <ele>46</ele>
        <time>2017-09-23T16:26:12Z</time>
      </trkpt>
      <trkpt lat="47.34218" lon="-1.20324">
        <ele>45</ele>
        <time>2017-09-23T16:26:14Z</time>
      </trkpt>
      <trkpt lat="47.34215" lon="-1.20353">
        <ele>45</ele>
        <time>2017-09-23T16:26:19Z</time>
      </trkpt>
      <trkpt lat="47.34211" lon="-1.20384">
        <ele>46</ele>
        <time>2017-09-23T16:26:25Z</time>
      </trkpt>
      <trkpt lat="47.34202" lon="-1.2041">
        <ele>46</ele>
        <time>2017-09-23T16:26:30Z</time>
      </trkpt>
      <trkpt lat="47.34189" lon="-1.20425">
        <ele>46</ele>
        <time>2017-09-23T16:26:35Z</time>
      </trkpt>
      <trkpt lat="47.3417" lon="-1.2044">
        <ele>46</ele>
        <time>2017-09-23T16:26:41Z</time>
      </trkpt>
      <trkpt lat="47.34163" lon="-1.20447">
        <ele>46</ele>
        <time>2017-09-23T16:26:43Z</time>
      </trkpt>
      <trkpt lat="47.34155" lon="-1.20459">
        <ele>46</ele>
        <time>2017-09-23T16:26:46Z</time>
      </trkpt>
      <trkpt lat="47.34137" lon="-1.2049">
        <ele>46</ele>
        <time>2017-09-23T16:26:54Z</time>
      </trkpt>
      <trkpt lat="47.34126" lon="-1.20518">
        <ele>47</ele>
        <time>2017-09-23T16:27:01Z</time>
      </trkpt>
      <trkpt lat="47.34122" lon="-1.20562">
        <ele>45</ele>
        <time>2017-09-23T16:27:09Z</time>
      </trkpt>
      <trkpt lat="47.3412" lon="-1.20581">
        <ele>45</ele>
        <time>2017-09-23T16:27:12Z</time>
      </trkpt>
      <trkpt lat="47.3412" lon="-1.20596">
        <ele>44</ele>
        <time>2017-09-23T16:27:15Z</time>
      </trkpt>
      <trkpt lat="47.34121" lon="-1.20604">
        <ele>44</ele>
        <time>2017-09-23T16:27:17Z</time>
      </trkpt>
      <trkpt lat="47.34123" lon="-1.20615">
        <ele>44</ele>
        <time>2017-09-23T16:27:21Z</time>
      </trkpt>
      <trkpt lat="47.34121" lon="-1.20632">
        <ele>44</ele>
        <time>2017-09-23T16:27:28Z</time>
      </trkpt>
      <trkpt lat="47.34112" lon="-1.20638">
        <ele>44</ele>
        <time>2017-09-23T16:27:33Z</time>
      </trkpt>
      <trkpt lat="47.341" lon="-1.20645">
        <ele>46</ele>
        <time>2017-09-23T16:27:39Z</time>
      </trkpt>
      <trkpt lat="47.34098" lon="-1.20645">
        <ele>46</ele>
        <time>2017-09-23T16:27:40Z</time>
      </trkpt>
      <trkpt lat="47.34095" lon="-1.20646">
        <ele>47</ele>
        <time>2017-09-23T16:27:42Z</time>
      </trkpt>
      <trkpt lat="47.34088" lon="-1.20647">
        <ele>48</ele>
        <time>2017-09-23T16:27:46Z</time>
      </trkpt>
      <trkpt lat="47.34086" lon="-1.20648">
        <ele>49</ele>
        <time>2017-09-23T16:27:48Z</time>
      </trkpt>
      <trkpt lat="47.34085" lon="-1.2065">
        <ele>49</ele>
        <time>2017-09-23T16:27:49Z</time>
      </trkpt>
      <trkpt lat="47.34085" lon="-1.20652">
        <ele>49</ele>
        <time>2017-09-23T16:27:50Z</time>
      </trkpt>
      <trkpt lat="47.34088" lon="-1.20655">
        <ele>50</ele>
        <time>2017-09-23T16:27:52Z</time>
      </trkpt>
      <trkpt lat="47.34097" lon="-1.20658">
        <ele>50</ele>
        <time>2017-09-23T16:27:55Z</time>
      </trkpt>
      <trkpt lat="47.34104" lon="-1.20661">
        <ele>50</ele>
        <time>2017-09-23T16:27:57Z</time>
      </trkpt>
      <trkpt lat="47.34125" lon="-1.20679">
        <ele>49</ele>
        <time>2017-09-23T16:28:04Z</time>
      </trkpt>
      <trkpt lat="47.34129" lon="-1.20694">
        <ele>48</ele>
        <time>2017-09-23T16:28:07Z</time>
      </trkpt>
      <trkpt lat="47.34131" lon="-1.207">
        <ele>48</ele>
        <time>2017-09-23T16:28:08Z</time>
      </trkpt>
      <trkpt lat="47.34132" lon="-1.20707">
        <ele>48</ele>
        <time>2017-09-23T16:28:09Z</time>
      </trkpt>
      <trkpt lat="47.34133" lon="-1.20727">
        <ele>47</ele>
        <time>2017-09-23T16:28:12Z</time>
      </trkpt>
      <trkpt lat="47.34134" lon="-1.20734">
        <ele>47</ele>
        <time>2017-09-23T16:28:13Z</time>
      </trkpt>
      <trkpt lat="47.34136" lon="-1.20756">
        <ele>46</ele>
        <time>2017-09-23T16:28:16Z</time>
      </trkpt>
      <trkpt lat="47.34138" lon="-1.2078">
        <ele>46</ele>
        <time>2017-09-23T16:28:19Z</time>
      </trkpt>
      <trkpt lat="47.3414" lon="-1.20806">
        <ele>45</ele>
        <time>2017-09-23T16:28:22Z</time>
      </trkpt>
      <trkpt lat="47.3414" lon="-1.20815">
        <ele>45</ele>
        <time>2017-09-23T16:28:23Z</time>
      </trkpt>
      <trkpt lat="47.34145" lon="-1.20857">
        <ele>44</ele>
        <time>2017-09-23T16:28:28Z</time>
      </trkpt>
      <trkpt lat="47.34147" lon="-1.20873">
        <ele>43</ele>
        <time>2017-09-23T16:28:30Z</time>
      </trkpt>
      <trkpt lat="47.34147" lon="-1.20882">
        <ele>42</ele>
        <time>2017-09-23T16:28:31Z</time>
      </trkpt>
      <trkpt lat="47.34154" lon="-1.20909">
        <ele>41</ele>
        <time>2017-09-23T16:28:34Z</time>
      </trkpt>
      <trkpt lat="47.34157" lon="-1.20918">
        <ele>41</ele>
        <time>2017-09-23T16:28:35Z</time>
      </trkpt>
      <trkpt lat="47.34171" lon="-1.20934">
        <ele>40</ele>
        <time>2017-09-23T16:28:38Z</time>
      </trkpt>
      <trkpt lat="47.34189" lon="-1.20937">
        <ele>39</ele>
        <time>2017-09-23T16:28:41Z</time>
      </trkpt>
      <trkpt lat="47.34195" lon="-1.20934">
        <ele>39</ele>
        <time>2017-09-23T16:28:42Z</time>
      </trkpt>
      <trkpt lat="47.34208" lon="-1.20923">
        <ele>38</ele>
        <time>2017-09-23T16:28:44Z</time>
      </trkpt>
      <trkpt lat="47.34217" lon="-1.20907">
        <ele>38</ele>
        <time>2017-09-23T16:28:46Z</time>
      </trkpt>
      <trkpt lat="47.3422" lon="-1.20898">
        <ele>37</ele>
        <time>2017-09-23T16:28:47Z</time>
      </trkpt>
      <trkpt lat="47.34227" lon="-1.20869">
        <ele>36</ele>
        <time>2017-09-23T16:28:50Z</time>
      </trkpt>
      <trkpt lat="47.3423" lon="-1.2085">
        <ele>36</ele>
        <time>2017-09-23T16:28:52Z</time>
      </trkpt>
      <trkpt lat="47.34232" lon="-1.2084">
        <ele>35</ele>
        <time>2017-09-23T16:28:53Z</time>
      </trkpt>
      <trkpt lat="47.3424" lon="-1.20802">
        <ele>34</ele>
        <time>2017-09-23T16:28:57Z</time>
      </trkpt>
      <trkpt lat="47.34244" lon="-1.20786">
        <ele>33</ele>
        <time>2017-09-23T16:28:59Z</time>
      </trkpt>
      <trkpt lat="47.34245" lon="-1.20778">
        <ele>32</ele>
        <time>2017-09-23T16:29:00Z</time>
      </trkpt>
      <trkpt lat="47.34251" lon="-1.20757">
        <ele>31</ele>
        <time>2017-09-23T16:29:03Z</time>
      </trkpt>
      <trkpt lat="47.34255" lon="-1.20747">
        <ele>30</ele>
        <time>2017-09-23T16:29:05Z</time>
      </trkpt>
      <trkpt lat="47.34257" lon="-1.20742">
        <ele>30</ele>
        <time>2017-09-23T16:29:06Z</time>
      </trkpt>
      <trkpt lat="47.34266" lon="-1.20733">
        <ele>29</ele>
        <time>2017-09-23T16:29:10Z</time>
      </trkpt>
      <trkpt lat="47.3427" lon="-1.2073">
        <ele>28</ele>
        <time>2017-09-23T16:29:14Z</time>
      </trkpt>
      <trkpt lat="47.34272" lon="-1.20726">
        <ele>27</ele>
        <time>2017-09-23T16:29:40Z</time>
      </trkpt>
      <trkpt lat="47.34274" lon="-1.20718">
        <ele>27</ele>
        <time>2017-09-23T16:29:42Z</time>
      </trkpt>
      <trkpt lat="47.3428" lon="-1.20685">
        <ele>27</ele>
        <time>2017-09-23T16:29:49Z</time>
      </trkpt>
      <trkpt lat="47.34281" lon="-1.2068">
        <ele>27</ele>
        <time>2017-09-23T16:29:50Z</time>
      </trkpt>
      <trkpt lat="47.34282" lon="-1.20658">
        <ele>26</ele>
        <time>2017-09-23T16:29:55Z</time>
      </trkpt>
      <trkpt lat="47.3428" lon="-1.20656">
        <ele>26</ele>
        <time>2017-09-23T16:29:56Z</time>
      </trkpt>
      <trkpt lat="47.3427" lon="-1.20653">
        <ele>26</ele>
        <time>2017-09-23T16:30:01Z</time>
      </trkpt>
      <trkpt lat="47.34255" lon="-1.20652">
        <ele>27</ele>
        <time>2017-09-23T16:30:07Z</time>
      </trkpt>
      <trkpt lat="47.34247" lon="-1.20652">
        <ele>28</ele>
        <time>2017-09-23T16:30:11Z</time>
      </trkpt>
      <trkpt lat="47.34245" lon="-1.20652">
        <ele>28</ele>
        <time>2017-09-23T16:30:12Z</time>
      </trkpt>
      <trkpt lat="47.34229" lon="-1.2065">
        <ele>29</ele>
        <time>2017-09-23T16:30:20Z</time>
      </trkpt>
      <trkpt lat="47.34227" lon="-1.20649">
        <ele>29</ele>
        <time>2017-09-23T16:30:21Z</time>
      </trkpt>
      <trkpt lat="47.34216" lon="-1.20647">
        <ele>30</ele>
        <time>2017-09-23T16:30:27Z</time>
      </trkpt>
      <trkpt lat="47.34213" lon="-1.20647">
        <ele>31</ele>
        <time>2017-09-23T16:30:29Z</time>
      </trkpt>
      <trkpt lat="47.34207" lon="-1.20646">
        <ele>31</ele>
        <time>2017-09-23T16:30:32Z</time>
      </trkpt>
      <trkpt lat="47.34198" lon="-1.20644">
        <ele>32</ele>
        <time>2017-09-23T16:30:37Z</time>
      </trkpt>
      <trkpt lat="47.34191" lon="-1.20642">
        <ele>34</ele>
        <time>2017-09-23T16:30:41Z</time>
      </trkpt>
      <trkpt lat="47.34182" lon="-1.20638">
        <ele>34</ele>
        <time>2017-09-23T16:30:46Z</time>
      </trkpt>
      <trkpt lat="47.34178" lon="-1.20638">
        <ele>35</ele>
        <time>2017-09-23T16:30:48Z</time>
      </trkpt>
      <trkpt lat="47.3417" lon="-1.20638">
        <ele>36</ele>
        <time>2017-09-23T16:30:53Z</time>
      </trkpt>
      <trkpt lat="47.34166" lon="-1.20636">
        <ele>37</ele>
        <time>2017-09-23T16:30:56Z</time>
      </trkpt>
      <trkpt lat="47.34161" lon="-1.20635">
        <ele>37</ele>
        <time>2017-09-23T16:30:59Z</time>
      </trkpt>
      <trkpt lat="47.34152" lon="-1.20633">
        <ele>38</ele>
        <time>2017-09-23T16:31:05Z</time>
      </trkpt>
      <trkpt lat="47.34142" lon="-1.20631">
        <ele>39</ele>
        <time>2017-09-23T16:31:11Z</time>
      </trkpt>
      <trkpt lat="47.34138" lon="-1.2063">
        <ele>40</ele>
        <time>2017-09-23T16:31:14Z</time>
      </trkpt>
      <trkpt lat="47.34135" lon="-1.20629">
        <ele>41</ele>
        <time>2017-09-23T16:31:16Z</time>
      </trkpt>
      <trkpt lat="47.34127" lon="-1.20629">
        <ele>42</ele>
        <time>2017-09-23T16:31:21Z</time>
      </trkpt>
      <trkpt lat="47.34124" lon="-1.20628">
        <ele>42</ele>
        <time>2017-09-23T16:31:23Z</time>
      </trkpt>
      <trkpt lat="47.34122" lon="-1.20624">
        <ele>43</ele>
        <time>2017-09-23T16:31:26Z</time>
      </trkpt>
      <trkpt lat="47.34121" lon="-1.2062">
        <ele>43</ele>
        <time>2017-09-23T16:31:28Z</time>
      </trkpt>
      <trkpt lat="47.34121" lon="-1.20617">
        <ele>44</ele>
        <time>2017-09-23T16:31:29Z</time>
      </trkpt>
      <trkpt lat="47.34121" lon="-1.20615">
        <ele>44</ele>
        <time>2017-09-23T16:31:30Z</time>
      </trkpt>
      <trkpt lat="47.3412" lon="-1.20597">
        <ele>45</ele>
        <time>2017-09-23T16:31:35Z</time>
      </trkpt>
      <trkpt lat="47.3412" lon="-1.20591">
        <ele>45</ele>
        <time>2017-09-23T16:31:36Z</time>
      </trkpt>
      <trkpt lat="47.34121" lon="-1.20557">
        <ele>45</ele>
        <time>2017-09-23T16:31:41Z</time>
      </trkpt>
      <trkpt lat="47.34123" lon="-1.20536">
        <ele>44</ele>
        <time>2017-09-23T16:31:46Z</time>
      </trkpt>
      <trkpt lat="47.34125" lon="-1.20514">
        <ele>45</ele>
        <time>2017-09-23T16:31:54Z</time>
      </trkpt>
      <trkpt lat="47.34126" lon="-1.20505">
        <ele>46</ele>
        <time>2017-09-23T16:31:57Z</time>
      </trkpt>
      <trkpt lat="47.34131" lon="-1.20496">
        <ele>46</ele>
        <time>2017-09-23T16:32:01Z</time>
      </trkpt>
      <trkpt lat="47.34135" lon="-1.20489">
        <ele>47</ele>
        <time>2017-09-23T16:34:11Z</time>
      </trkpt>
      <trkpt lat="47.34137" lon="-1.20486">
        <ele>47</ele>
        <time>2017-09-23T16:34:12Z</time>
      </trkpt>
      <trkpt lat="47.34147" lon="-1.20468">
        <ele>47</ele>
        <time>2017-09-23T16:34:18Z</time>
      </trkpt>
      <trkpt lat="47.34164" lon="-1.20443">
        <ele>46</ele>
        <time>2017-09-23T16:34:25Z</time>
      </trkpt>
      <trkpt lat="47.34185" lon="-1.20424">
        <ele>46</ele>
        <time>2017-09-23T16:34:32Z</time>
      </trkpt>
      <trkpt lat="47.342" lon="-1.20407">
        <ele>46</ele>
        <time>2017-09-23T16:34:37Z</time>
      </trkpt>
      <trkpt lat="47.34204" lon="-1.20397">
        <ele>46</ele>
        <time>2017-09-23T16:34:39Z</time>
      </trkpt>
      <trkpt lat="47.3421" lon="-1.20364">
        <ele>46</ele>
        <time>2017-09-23T16:34:45Z</time>
      </trkpt>
      <trkpt lat="47.34216" lon="-1.20301">
        <ele>46</ele>
        <time>2017-09-23T16:34:56Z</time>
      </trkpt>
      <trkpt lat="47.34208" lon="-1.20289">
        <ele>46</ele>
        <time>2017-09-23T16:35:00Z</time>
      </trkpt>
      <trkpt lat="47.34205" lon="-1.20288">
        <ele>46</ele>
        <time>2017-09-23T16:35:01Z</time>
      </trkpt>
      <trkpt lat="47.34198" lon="-1.20289">
        <ele>46</ele>
        <time>2017-09-23T16:35:04Z</time>
      </trkpt>
      <trkpt lat="47.34191" lon="-1.20283">
        <ele>47</ele>
        <time>2017-09-23T16:35:08Z</time>
      </trkpt>
      <trkpt lat="47.3419" lon="-1.20279">
        <ele>48</ele>
        <time>2017-09-23T16:35:09Z</time>
      </trkpt>
      <trkpt lat="47.34191" lon="-1.2026">
        <ele>48</ele>
        <time>2017-09-23T16:35:13Z</time>
      </trkpt>
      <trkpt lat="47.34192" lon="-1.20251">
        <ele>49</ele>
        <time>2017-09-23T16:35:15Z</time>
      </trkpt>
      <trkpt lat="47.34191" lon="-1.20237">
        <ele>50</ele>
        <time>2017-09-23T16:35:18Z</time>
      </trkpt>
      <trkpt lat="47.34191" lon="-1.20215">
        <ele>50</ele>
        <time>2017-09-23T16:35:22Z</time>
      </trkpt>
      <trkpt lat="47.34187" lon="-1.20166">
        <ele>50</ele>
        <time>2017-09-23T16:35:30Z</time>
      </trkpt>
      <trkpt lat="47.34182" lon="-1.20118">
        <ele>49</ele>
        <time>2017-09-23T16:35:37Z</time>
      </trkpt>
      <trkpt lat="47.34181" lon="-1.20111">
        <ele>48</ele>
        <time>2017-09-23T16:35:38Z</time>
      </trkpt>
      <trkpt lat="47.34175" lon="-1.20073">
        <ele>47</ele>
        <time>2017-09-23T16:35:42Z</time>
      </trkpt>
      <trkpt lat="47.34172" lon="-1.20048">
        <ele>46</ele>
        <time>2017-09-23T16:35:45Z</time>
      </trkpt>
      <trkpt lat="47.34172" lon="-1.20042">
        <ele>45</ele>
        <time>2017-09-23T16:35:46Z</time>
      </trkpt>
      <trkpt lat="47.3417" lon="-1.20032">
        <ele>45</ele>
        <time>2017-09-23T16:35:50Z</time>
      </trkpt>
      <trkpt lat="47.3417" lon="-1.20023">
        <ele>48</ele>
        <time>2017-09-23T16:36:26Z</time>
      </trkpt>
      <trkpt lat="47.3418" lon="-1.20015">
        <ele>48</ele>
        <time>2017-09-23T16:36:30Z</time>
      </trkpt>
      <trkpt lat="47.34183" lon="-1.20013">
        <ele>48</ele>
        <time>2017-09-23T16:36:31Z</time>
      </trkpt>
      <trkpt lat="47.34204" lon="-1.20002">
        <ele>47</ele>
        <time>2017-09-23T16:36:37Z</time>
      </trkpt>
      <trkpt lat="47.34225" lon="-1.19996">
        <ele>46</ele>
        <time>2017-09-23T16:36:42Z</time>
      </trkpt>
      <trkpt lat="47.34233" lon="-1.19996">
        <ele>45</ele>
        <time>2017-09-23T16:36:44Z</time>
      </trkpt>
      <trkpt lat="47.34239" lon="-1.1999">
        <ele>44</ele>
        <time>2017-09-23T16:36:46Z</time>
      </trkpt>
      <trkpt lat="47.34242" lon="-1.19982">
        <ele>44</ele>
        <time>2017-09-23T16:36:48Z</time>
      </trkpt>
      <trkpt lat="47.34243" lon="-1.19978">
        <ele>43</ele>
        <time>2017-09-23T16:36:49Z</time>
      </trkpt>
      <trkpt lat="47.34244" lon="-1.19955">
        <ele>43</ele>
        <time>2017-09-23T16:36:54Z</time>
      </trkpt>
      <trkpt lat="47.34245" lon="-1.19935">
        <ele>44</ele>
        <time>2017-09-23T16:36:58Z</time>
      </trkpt>
      <trkpt lat="47.34246" lon="-1.1992">
        <ele>45</ele>
        <time>2017-09-23T16:37:01Z</time>
      </trkpt>
      <trkpt lat="47.3425" lon="-1.19899">
        <ele>46</ele>
        <time>2017-09-23T16:37:06Z</time>
      </trkpt>
      <trkpt lat="47.3425" lon="-1.19895">
        <ele>46</ele>
        <time>2017-09-23T16:37:07Z</time>
      </trkpt>
      <trkpt lat="47.34252" lon="-1.19882">
        <ele>47</ele>
        <time>2017-09-23T16:37:11Z</time>
      </trkpt>
      <trkpt lat="47.34254" lon="-1.1987">
        <ele>47</ele>
        <time>2017-09-23T16:37:14Z</time>
      </trkpt>
      <trkpt lat="47.34256" lon="-1.19859">
        <ele>48</ele>
        <time>2017-09-23T16:37:17Z</time>
      </trkpt>
      <trkpt lat="47.3426" lon="-1.19836">
        <ele>49</ele>
        <time>2017-09-23T16:37:23Z</time>
      </trkpt>
      <trkpt lat="47.34261" lon="-1.19828">
        <ele>49</ele>
        <time>2017-09-23T16:37:25Z</time>
      </trkpt>
      <trkpt lat="47.34262" lon="-1.1981">
        <ele>50</ele>
        <time>2017-09-23T16:37:30Z</time>
      </trkpt>
      <trkpt lat="47.34262" lon="-1.19806">
        <ele>50</ele>
        <time>2017-09-23T16:37:31Z</time>
      </trkpt>
      <trkpt lat="47.34264" lon="-1.19778">
        <ele>51</ele>
        <time>2017-09-23T16:37:40Z</time>
      </trkpt>
      <trkpt lat="47.34264" lon="-1.19776">
        <ele>51</ele>
        <time>2017-09-23T16:38:20Z</time>
      </trkpt>
      <trkpt lat="47.34265" lon="-1.19772">
        <ele>51</ele>
        <time>2017-09-23T16:38:21Z</time>
      </trkpt>
      <trkpt lat="47.34269" lon="-1.19753">
        <ele>52</ele>
        <time>2017-09-23T16:38:25Z</time>
      </trkpt>
      <trkpt lat="47.34271" lon="-1.19747">
        <ele>52</ele>
        <time>2017-09-23T16:38:26Z</time>
      </trkpt>
      <trkpt lat="47.34274" lon="-1.19742">
        <ele>52</ele>
        <time>2017-09-23T16:38:27Z</time>
      </trkpt>
      <trkpt lat="47.34284" lon="-1.19724">
        <ele>51</ele>
        <time>2017-09-23T16:38:30Z</time>
      </trkpt>
      <trkpt lat="47.34291" lon="-1.1971">
        <ele>50</ele>
        <time>2017-09-23T16:38:32Z</time>
      </trkpt>
      <trkpt lat="47.34307" lon="-1.19674">
        <ele>49</ele>
        <time>2017-09-23T16:38:37Z</time>
      </trkpt>
      <trkpt lat="47.34322" lon="-1.19618">
        <ele>48</ele>
        <time>2017-09-23T16:38:44Z</time>
      </trkpt>
      <trkpt lat="47.34331" lon="-1.19577">
        <ele>47</ele>
        <time>2017-09-23T16:38:49Z</time>
      </trkpt>
      <trkpt lat="47.34334" lon="-1.19559">
        <ele>47</ele>
        <time>2017-09-23T16:38:51Z</time>
      </trkpt>
      <trkpt lat="47.34335" lon="-1.1955">
        <ele>46</ele>
        <time>2017-09-23T16:38:52Z</time>
      </trkpt>
      <trkpt lat="47.34334" lon="-1.19525">
        <ele>46</ele>
        <time>2017-09-23T16:38:55Z</time>
      </trkpt>
      <trkpt lat="47.34333" lon="-1.19512">
        <ele>46</ele>
        <time>2017-09-23T16:38:57Z</time>
      </trkpt>
      <trkpt lat="47.34333" lon="-1.19478">
        <ele>46</ele>
        <time>2017-09-23T16:39:03Z</time>
      </trkpt>
      <trkpt lat="47.34336" lon="-1.19423">
        <ele>45</ele>
        <time>2017-09-23T16:39:12Z</time>
      </trkpt>
      <trkpt lat="47.34339" lon="-1.19387">
        <ele>44</ele>
        <time>2017-09-23T16:39:19Z</time>
      </trkpt>
      <trkpt lat="47.34342" lon="-1.19373">
        <ele>46</ele>
        <time>2017-09-23T16:39:24Z</time>
      </trkpt>
      <trkpt lat="47.34343" lon="-1.19371">
        <ele>46</ele>
        <time>2017-09-23T16:39:25Z</time>
      </trkpt>
      <trkpt lat="47.34351" lon="-1.19366">
        <ele>46</ele>
        <time>2017-09-23T16:39:29Z</time>
      </trkpt>
      <trkpt lat="47.34364" lon="-1.1935">
        <ele>45</ele>
        <time>2017-09-23T16:39:35Z</time>
      </trkpt>
      <trkpt lat="47.34368" lon="-1.1934">
        <ele>43</ele>
        <time>2017-09-23T16:39:54Z</time>
      </trkpt>
      <trkpt lat="47.34368" lon="-1.19317">
        <ele>43</ele>
        <time>2017-09-23T16:39:59Z</time>
      </trkpt>
      <trkpt lat="47.34367" lon="-1.19278">
        <ele>44</ele>
        <time>2017-09-23T16:40:06Z</time>
      </trkpt>
      <trkpt lat="47.34368" lon="-1.19273">
        <ele>44</ele>
        <time>2017-09-23T16:40:07Z</time>
      </trkpt>
      <trkpt lat="47.34372" lon="-1.19246">
        <ele>45</ele>
        <time>2017-09-23T16:40:12Z</time>
      </trkpt>
      <trkpt lat="47.34375" lon="-1.19223">
        <ele>45</ele>
        <time>2017-09-23T16:40:15Z</time>
      </trkpt>
      <trkpt lat="47.34375" lon="-1.1921">
        <ele>45</ele>
        <time>2017-09-23T16:40:17Z</time>
      </trkpt>
      <trkpt lat="47.34377" lon="-1.1917">
        <ele>45</ele>
        <time>2017-09-23T16:40:24Z</time>
      </trkpt>
      <trkpt lat="47.34379" lon="-1.19157">
        <ele>45</ele>
        <time>2017-09-23T16:40:26Z</time>
      </trkpt>
      <trkpt lat="47.34384" lon="-1.19123">
        <ele>45</ele>
        <time>2017-09-23T16:40:32Z</time>
      </trkpt>
      <trkpt lat="47.3439" lon="-1.19074">
        <ele>45</ele>
        <time>2017-09-23T16:40:41Z</time>
      </trkpt>
      <trkpt lat="47.34393" lon="-1.19061">
        <ele>45</ele>
        <time>2017-09-23T16:40:43Z</time>
      </trkpt>
      <trkpt lat="47.34398" lon="-1.19041">
        <ele>44</ele>
        <time>2017-09-23T16:40:46Z</time>
      </trkpt>
      <trkpt lat="47.34399" lon="-1.19035">
        <ele>44</ele>
        <time>2017-09-23T16:40:47Z</time>
      </trkpt>
      <trkpt lat="47.34403" lon="-1.19007">
        <ele>43</ele>
        <time>2017-09-23T16:40:51Z</time>
      </trkpt>
      <trkpt lat="47.34405" lon="-1.18987">
        <ele>42</ele>
        <time>2017-09-23T16:40:54Z</time>
      </trkpt>
      <trkpt lat="47.34406" lon="-1.1898">
        <ele>42</ele>
        <time>2017-09-23T16:40:55Z</time>
      </trkpt>
      <trkpt lat="47.34406" lon="-1.18974">
        <ele>41</ele>
        <time>2017-09-23T16:40:56Z</time>
      </trkpt>
      <trkpt lat="47.34407" lon="-1.1896">
        <ele>41</ele>
        <time>2017-09-23T16:40:58Z</time>
      </trkpt>
      <trkpt lat="47.34408" lon="-1.18948">
        <ele>40</ele>
        <time>2017-09-23T16:41:00Z</time>
      </trkpt>
      <trkpt lat="47.34409" lon="-1.18933">
        <ele>40</ele>
        <time>2017-09-23T16:41:03Z</time>
      </trkpt>
      <trkpt lat="47.3441" lon="-1.18926">
        <ele>39</ele>
        <time>2017-09-23T16:41:05Z</time>
      </trkpt>
      <trkpt lat="47.3441" lon="-1.18921">
        <ele>38</ele>
        <time>2017-09-23T16:41:07Z</time>
      </trkpt>
      <trkpt lat="47.34408" lon="-1.18916">
        <ele>38</ele>
        <time>2017-09-23T16:41:10Z</time>
      </trkpt>
      <trkpt lat="47.34407" lon="-1.18913">
        <ele>37</ele>
        <time>2017-09-23T16:41:29Z</time>
      </trkpt>
      <trkpt lat="47.34404" lon="-1.18909">
        <ele>37</ele>
        <time>2017-09-23T16:41:31Z</time>
      </trkpt>
      <trkpt lat="47.34391" lon="-1.18907">
        <ele>37</ele>
        <time>2017-09-23T16:41:36Z</time>
      </trkpt>
      <trkpt lat="47.34389" lon="-1.18906">
        <ele>37</ele>
        <time>2017-09-23T16:41:37Z</time>
      </trkpt>
      <trkpt lat="47.34378" lon="-1.18905">
        <ele>38</ele>
        <time>2017-09-23T16:41:41Z</time>
      </trkpt>
      <trkpt lat="47.3437" lon="-1.18906">
        <ele>40</ele>
        <time>2017-09-23T16:41:44Z</time>
      </trkpt>
      <trkpt lat="47.34365" lon="-1.18907">
        <ele>40</ele>
        <time>2017-09-23T16:41:46Z</time>
      </trkpt>
      <trkpt lat="47.3436" lon="-1.18907">
        <ele>41</ele>
        <time>2017-09-23T16:41:48Z</time>
      </trkpt>
      <trkpt lat="47.34345" lon="-1.18911">
        <ele>42</ele>
        <time>2017-09-23T16:41:54Z</time>
      </trkpt>
      <trkpt lat="47.34343" lon="-1.18912">
        <ele>42</ele>
        <time>2017-09-23T16:41:55Z</time>
      </trkpt>
      <trkpt lat="47.34328" lon="-1.1892">
        <ele>43</ele>
        <time>2017-09-23T16:42:01Z</time>
      </trkpt>
      <trkpt lat="47.34322" lon="-1.18925">
        <ele>44</ele>
        <time>2017-09-23T16:42:04Z</time>
      </trkpt>
      <trkpt lat="47.34315" lon="-1.1893">
        <ele>44</ele>
        <time>2017-09-23T16:42:07Z</time>
      </trkpt>
      <trkpt lat="47.34302" lon="-1.18943">
        <ele>45</ele>
        <time>2017-09-23T16:42:13Z</time>
      </trkpt>
      <trkpt lat="47.34285" lon="-1.18963">
        <ele>46</ele>
        <time>2017-09-23T16:42:21Z</time>
      </trkpt>
      <trkpt lat="47.34284" lon="-1.18966">
        <ele>46</ele>
        <time>2017-09-23T16:42:22Z</time>
      </trkpt>
      <trkpt lat="47.34276" lon="-1.18982">
        <ele>47</ele>
        <time>2017-09-23T16:42:27Z</time>
      </trkpt>
      <trkpt lat="47.34269" lon="-1.18994">
        <ele>48</ele>
        <time>2017-09-23T16:42:31Z</time>
      </trkpt>
      <trkpt lat="47.34256" lon="-1.19015">
        <ele>48</ele>
        <time>2017-09-23T16:42:38Z</time>
      </trkpt>
      <trkpt lat="47.3425" lon="-1.19023">
        <ele>49</ele>
        <time>2017-09-23T16:42:41Z</time>
      </trkpt>
      <trkpt lat="47.34234" lon="-1.19041">
        <ele>49</ele>
        <time>2017-09-23T16:42:48Z</time>
      </trkpt>
      <trkpt lat="47.34226" lon="-1.19051">
        <ele>50</ele>
        <time>2017-09-23T16:42:52Z</time>
      </trkpt>
      <trkpt lat="47.34212" lon="-1.19067">
        <ele>50</ele>
        <time>2017-09-23T16:42:59Z</time>
      </trkpt>
      <trkpt lat="47.3421" lon="-1.1907">
        <ele>51</ele>
        <time>2017-09-23T16:43:00Z</time>
      </trkpt>
      <trkpt lat="47.34193" lon="-1.1909">
        <ele>51</ele>
        <time>2017-09-23T16:43:08Z</time>
      </trkpt>
      <trkpt lat="47.34189" lon="-1.19095">
        <ele>52</ele>
        <time>2017-09-23T16:43:10Z</time>
      </trkpt>
      <trkpt lat="47.34175" lon="-1.19112">
        <ele>52</ele>
        <time>2017-09-23T16:43:17Z</time>
      </trkpt>
      <trkpt lat="47.34172" lon="-1.19115">
        <ele>53</ele>
        <time>2017-09-23T16:43:18Z</time>
      </trkpt>
      <trkpt lat="47.34161" lon="-1.19133">
        <ele>54</ele>
        <time>2017-09-23T16:43:25Z</time>
      </trkpt>
      <trkpt lat="47.34156" lon="-1.19142">
        <ele>54</ele>
        <time>2017-09-23T16:44:21Z</time>
      </trkpt>
      <trkpt lat="47.34152" lon="-1.19151">
        <ele>54</ele>
        <time>2017-09-23T16:44:24Z</time>
      </trkpt>
      <trkpt lat="47.34141" lon="-1.1918">
        <ele>54</ele>
        <time>2017-09-23T16:44:30Z</time>
      </trkpt>
      <trkpt lat="47.34138" lon="-1.19194">
        <ele>54</ele>
        <time>2017-09-23T16:44:32Z</time>
      </trkpt>
      <trkpt lat="47.34137" lon="-1.19218">
        <ele>54</ele>
        <time>2017-09-23T16:44:35Z</time>
      </trkpt>
      <trkpt lat="47.3414" lon="-1.19262">
        <ele>53</ele>
        <time>2017-09-23T16:44:41Z</time>
      </trkpt>
      <trkpt lat="47.34141" lon="-1.19268">
        <ele>53</ele>
        <time>2017-09-23T16:44:42Z</time>
      </trkpt>
      <trkpt lat="47.34146" lon="-1.19299">
        <ele>52</ele>
        <time>2017-09-23T16:44:48Z</time>
      </trkpt>
      <trkpt lat="47.34154" lon="-1.19333">
        <ele>52</ele>
        <time>2017-09-23T16:44:56Z</time>
      </trkpt>
      <trkpt lat="47.34158" lon="-1.19383">
        <ele>53</ele>
        <time>2017-09-23T16:45:06Z</time>
      </trkpt>
      <trkpt lat="47.34158" lon="-1.19397">
        <ele>54</ele>
        <time>2017-09-23T16:45:09Z</time>
      </trkpt>
      <trkpt lat="47.34156" lon="-1.1942">
        <ele>55</ele>
        <time>2017-09-23T16:45:14Z</time>
      </trkpt>
      <trkpt lat="47.34154" lon="-1.19442">
        <ele>56</ele>
        <time>2017-09-23T16:45:19Z</time>
      </trkpt>
      <trkpt lat="47.34153" lon="-1.19454">
        <ele>56</ele>
        <time>2017-09-23T16:45:22Z</time>
      </trkpt>
      <trkpt lat="47.34151" lon="-1.19459">
        <ele>56</ele>
        <time>2017-09-23T16:45:24Z</time>
      </trkpt>
      <trkpt lat="47.34145" lon="-1.19466">
        <ele>57</ele>
        <time>2017-09-23T16:45:27Z</time>
      </trkpt>
      <trkpt lat="47.34135" lon="-1.19474">
        <ele>57</ele>
        <time>2017-09-23T16:46:13Z</time>
      </trkpt>
      <trkpt lat="47.34131" lon="-1.19478">
        <ele>57</ele>
        <time>2017-09-23T16:46:15Z</time>
      </trkpt>
      <trkpt lat="47.34128" lon="-1.1948">
        <ele>57</ele>
        <time>2017-09-23T16:46:16Z</time>
      </trkpt>
      <trkpt lat="47.34109" lon="-1.19502">
        <ele>57</ele>
        <time>2017-09-23T16:46:23Z</time>
      </trkpt>
      <trkpt lat="47.34096" lon="-1.1953">
        <ele>57</ele>
        <time>2017-09-23T16:46:30Z</time>
      </trkpt>
      <trkpt lat="47.34087" lon="-1.19544">
        <ele>58</ele>
        <time>2017-09-23T16:46:34Z</time>
      </trkpt>
      <trkpt lat="47.34076" lon="-1.19556">
        <ele>58</ele>
        <time>2017-09-23T16:46:38Z</time>
      </trkpt>
      <trkpt lat="47.34063" lon="-1.19569">
        <ele>59</ele>
        <time>2017-09-23T16:48:37Z</time>
      </trkpt>
      <trkpt lat="47.34058" lon="-1.19572">
        <ele>59</ele>
        <time>2017-09-23T16:48:39Z</time>
      </trkpt>
      <trkpt lat="47.34051" lon="-1.19577">
        <ele>59</ele>
        <time>2017-09-23T16:48:41Z</time>
      </trkpt>
      <trkpt lat="47.34042" lon="-1.1958">
        <ele>59</ele>
        <time>2017-09-23T16:48:43Z</time>
      </trkpt>
      <trkpt lat="47.34038" lon="-1.1958">
        <ele>59</ele>
        <time>2017-09-23T16:48:44Z</time>
      </trkpt>
      <trkpt lat="47.34029" lon="-1.19579">
        <ele>60</ele>
        <time>2017-09-23T16:48:47Z</time>
      </trkpt>
      <trkpt lat="47.34022" lon="-1.19578">
        <ele>60</ele>
        <time>2017-09-23T16:48:49Z</time>
      </trkpt>
      <trkpt lat="47.34006" lon="-1.19569">
        <ele>59</ele>
        <time>2017-09-23T16:48:54Z</time>
      </trkpt>
      <trkpt lat="47.33983" lon="-1.19556">
        <ele>60</ele>
        <time>2017-09-23T16:48:59Z</time>
      </trkpt>
      <trkpt lat="47.33955" lon="-1.19541">
        <ele>60</ele>
        <time>2017-09-23T16:49:06Z</time>
      </trkpt>
      <trkpt lat="47.33945" lon="-1.19537">
        <ele>60</ele>
        <time>2017-09-23T16:49:08Z</time>
      </trkpt>
      <trkpt lat="47.33923" lon="-1.19532">
        <ele>59</ele>
        <time>2017-09-23T16:49:12Z</time>
      </trkpt>
      <trkpt lat="47.33888" lon="-1.19529">
        <ele>58</ele>
        <time>2017-09-23T16:49:19Z</time>
      </trkpt>
      <trkpt lat="47.33883" lon="-1.1953">
        <ele>58</ele>
        <time>2017-09-23T16:49:20Z</time>
      </trkpt>
      <trkpt lat="47.33847" lon="-1.19529">
        <ele>58</ele>
        <time>2017-09-23T16:49:28Z</time>
      </trkpt>
      <trkpt lat="47.33809" lon="-1.1953">
        <ele>58</ele>
        <time>2017-09-23T16:49:37Z</time>
      </trkpt>
      <trkpt lat="47.33789" lon="-1.19531">
        <ele>57</ele>
        <time>2017-09-23T16:49:43Z</time>
      </trkpt>
      <trkpt lat="47.33788" lon="-1.19531">
        <ele>56</ele>
        <time>2017-09-23T16:49:44Z</time>
      </trkpt>
      <trkpt lat="47.33786" lon="-1.1953">
        <ele>56</ele>
        <time>2017-09-23T16:49:45Z</time>
      </trkpt>
      <trkpt lat="47.33787" lon="-1.19526">
        <ele>55</ele>
        <time>2017-09-23T16:49:58Z</time>
      </trkpt>
      <trkpt lat="47.33787" lon="-1.19516">
        <ele>55</ele>
        <time>2017-09-23T16:50:00Z</time>
      </trkpt>
      <trkpt lat="47.33785" lon="-1.19481">
        <ele>55</ele>
        <time>2017-09-23T16:50:06Z</time>
      </trkpt>
      <trkpt lat="47.33784" lon="-1.19475">
        <ele>54</ele>
        <time>2017-09-23T16:50:07Z</time>
      </trkpt>
      <trkpt lat="47.33784" lon="-1.19468">
        <ele>54</ele>
        <time>2017-09-23T16:50:08Z</time>
      </trkpt>
      <trkpt lat="47.33783" lon="-1.19429">
        <ele>53</ele>
        <time>2017-09-23T16:50:14Z</time>
      </trkpt>
      <trkpt lat="47.33783" lon="-1.19423">
        <ele>53</ele>
        <time>2017-09-23T16:50:15Z</time>
      </trkpt>
      <trkpt lat="47.33782" lon="-1.19407">
        <ele>51</ele>
        <time>2017-09-23T16:50:19Z</time>
      </trkpt>
      <trkpt lat="47.33783" lon="-1.194">
        <ele>49</ele>
        <time>2017-09-23T16:51:29Z</time>
      </trkpt>
      <trkpt lat="47.33782" lon="-1.19377">
        <ele>49</ele>
        <time>2017-09-23T16:51:34Z</time>
      </trkpt>
      <trkpt lat="47.33782" lon="-1.19353">
        <ele>48</ele>
        <time>2017-09-23T16:51:39Z</time>
      </trkpt>
      <trkpt lat="47.33782" lon="-1.19342">
        <ele>47</ele>
        <time>2017-09-23T16:51:42Z</time>
      </trkpt>
      <trkpt lat="47.33781" lon="-1.19333">
        <ele>47</ele>
        <time>2017-09-23T16:51:45Z</time>
      </trkpt>
      <trkpt lat="47.33781" lon="-1.19319">
        <ele>46</ele>
        <time>2017-09-23T16:51:49Z</time>
      </trkpt>
      <trkpt lat="47.33779" lon="-1.19299">
        <ele>46</ele>
        <time>2017-09-23T16:51:54Z</time>
      </trkpt>
      <trkpt lat="47.33778" lon="-1.1929">
        <ele>46</ele>
        <time>2017-09-23T16:51:57Z</time>
      </trkpt>
      <trkpt lat="47.33775" lon="-1.1928">
        <ele>45</ele>
        <time>2017-09-23T16:52:04Z</time>
      </trkpt>
      <trkpt lat="47.33772" lon="-1.19278">
        <ele>44</ele>
        <time>2017-09-23T16:52:15Z</time>
      </trkpt>
      <trkpt lat="47.33768" lon="-1.19274">
        <ele>44</ele>
        <time>2017-09-23T16:52:17Z</time>
      </trkpt>
      <trkpt lat="47.33765" lon="-1.19272">
        <ele>44</ele>
        <time>2017-09-23T16:52:18Z</time>
      </trkpt>
      <trkpt lat="47.33755" lon="-1.19259">
        <ele>43</ele>
        <time>2017-09-23T16:52:22Z</time>
      </trkpt>
      <trkpt lat="47.33753" lon="-1.19255">
        <ele>42</ele>
        <time>2017-09-23T16:52:23Z</time>
      </trkpt>
      <trkpt lat="47.33748" lon="-1.19243">
        <ele>41</ele>
        <time>2017-09-23T16:52:26Z</time>
      </trkpt>
      <trkpt lat="47.33746" lon="-1.19236">
        <ele>41</ele>
        <time>2017-09-23T16:52:28Z</time>
      </trkpt>
      <trkpt lat="47.33744" lon="-1.19231">
        <ele>40</ele>
        <time>2017-09-23T16:52:30Z</time>
      </trkpt>
      <trkpt lat="47.33741" lon="-1.19226">
        <ele>39</ele>
        <time>2017-09-23T16:52:32Z</time>
      </trkpt>
      <trkpt lat="47.33739" lon="-1.19216">
        <ele>37</ele>
        <time>2017-09-23T16:52:35Z</time>
      </trkpt>
      <trkpt lat="47.33737" lon="-1.19206">
        <ele>36</ele>
        <time>2017-09-23T16:52:38Z</time>
      </trkpt>
      <trkpt lat="47.33737" lon="-1.19194">
        <ele>35</ele>
        <time>2017-09-23T16:52:41Z</time>
      </trkpt>
      <trkpt lat="47.33738" lon="-1.19179">
        <ele>33</ele>
        <time>2017-09-23T16:52:45Z</time>
      </trkpt>
      <trkpt lat="47.33738" lon="-1.19176">
        <ele>33</ele>
        <time>2017-09-23T16:52:46Z</time>
      </trkpt>
      <trkpt lat="47.3374" lon="-1.19166">
        <ele>32</ele>
        <time>2017-09-23T16:52:50Z</time>
      </trkpt>
      <trkpt lat="47.33743" lon="-1.19157">
        <ele>32</ele>
        <time>2017-09-23T16:52:53Z</time>
      </trkpt>
      <trkpt lat="47.33744" lon="-1.19153">
        <ele>31</ele>
        <time>2017-09-23T16:52:54Z</time>
      </trkpt>
      <trkpt lat="47.33748" lon="-1.19143">
        <ele>30</ele>
        <time>2017-09-23T16:52:57Z</time>
      </trkpt>
      <trkpt lat="47.33751" lon="-1.19132">
        <ele>29</ele>
        <time>2017-09-23T16:53:00Z</time>
      </trkpt>
      <trkpt lat="47.33757" lon="-1.19116">
        <ele>27</ele>
        <time>2017-09-23T16:53:04Z</time>
      </trkpt>
      <trkpt lat="47.33759" lon="-1.19106">
        <ele>26</ele>
        <time>2017-09-23T16:53:06Z</time>
      </trkpt>
      <trkpt lat="47.33759" lon="-1.19101">
        <ele>26</ele>
        <time>2017-09-23T16:53:07Z</time>
      </trkpt>
      <trkpt lat="47.33759" lon="-1.19086">
        <ele>25</ele>
        <time>2017-09-23T16:53:10Z</time>
      </trkpt>
      <trkpt lat="47.33759" lon="-1.19074">
        <ele>24</ele>
        <time>2017-09-23T16:53:12Z</time>
      </trkpt>
      <trkpt lat="47.33759" lon="-1.19063">
        <ele>23</ele>
        <time>2017-09-23T16:53:14Z</time>
      </trkpt>
      <trkpt lat="47.33761" lon="-1.19047">
        <ele>22</ele>
        <time>2017-09-23T16:53:17Z</time>
      </trkpt>
      <trkpt lat="47.33765" lon="-1.19029">
        <ele>21</ele>
        <time>2017-09-23T16:53:20Z</time>
      </trkpt>
      <trkpt lat="47.33768" lon="-1.19013">
        <ele>21</ele>
        <time>2017-09-23T16:53:23Z</time>
      </trkpt>
      <trkpt lat="47.33769" lon="-1.19009">
        <ele>20</ele>
        <time>2017-09-23T16:53:24Z</time>
      </trkpt>
      <trkpt lat="47.33775" lon="-1.18998">
        <ele>20</ele>
        <time>2017-09-23T16:53:28Z</time>
      </trkpt>
      <trkpt lat="47.33777" lon="-1.18994">
        <ele>19</ele>
        <time>2017-09-23T16:53:30Z</time>
      </trkpt>
      <trkpt lat="47.33779" lon="-1.18979">
        <ele>19</ele>
        <time>2017-09-23T16:54:09Z</time>
      </trkpt>
      <trkpt lat="47.33777" lon="-1.18973">
        <ele>19</ele>
        <time>2017-09-23T16:54:11Z</time>
      </trkpt>
      <trkpt lat="47.33769" lon="-1.18969">
        <ele>19</ele>
        <time>2017-09-23T16:54:16Z</time>
      </trkpt>
      <trkpt lat="47.33768" lon="-1.18968">
        <ele>19</ele>
        <time>2017-09-23T16:54:17Z</time>
      </trkpt>
      <trkpt lat="47.33758" lon="-1.18963">
        <ele>20</ele>
        <time>2017-09-23T16:54:24Z</time>
      </trkpt>
      <trkpt lat="47.33751" lon="-1.18958">
        <ele>20</ele>
        <time>2017-09-23T16:54:29Z</time>
      </trkpt>
      <trkpt lat="47.33747" lon="-1.18955">
        <ele>21</ele>
        <time>2017-09-23T16:54:32Z</time>
      </trkpt>
      <trkpt lat="47.33739" lon="-1.18951">
        <ele>22</ele>
        <time>2017-09-23T16:54:37Z</time>
      </trkpt>
      <trkpt lat="47.33737" lon="-1.18951">
        <ele>22</ele>
        <time>2017-09-23T16:54:38Z</time>
      </trkpt>
      <trkpt lat="47.3373" lon="-1.18948">
        <ele>23</ele>
        <time>2017-09-23T16:54:42Z</time>
      </trkpt>
      <trkpt lat="47.33725" lon="-1.18947">
        <ele>23</ele>
        <time>2017-09-23T16:54:45Z</time>
      </trkpt>
      <trkpt lat="47.33723" lon="-1.18947">
        <ele>24</ele>
        <time>2017-09-23T16:54:46Z</time>
      </trkpt>
      <trkpt lat="47.33717" lon="-1.18945">
        <ele>25</ele>
        <time>2017-09-23T16:54:50Z</time>
      </trkpt>
      <trkpt lat="47.33712" lon="-1.18942">
        <ele>26</ele>
        <time>2017-09-23T16:54:53Z</time>
      </trkpt>
      <trkpt lat="47.33711" lon="-1.18941">
        <ele>26</ele>
        <time>2017-09-23T16:54:54Z</time>
      </trkpt>
      <trkpt lat="47.33702" lon="-1.18939">
        <ele>27</ele>
        <time>2017-09-23T16:54:59Z</time>
      </trkpt>
      <trkpt lat="47.33698" lon="-1.18937">
        <ele>27</ele>
        <time>2017-09-23T16:55:01Z</time>
      </trkpt>
      <trkpt lat="47.33686" lon="-1.18934">
        <ele>28</ele>
        <time>2017-09-23T16:55:06Z</time>
      </trkpt>
      <trkpt lat="47.33681" lon="-1.18933">
        <ele>28</ele>
        <time>2017-09-23T16:55:08Z</time>
      </trkpt>
      <trkpt lat="47.33661" lon="-1.18928">
        <ele>28</ele>
        <time>2017-09-23T16:55:16Z</time>
      </trkpt>
      <trkpt lat="47.33642" lon="-1.18924">
        <ele>28</ele>
        <time>2017-09-23T16:55:22Z</time>
      </trkpt>
      <trkpt lat="47.33628" lon="-1.18921">
        <ele>28</ele>
        <time>2017-09-23T16:55:29Z</time>
      </trkpt>
      <trkpt lat="47.33614" lon="-1.18924">
        <ele>29</ele>
        <time>2017-09-23T16:55:36Z</time>
      </trkpt>
      <trkpt lat="47.33609" lon="-1.18928">
        <ele>29</ele>
        <time>2017-09-23T16:55:39Z</time>
      </trkpt>
      <trkpt lat="47.33604" lon="-1.18928">
        <ele>29</ele>
        <time>2017-09-23T16:55:41Z</time>
      </trkpt>
      <trkpt lat="47.33584" lon="-1.18928">
        <ele>29</ele>
        <time>2017-09-23T16:55:50Z</time>
      </trkpt>
      <trkpt lat="47.33579" lon="-1.18928">
        <ele>29</ele>
        <time>2017-09-23T16:55:53Z</time>
      </trkpt>
      <trkpt lat="47.33573" lon="-1.18927">
        <ele>30</ele>
        <time>2017-09-23T16:55:56Z</time>
      </trkpt>
      <trkpt lat="47.33566" lon="-1.18927">
        <ele>30</ele>
        <time>2017-09-23T16:55:59Z</time>
      </trkpt>
      <trkpt lat="47.33558" lon="-1.18926">
        <ele>31</ele>
        <time>2017-09-23T16:56:03Z</time>
      </trkpt>
      <trkpt lat="47.33554" lon="-1.18925">
        <ele>31</ele>
        <time>2017-09-23T16:56:05Z</time>
      </trkpt>
      <trkpt lat="47.33548" lon="-1.18925">
        <ele>32</ele>
        <time>2017-09-23T16:56:09Z</time>
      </trkpt>
      <trkpt lat="47.33543" lon="-1.18924">
        <ele>33</ele>
        <time>2017-09-23T16:56:12Z</time>
      </trkpt>
      <trkpt lat="47.33541" lon="-1.18923">
        <ele>33</ele>
        <time>2017-09-23T16:56:14Z</time>
      </trkpt>
      <trkpt lat="47.33538" lon="-1.18922">
        <ele>34</ele>
        <time>2017-09-23T16:56:16Z</time>
      </trkpt>
      <trkpt lat="47.33534" lon="-1.18922">
        <ele>34</ele>
        <time>2017-09-23T16:56:18Z</time>
      </trkpt>
      <trkpt lat="47.33532" lon="-1.18921">
        <ele>35</ele>
        <time>2017-09-23T16:56:19Z</time>
      </trkpt>
      <trkpt lat="47.33524" lon="-1.18919">
        <ele>36</ele>
        <time>2017-09-23T16:56:23Z</time>
      </trkpt>
      <trkpt lat="47.3352" lon="-1.18917">
        <ele>36</ele>
        <time>2017-09-23T16:56:26Z</time>
      </trkpt>
      <trkpt lat="47.33518" lon="-1.18917">
        <ele>37</ele>
        <time>2017-09-23T16:56:27Z</time>
      </trkpt>
      <trkpt lat="47.33509" lon="-1.18913">
        <ele>38</ele>
        <time>2017-09-23T16:56:32Z</time>
      </trkpt>
      <trkpt lat="47.33506" lon="-1.1891">
        <ele>38</ele>
        <time>2017-09-23T16:56:34Z</time>
      </trkpt>
      <trkpt lat="47.33498" lon="-1.18905">
        <ele>39</ele>
        <time>2017-09-23T16:56:38Z</time>
      </trkpt>
      <trkpt lat="47.33492" lon="-1.189">
        <ele>40</ele>
        <time>2017-09-23T16:56:42Z</time>
      </trkpt>
      <trkpt lat="47.33486" lon="-1.18892">
        <ele>40</ele>
        <time>2017-09-23T16:56:46Z</time>
      </trkpt>
      <trkpt lat="47.33484" lon="-1.18882">
        <ele>41</ele>
        <time>2017-09-23T16:56:50Z</time>
      </trkpt>
      <trkpt lat="47.33487" lon="-1.18871">
        <ele>42</ele>
        <time>2017-09-23T17:00:34Z</time>
      </trkpt>
      <trkpt lat="47.33489" lon="-1.18867">
        <ele>42</ele>
        <time>2017-09-23T17:00:36Z</time>
      </trkpt>
      <trkpt lat="47.33494" lon="-1.18857">
        <ele>43</ele>
        <time>2017-09-23T17:00:41Z</time>
      </trkpt>
      <trkpt lat="47.33496" lon="-1.18853">
        <ele>44</ele>
        <time>2017-09-23T17:00:43Z</time>
      </trkpt>
      <trkpt lat="47.33499" lon="-1.18849">
        <ele>44</ele>
        <time>2017-09-23T17:00:45Z</time>
      </trkpt>
      <trkpt lat="47.33504" lon="-1.18843">
        <ele>45</ele>
        <time>2017-09-23T17:00:49Z</time>
      </trkpt>
      <trkpt lat="47.3351" lon="-1.18834">
        <ele>46</ele>
        <time>2017-09-23T17:00:54Z</time>
      </trkpt>
      <trkpt lat="47.33516" lon="-1.18827">
        <ele>48</ele>
        <time>2017-09-23T17:00:58Z</time>
      </trkpt>
      <trkpt lat="47.3352" lon="-1.18821">
        <ele>48</ele>
        <time>2017-09-23T17:01:01Z</time>
      </trkpt>
      <trkpt lat="47.33523" lon="-1.18816">
        <ele>49</ele>
        <time>2017-09-23T17:01:04Z</time>
      </trkpt>
      <trkpt lat="47.33528" lon="-1.18809">
        <ele>49</ele>
        <time>2017-09-23T17:01:08Z</time>
      </trkpt>
      <trkpt lat="47.33533" lon="-1.18803">
        <ele>50</ele>
        <time>2017-09-23T17:01:11Z</time>
      </trkpt>
      <trkpt lat="47.33538" lon="-1.18797">
        <ele>50</ele>
        <time>2017-09-23T17:01:14Z</time>
      </trkpt>
      <trkpt lat="47.33545" lon="-1.18787">
        <ele>51</ele>
        <time>2017-09-23T17:01:19Z</time>
      </trkpt>
      <trkpt lat="47.33551" lon="-1.18779">
        <ele>52</ele>
        <time>2017-09-23T17:01:23Z</time>
      </trkpt>
      <trkpt lat="47.33553" lon="-1.18775">
        <ele>52</ele>
        <time>2017-09-23T17:01:25Z</time>
      </trkpt>
      <trkpt lat="47.33562" lon="-1.18763">
        <ele>53</ele>
        <time>2017-09-23T17:01:31Z</time>
      </trkpt>
      <trkpt lat="47.33563" lon="-1.1876">
        <ele>53</ele>
        <time>2017-09-23T17:01:32Z</time>
      </trkpt>
      <trkpt lat="47.33572" lon="-1.18746">
        <ele>54</ele>
        <time>2017-09-23T17:01:39Z</time>
      </trkpt>
      <trkpt lat="47.33574" lon="-1.18744">
        <ele>54</ele>
        <time>2017-09-23T17:01:40Z</time>
      </trkpt>
      <trkpt lat="47.33578" lon="-1.18738">
        <ele>54</ele>
        <time>2017-09-23T17:01:43Z</time>
      </trkpt>
      <trkpt lat="47.33583" lon="-1.18729">
        <ele>55</ele>
        <time>2017-09-23T17:01:48Z</time>
      </trkpt>
      <trkpt lat="47.33585" lon="-1.18728">
        <ele>55</ele>
        <time>2017-09-23T17:01:49Z</time>
      </trkpt>
      <trkpt lat="47.33586" lon="-1.18728">
        <ele>55</ele>
        <time>2017-09-23T17:01:50Z</time>
      </trkpt>
      <trkpt lat="47.33592" lon="-1.18725">
        <ele>56</ele>
        <time>2017-09-23T17:01:54Z</time>
      </trkpt>
      <trkpt lat="47.33594" lon="-1.18724">
        <ele>56</ele>
        <time>2017-09-23T17:01:55Z</time>
      </trkpt>
      <trkpt lat="47.33596" lon="-1.18724">
        <ele>57</ele>
        <time>2017-09-23T17:01:56Z</time>
      </trkpt>
      <trkpt lat="47.33599" lon="-1.1872">
        <ele>57</ele>
        <time>2017-09-23T17:01:59Z</time>
      </trkpt>
      <trkpt lat="47.336" lon="-1.18718">
        <ele>57</ele>
        <time>2017-09-23T17:02:00Z</time>
      </trkpt>
      <trkpt lat="47.33599" lon="-1.18717">
        <ele>58</ele>
        <time>2017-09-23T17:02:01Z</time>
      </trkpt>
      <trkpt lat="47.33596" lon="-1.18712">
        <ele>58</ele>
        <time>2017-09-23T17:02:04Z</time>
      </trkpt>
      <trkpt lat="47.33594" lon="-1.18708">
        <ele>59</ele>
        <time>2017-09-23T17:02:07Z</time>
      </trkpt>
      <trkpt lat="47.33592" lon="-1.18703">
        <ele>59</ele>
        <time>2017-09-23T17:03:24Z</time>
      </trkpt>
      <trkpt lat="47.33591" lon="-1.187">
        <ele>59</ele>
        <time>2017-09-23T17:03:25Z</time>
      </trkpt>
      <trkpt lat="47.3358" lon="-1.18672">
        <ele>59</ele>
        <time>2017-09-23T17:03:31Z</time>
      </trkpt>
      <trkpt lat="47.33562" lon="-1.18629">
        <ele>58</ele>
        <time>2017-09-23T17:03:39Z</time>
      </trkpt>
      <trkpt lat="47.33548" lon="-1.18591">
        <ele>57</ele>
        <time>2017-09-23T17:03:45Z</time>
      </trkpt>
      <trkpt lat="47.33546" lon="-1.18585">
        <ele>57</ele>
        <time>2017-09-23T17:03:46Z</time>
      </trkpt>
      <trkpt lat="47.33533" lon="-1.18546">
        <ele>56</ele>
        <time>2017-09-23T17:03:53Z</time>
      </trkpt>
      <trkpt lat="47.33531" lon="-1.18541">
        <ele>56</ele>
        <time>2017-09-23T17:03:54Z</time>
      </trkpt>
      <trkpt lat="47.33518" lon="-1.18498">
        <ele>55</ele>
        <time>2017-09-23T17:04:02Z</time>
      </trkpt>
      <trkpt lat="47.33515" lon="-1.18484">
        <ele>55</ele>
        <time>2017-09-23T17:04:05Z</time>
      </trkpt>
      <trkpt lat="47.33514" lon="-1.18473">
        <ele>55</ele>
        <time>2017-09-23T17:04:08Z</time>
      </trkpt>
      <trkpt lat="47.33511" lon="-1.18448">
        <ele>56</ele>
        <time>2017-09-23T17:04:16Z</time>
      </trkpt>
      <trkpt lat="47.33511" lon="-1.18439">
        <ele>56</ele>
        <time>2017-09-23T17:04:19Z</time>
      </trkpt>
      <trkpt lat="47.33513" lon="-1.1843">
        <ele>57</ele>
        <time>2017-09-23T17:04:22Z</time>
      </trkpt>
      <trkpt lat="47.33514" lon="-1.18427">
        <ele>57</ele>
        <time>2017-09-23T17:04:23Z</time>
      </trkpt>
      <trkpt lat="47.33517" lon="-1.18423">
        <ele>57</ele>
        <time>2017-09-23T17:04:25Z</time>
      </trkpt>
      <trkpt lat="47.33526" lon="-1.18418">
        <ele>58</ele>
        <time>2017-09-23T17:04:30Z</time>
      </trkpt>
      <trkpt lat="47.33533" lon="-1.18414">
        <ele>59</ele>
        <time>2017-09-23T17:04:34Z</time>
      </trkpt>
      <trkpt lat="47.3354" lon="-1.18412">
        <ele>60</ele>
        <time>2017-09-23T17:04:38Z</time>
      </trkpt>
      <trkpt lat="47.33542" lon="-1.18411">
        <ele>61</ele>
        <time>2017-09-23T17:04:39Z</time>
      </trkpt>
      <trkpt lat="47.3355" lon="-1.18409">
        <ele>62</ele>
        <time>2017-09-23T17:04:44Z</time>
      </trkpt>
      <trkpt lat="47.33554" lon="-1.18408">
        <ele>62</ele>
        <time>2017-09-23T17:04:46Z</time>
      </trkpt>
      <trkpt lat="47.3356" lon="-1.18403">
        <ele>63</ele>
        <time>2017-09-23T17:04:50Z</time>
      </trkpt>
      <trkpt lat="47.33563" lon="-1.184">
        <ele>63</ele>
        <time>2017-09-23T17:04:52Z</time>
      </trkpt>
      <trkpt lat="47.33566" lon="-1.18395">
        <ele>65</ele>
        <time>2017-09-23T17:05:07Z</time>
      </trkpt>
      <trkpt lat="47.33574" lon="-1.18381">
        <ele>64</ele>
        <time>2017-09-23T17:05:11Z</time>
      </trkpt>
      <trkpt lat="47.33581" lon="-1.18371">
        <ele>64</ele>
        <time>2017-09-23T17:05:13Z</time>
      </trkpt>
      <trkpt lat="47.33587" lon="-1.18357">
        <ele>64</ele>
        <time>2017-09-23T17:05:16Z</time>
      </trkpt>
      <trkpt lat="47.3359" lon="-1.18345">
        <ele>65</ele>
        <time>2017-09-23T17:05:21Z</time>
      </trkpt>
      <trkpt lat="47.33592" lon="-1.18341">
        <ele>66</ele>
        <time>2017-09-23T17:05:24Z</time>
      </trkpt>
      <trkpt lat="47.33596" lon="-1.18335">
        <ele>67</ele>
        <time>2017-09-23T17:05:28Z</time>
      </trkpt>
      <trkpt lat="47.33608" lon="-1.18325">
        <ele>68</ele>
        <time>2017-09-23T17:05:36Z</time>
      </trkpt>
      <trkpt lat="47.33609" lon="-1.18323">
        <ele>68</ele>
        <time>2017-09-23T17:05:37Z</time>
      </trkpt>
      <trkpt lat="47.33608" lon="-1.18314">
        <ele>68</ele>
        <time>2017-09-23T17:05:41Z</time>
      </trkpt>
      <trkpt lat="47.3361" lon="-1.18297">
        <ele>68</ele>
        <time>2017-09-23T17:05:48Z</time>
      </trkpt>
      <trkpt lat="47.33616" lon="-1.18281">
        <ele>68</ele>
        <time>2017-09-23T17:05:56Z</time>
      </trkpt>
      <trkpt lat="47.33625" lon="-1.18262">
        <ele>69</ele>
        <time>2017-09-23T17:06:04Z</time>
      </trkpt>
      <trkpt lat="47.33625" lon="-1.18259">
        <ele>69</ele>
        <time>2017-09-23T17:06:05Z</time>
      </trkpt>
      <trkpt lat="47.3363" lon="-1.18244">
        <ele>69</ele>
        <time>2017-09-23T17:06:12Z</time>
      </trkpt>
      <trkpt lat="47.33631" lon="-1.18242">
        <ele>69</ele>
        <time>2017-09-23T17:06:13Z</time>
      </trkpt>
      <trkpt lat="47.33633" lon="-1.18244">
        <ele>69</ele>
        <time>2017-09-23T17:06:16Z</time>
      </trkpt>
      <trkpt lat="47.33628" lon="-1.18256">
        <ele>69</ele>
        <time>2017-09-23T17:06:22Z</time>
      </trkpt>
      <trkpt lat="47.33626" lon="-1.18262">
        <ele>69</ele>
        <time>2017-09-23T17:06:24Z</time>
      </trkpt>
      <trkpt lat="47.33621" lon="-1.18275">
        <ele>69</ele>
        <time>2017-09-23T17:06:28Z</time>
      </trkpt>
      <trkpt lat="47.33613" lon="-1.18311">
        <ele>69</ele>
        <time>2017-09-23T17:06:36Z</time>
      </trkpt>
      <trkpt lat="47.33611" lon="-1.18328">
        <ele>69</ele>
        <time>2017-09-23T17:06:41Z</time>
      </trkpt>
      <trkpt lat="47.33608" lon="-1.18332">
        <ele>68</ele>
        <time>2017-09-23T17:06:44Z</time>
      </trkpt>
      <trkpt lat="47.33603" lon="-1.18333">
        <ele>68</ele>
        <time>2017-09-23T17:06:47Z</time>
      </trkpt>
      <trkpt lat="47.33589" lon="-1.18338">
        <ele>68</ele>
        <time>2017-09-23T17:06:52Z</time>
      </trkpt>
      <trkpt lat="47.3358" lon="-1.1834">
        <ele>68</ele>
        <time>2017-09-23T17:06:54Z</time>
      </trkpt>
      <trkpt lat="47.33575" lon="-1.18339">
        <ele>68</ele>
        <time>2017-09-23T17:06:55Z</time>
      </trkpt>
      <trkpt lat="47.3357" lon="-1.18337">
        <ele>68</ele>
        <time>2017-09-23T17:06:56Z</time>
      </trkpt>
      <trkpt lat="47.33557" lon="-1.18319">
        <ele>67</ele>
        <time>2017-09-23T17:07:00Z</time>
      </trkpt>
      <trkpt lat="47.33555" lon="-1.18314">
        <ele>66</ele>
        <time>2017-09-23T17:07:01Z</time>
      </trkpt>
      <trkpt lat="47.33542" lon="-1.18279">
        <ele>66</ele>
        <time>2017-09-23T17:07:07Z</time>
      </trkpt>
      <trkpt lat="47.33524" lon="-1.18238">
        <ele>67</ele>
        <time>2017-09-23T17:07:15Z</time>
      </trkpt>
      <trkpt lat="47.33506" lon="-1.18197">
        <ele>66</ele>
        <time>2017-09-23T17:07:23Z</time>
      </trkpt>
      <trkpt lat="47.33486" lon="-1.18149">
        <ele>66</ele>
        <time>2017-09-23T17:07:32Z</time>
      </trkpt>
      <trkpt lat="47.33468" lon="-1.18107">
        <ele>66</ele>
        <time>2017-09-23T17:07:40Z</time>
      </trkpt>
      <trkpt lat="47.33463" lon="-1.18096">
        <ele>65</ele>
        <time>2017-09-23T17:07:42Z</time>
      </trkpt>
      <trkpt lat="47.33451" lon="-1.18063">
        <ele>65</ele>
        <time>2017-09-23T17:07:48Z</time>
      </trkpt>
      <trkpt lat="47.33448" lon="-1.18042">
        <ele>64</ele>
        <time>2017-09-23T17:07:52Z</time>
      </trkpt>
      <trkpt lat="47.33449" lon="-1.18036">
        <ele>64</ele>
        <time>2017-09-23T17:07:53Z</time>
      </trkpt>
      <trkpt lat="47.33459" lon="-1.1801">
        <ele>64</ele>
        <time>2017-09-23T17:07:58Z</time>
      </trkpt>
      <trkpt lat="47.33468" lon="-1.17986">
        <ele>64</ele>
        <time>2017-09-23T17:08:04Z</time>
      </trkpt>
      <trkpt lat="47.33471" lon="-1.17972">
        <ele>64</ele>
        <time>2017-09-23T17:08:09Z</time>
      </trkpt>
      <trkpt lat="47.33469" lon="-1.1797">
        <ele>64</ele>
        <time>2017-09-23T17:08:10Z</time>
      </trkpt>
      <trkpt lat="47.33458" lon="-1.17967">
        <ele>64</ele>
        <time>2017-09-23T17:08:14Z</time>
      </trkpt>
      <trkpt lat="47.33454" lon="-1.17966">
        <ele>64</ele>
        <time>2017-09-23T17:08:15Z</time>
      </trkpt>
      <trkpt lat="47.33421" lon="-1.17958">
        <ele>64</ele>
        <time>2017-09-23T17:08:23Z</time>
      </trkpt>
      <trkpt lat="47.33381" lon="-1.17946">
        <ele>66</ele>
        <time>2017-09-23T17:08:33Z</time>
      </trkpt>
      <trkpt lat="47.33373" lon="-1.17942">
        <ele>66</ele>
        <time>2017-09-23T17:08:35Z</time>
      </trkpt>
      <trkpt lat="47.33361" lon="-1.1793">
        <ele>66</ele>
        <time>2017-09-23T17:08:38Z</time>
      </trkpt>
      <trkpt lat="47.33358" lon="-1.17925">
        <ele>66</ele>
        <time>2017-09-23T17:08:39Z</time>
      </trkpt>
      <trkpt lat="47.3335" lon="-1.17906">
        <ele>66</ele>
        <time>2017-09-23T17:08:43Z</time>
      </trkpt>
      <trkpt lat="47.33332" lon="-1.17863">
        <ele>66</ele>
        <time>2017-09-23T17:08:52Z</time>
      </trkpt>
      <trkpt lat="47.33316" lon="-1.17827">
        <ele>67</ele>
        <time>2017-09-23T17:08:59Z</time>
      </trkpt>
      <trkpt lat="47.33314" lon="-1.17821">
        <ele>67</ele>
        <time>2017-09-23T17:09:00Z</time>
      </trkpt>
      <trkpt lat="47.3329" lon="-1.17765">
        <ele>67</ele>
        <time>2017-09-23T17:09:10Z</time>
      </trkpt>
      <trkpt lat="47.33274" lon="-1.17721">
        <ele>66</ele>
        <time>2017-09-23T17:09:18Z</time>
      </trkpt>
      <trkpt lat="47.33262" lon="-1.17664">
        <ele>66</ele>
        <time>2017-09-23T17:09:27Z</time>
      </trkpt>
      <trkpt lat="47.3325" lon="-1.17613">
        <ele>66</ele>
        <time>2017-09-23T17:09:36Z</time>
      </trkpt>
      <trkpt lat="47.33242" lon="-1.17584">
        <ele>67</ele>
        <time>2017-09-23T17:09:43Z</time>
      </trkpt>
      <trkpt lat="47.33242" lon="-1.1758">
        <ele>67</ele>
        <time>2017-09-23T17:09:56Z</time>
      </trkpt>
      <trkpt lat="47.33242" lon="-1.17578">
        <ele>67</ele>
        <time>2017-09-23T17:09:57Z</time>
      </trkpt>
      <trkpt lat="47.33248" lon="-1.17572">
        <ele>67</ele>
        <time>2017-09-23T17:10:00Z</time>
      </trkpt>
      <trkpt lat="47.33251" lon="-1.1757">
        <ele>67</ele>
        <time>2017-09-23T17:10:01Z</time>
      </trkpt>
      <trkpt lat="47.33258" lon="-1.17565">
        <ele>67</ele>
        <time>2017-09-23T17:10:03Z</time>
      </trkpt>
      <trkpt lat="47.33269" lon="-1.17556">
        <ele>67</ele>
        <time>2017-09-23T17:10:06Z</time>
      </trkpt>
      <trkpt lat="47.33299" lon="-1.17532">
        <ele>68</ele>
        <time>2017-09-23T17:10:14Z</time>
      </trkpt>
      <trkpt lat="47.33302" lon="-1.17528">
        <ele>68</ele>
        <time>2017-09-23T17:10:15Z</time>
      </trkpt>
      <trkpt lat="47.33332" lon="-1.17504">
        <ele>69</ele>
        <time>2017-09-23T17:10:23Z</time>
      </trkpt>
      <trkpt lat="47.33357" lon="-1.17485">
        <ele>69</ele>
        <time>2017-09-23T17:10:30Z</time>
      </trkpt>
      <trkpt lat="47.33361" lon="-1.17483">
        <ele>69</ele>
        <time>2017-09-23T17:10:31Z</time>
      </trkpt>
      <trkpt lat="47.3339" lon="-1.17461">
        <ele>70</ele>
        <time>2017-09-23T17:10:39Z</time>
      </trkpt>
      <trkpt lat="47.33396" lon="-1.17455">
        <ele>70</ele>
        <time>2017-09-23T17:10:41Z</time>
      </trkpt>
      <trkpt lat="47.33416" lon="-1.17441">
        <ele>70</ele>
        <time>2017-09-23T17:10:47Z</time>
      </trkpt>
      <trkpt lat="47.33447" lon="-1.17422">
        <ele>71</ele>
        <time>2017-09-23T17:10:56Z</time>
      </trkpt>
      <trkpt lat="47.33455" lon="-1.17413">
        <ele>71</ele>
        <time>2017-09-23T17:10:59Z</time>
      </trkpt>
      <trkpt lat="47.33459" lon="-1.17404">
        <ele>71</ele>
        <time>2017-09-23T17:11:01Z</time>
      </trkpt>
      <trkpt lat="47.33457" lon="-1.17385">
        <ele>71</ele>
        <time>2017-09-23T17:11:05Z</time>
      </trkpt>
      <trkpt lat="47.33449" lon="-1.17368">
        <ele>72</ele>
        <time>2017-09-23T17:11:09Z</time>
      </trkpt>
      <trkpt lat="47.33447" lon="-1.17364">
        <ele>72</ele>
        <time>2017-09-23T17:11:10Z</time>
      </trkpt>
      <trkpt lat="47.33425" lon="-1.17325">
        <ele>72</ele>
        <time>2017-09-23T17:11:19Z</time>
      </trkpt>
      <trkpt lat="47.33404" lon="-1.17297">
        <ele>72</ele>
        <time>2017-09-23T17:11:27Z</time>
      </trkpt>
      <trkpt lat="47.334" lon="-1.17288">
        <ele>72</ele>
        <time>2017-09-23T17:11:29Z</time>
      </trkpt>
      <trkpt lat="47.33401" lon="-1.17284">
        <ele>72</ele>
        <time>2017-09-23T17:11:30Z</time>
      </trkpt>
      <trkpt lat="47.33408" lon="-1.17266">
        <ele>72</ele>
        <time>2017-09-23T17:11:34Z</time>
      </trkpt>
      <trkpt lat="47.33419" lon="-1.17226">
        <ele>71</ele>
        <time>2017-09-23T17:11:41Z</time>
      </trkpt>
      <trkpt lat="47.33427" lon="-1.17181">
        <ele>71</ele>
        <time>2017-09-23T17:11:48Z</time>
      </trkpt>
      <trkpt lat="47.33432" lon="-1.17158">
        <ele>71</ele>
        <time>2017-09-23T17:11:51Z</time>
      </trkpt>
      <trkpt lat="47.33437" lon="-1.17124">
        <ele>70</ele>
        <time>2017-09-23T17:11:55Z</time>
      </trkpt>
      <trkpt lat="47.3344" lon="-1.17106">
        <ele>70</ele>
        <time>2017-09-23T17:11:57Z</time>
      </trkpt>
      <trkpt lat="47.3345" lon="-1.17045">
        <ele>69</ele>
        <time>2017-09-23T17:12:04Z</time>
      </trkpt>
      <trkpt lat="47.33453" lon="-1.17021">
        <ele>69</ele>
        <time>2017-09-23T17:12:07Z</time>
      </trkpt>
      <trkpt lat="47.33459" lon="-1.16982">
        <ele>68</ele>
        <time>2017-09-23T17:12:12Z</time>
      </trkpt>
      <trkpt lat="47.33461" lon="-1.16968">
        <ele>68</ele>
        <time>2017-09-23T17:12:14Z</time>
      </trkpt>
      <trkpt lat="47.33463" lon="-1.16943">
        <ele>67</ele>
        <time>2017-09-23T17:12:18Z</time>
      </trkpt>
      <trkpt lat="47.33464" lon="-1.16939">
        <ele>66</ele>
        <time>2017-09-23T17:12:19Z</time>
      </trkpt>
      <trkpt lat="47.33463" lon="-1.1693">
        <ele>65</ele>
        <time>2017-09-23T17:12:22Z</time>
      </trkpt>
      <trkpt lat="47.33462" lon="-1.16928">
        <ele>65</ele>
        <time>2017-09-23T17:12:23Z</time>
      </trkpt>
      <trkpt lat="47.33458" lon="-1.16909">
        <ele>64</ele>
        <time>2017-09-23T17:12:28Z</time>
      </trkpt>
      <trkpt lat="47.33459" lon="-1.16905">
        <ele>64</ele>
        <time>2017-09-23T17:12:29Z</time>
      </trkpt>
      <trkpt lat="47.33467" lon="-1.16893">
        <ele>64</ele>
        <time>2017-09-23T17:12:32Z</time>
      </trkpt>
      <trkpt lat="47.33469" lon="-1.16888">
        <ele>64</ele>
        <time>2017-09-23T17:12:33Z</time>
      </trkpt>
      <trkpt lat="47.33475" lon="-1.16867">
        <ele>64</ele>
        <time>2017-09-23T17:12:36Z</time>
      </trkpt>
      <trkpt lat="47.33479" lon="-1.16844">
        <ele>63</ele>
        <time>2017-09-23T17:12:39Z</time>
      </trkpt>
      <trkpt lat="47.33481" lon="-1.16823">
        <ele>62</ele>
        <time>2017-09-23T17:12:42Z</time>
      </trkpt>
      <trkpt lat="47.33481" lon="-1.1681">
        <ele>61</ele>
        <time>2017-09-23T17:12:44Z</time>
      </trkpt>
      <trkpt lat="47.33482" lon="-1.16795">
        <ele>59</ele>
        <time>2017-09-23T17:12:47Z</time>
      </trkpt>
      <trkpt lat="47.33482" lon="-1.16791">
        <ele>59</ele>
        <time>2017-09-23T17:12:48Z</time>
      </trkpt>
      <trkpt lat="47.33481" lon="-1.16788">
        <ele>58</ele>
        <time>2017-09-23T17:12:49Z</time>
      </trkpt>
      <trkpt lat="47.33478" lon="-1.16782">
        <ele>57</ele>
        <time>2017-09-23T17:12:51Z</time>
      </trkpt>
      <trkpt lat="47.33475" lon="-1.16778">
        <ele>56</ele>
        <time>2017-09-23T17:12:53Z</time>
      </trkpt>
      <trkpt lat="47.33471" lon="-1.16769">
        <ele>56</ele>
        <time>2017-09-23T17:12:57Z</time>
      </trkpt>
      <trkpt lat="47.3347" lon="-1.16765">
        <ele>56</ele>
        <time>2017-09-23T17:12:59Z</time>
      </trkpt>
      <trkpt lat="47.33469" lon="-1.16749">
        <ele>56</ele>
        <time>2017-09-23T17:13:06Z</time>
      </trkpt>
      <trkpt lat="47.33465" lon="-1.16731">
        <ele>55</ele>
        <time>2017-09-23T17:13:13Z</time>
      </trkpt>
      <trkpt lat="47.33461" lon="-1.16716">
        <ele>54</ele>
        <time>2017-09-23T17:13:18Z</time>
      </trkpt>
      <trkpt lat="47.3346" lon="-1.1671">
        <ele>53</ele>
        <time>2017-09-23T17:13:20Z</time>
      </trkpt>
      <trkpt lat="47.33459" lon="-1.16705">
        <ele>52</ele>
        <time>2017-09-23T17:13:22Z</time>
      </trkpt>
      <trkpt lat="47.33458" lon="-1.167">
        <ele>51</ele>
        <time>2017-09-23T17:13:25Z</time>
      </trkpt>
      <trkpt lat="47.33456" lon="-1.16694">
        <ele>50</ele>
        <time>2017-09-23T17:13:29Z</time>
      </trkpt>
      <trkpt lat="47.33454" lon="-1.16687">
        <ele>49</ele>
        <time>2017-09-23T17:13:32Z</time>
      </trkpt>
      <trkpt lat="47.33453" lon="-1.16681">
        <ele>48</ele>
        <time>2017-09-23T17:13:34Z</time>
      </trkpt>
      <trkpt lat="47.33452" lon="-1.16673">
        <ele>47</ele>
        <time>2017-09-23T17:13:36Z</time>
      </trkpt>
      <trkpt lat="47.33452" lon="-1.16663">
        <ele>46</ele>
        <time>2017-09-23T17:13:38Z</time>
      </trkpt>
      <trkpt lat="47.33452" lon="-1.16654">
        <ele>44</ele>
        <time>2017-09-23T17:13:40Z</time>
      </trkpt>
      <trkpt lat="47.33452" lon="-1.16645">
        <ele>43</ele>
        <time>2017-09-23T17:13:42Z</time>
      </trkpt>
      <trkpt lat="47.3345" lon="-1.16627">
        <ele>42</ele>
        <time>2017-09-23T17:13:45Z</time>
      </trkpt>
      <trkpt lat="47.33448" lon="-1.16621">
        <ele>41</ele>
        <time>2017-09-23T17:13:46Z</time>
      </trkpt>
      <trkpt lat="47.33446" lon="-1.16616">
        <ele>41</ele>
        <time>2017-09-23T17:13:47Z</time>
      </trkpt>
      <trkpt lat="47.33441" lon="-1.16601">
        <ele>39</ele>
        <time>2017-09-23T17:13:50Z</time>
      </trkpt>
      <trkpt lat="47.33439" lon="-1.16594">
        <ele>39</ele>
        <time>2017-09-23T17:13:52Z</time>
      </trkpt>
      <trkpt lat="47.33438" lon="-1.16591">
        <ele>38</ele>
        <time>2017-09-23T17:13:53Z</time>
      </trkpt>
      <trkpt lat="47.33433" lon="-1.16576">
        <ele>37</ele>
        <time>2017-09-23T17:13:57Z</time>
      </trkpt>
      <trkpt lat="47.33432" lon="-1.16572">
        <ele>37</ele>
        <time>2017-09-23T17:13:58Z</time>
      </trkpt>
      <trkpt lat="47.33423" lon="-1.16548">
        <ele>36</ele>
        <time>2017-09-23T17:14:04Z</time>
      </trkpt>
      <trkpt lat="47.33417" lon="-1.16527">
        <ele>35</ele>
        <time>2017-09-23T17:14:09Z</time>
      </trkpt>
      <trkpt lat="47.33416" lon="-1.16523">
        <ele>35</ele>
        <time>2017-09-23T17:14:10Z</time>
      </trkpt>
      <trkpt lat="47.33412" lon="-1.16499">
        <ele>34</ele>
        <time>2017-09-23T17:14:15Z</time>
      </trkpt>
      <trkpt lat="47.33412" lon="-1.16493">
        <ele>33</ele>
        <time>2017-09-23T17:14:16Z</time>
      </trkpt>
      <trkpt lat="47.33413" lon="-1.16481">
        <ele>32</ele>
        <time>2017-09-23T17:14:18Z</time>
      </trkpt>
      <trkpt lat="47.33411" lon="-1.16462">
        <ele>31</ele>
        <time>2017-09-23T17:14:21Z</time>
      </trkpt>
      <trkpt lat="47.3341" lon="-1.16454">
        <ele>31</ele>
        <time>2017-09-23T17:14:22Z</time>
      </trkpt>
      <trkpt lat="47.33409" lon="-1.16447">
        <ele>30</ele>
        <time>2017-09-23T17:14:23Z</time>
      </trkpt>
      <trkpt lat="47.33409" lon="-1.1644">
        <ele>30</ele>
        <time>2017-09-23T17:14:24Z</time>
      </trkpt>
      <trkpt lat="47.33413" lon="-1.16425">
        <ele>29</ele>
        <time>2017-09-23T17:14:27Z</time>
      </trkpt>
      <trkpt lat="47.3342" lon="-1.16422">
        <ele>29</ele>
        <time>2017-09-23T17:14:29Z</time>
      </trkpt>
      <trkpt lat="47.33425" lon="-1.16418">
        <ele>29</ele>
        <time>2017-09-23T17:14:31Z</time>
      </trkpt>
      <trkpt lat="47.33425" lon="-1.16407">
        <ele>29</ele>
        <time>2017-09-23T17:14:35Z</time>
      </trkpt>
      <trkpt lat="47.3343" lon="-1.16398">
        <ele>29</ele>
        <time>2017-09-23T17:14:39Z</time>
      </trkpt>
      <trkpt lat="47.33433" lon="-1.16395">
        <ele>29</ele>
        <time>2017-09-23T17:14:40Z</time>
      </trkpt>
      <trkpt lat="47.33452" lon="-1.1638">
        <ele>29</ele>
        <time>2017-09-23T17:14:45Z</time>
      </trkpt>
      <trkpt lat="47.33472" lon="-1.16365">
        <ele>29</ele>
        <time>2017-09-23T17:14:51Z</time>
      </trkpt>
      <trkpt lat="47.33486" lon="-1.16367">
        <ele>29</ele>
        <time>2017-09-23T17:14:54Z</time>
      </trkpt>
      <trkpt lat="47.33502" lon="-1.16369">
        <ele>29</ele>
        <time>2017-09-23T17:14:57Z</time>
      </trkpt>
      <trkpt lat="47.3351" lon="-1.16366">
        <ele>28</ele>
        <time>2017-09-23T17:14:59Z</time>
      </trkpt>
      <trkpt lat="47.33524" lon="-1.16358">
        <ele>27</ele>
        <time>2017-09-23T17:15:03Z</time>
      </trkpt>
      <trkpt lat="47.33528" lon="-1.16356">
        <ele>27</ele>
        <time>2017-09-23T17:15:04Z</time>
      </trkpt>
      <trkpt lat="47.33552" lon="-1.16346">
        <ele>28</ele>
        <time>2017-09-23T17:15:10Z</time>
      </trkpt>
      <trkpt lat="47.33574" lon="-1.16338">
        <ele>28</ele>
        <time>2017-09-23T17:15:16Z</time>
      </trkpt>
      <trkpt lat="47.33598" lon="-1.16329">
        <ele>29</ele>
        <time>2017-09-23T17:15:23Z</time>
      </trkpt>
      <trkpt lat="47.33603" lon="-1.16327">
        <ele>29</ele>
        <time>2017-09-23T17:15:25Z</time>
      </trkpt>
      <trkpt lat="47.33609" lon="-1.1632">
        <ele>29</ele>
        <time>2017-09-23T17:15:29Z</time>
      </trkpt>
      <trkpt lat="47.33622" lon="-1.16315">
        <ele>28</ele>
        <time>2017-09-23T17:15:40Z</time>
      </trkpt>
      <trkpt lat="47.33627" lon="-1.16319">
        <ele>28</ele>
        <time>2017-09-23T17:15:42Z</time>
      </trkpt>
      <trkpt lat="47.33643" lon="-1.16334">
        <ele>28</ele>
        <time>2017-09-23T17:15:47Z</time>
      </trkpt>
      <trkpt lat="47.33648" lon="-1.16338">
        <ele>28</ele>
        <time>2017-09-23T17:15:48Z</time>
      </trkpt>
      <trkpt lat="47.33652" lon="-1.16341">
        <ele>28</ele>
        <time>2017-09-23T17:15:49Z</time>
      </trkpt>
      <trkpt lat="47.33662" lon="-1.16346">
        <ele>27</ele>
        <time>2017-09-23T17:15:51Z</time>
      </trkpt>
      <trkpt lat="47.33673" lon="-1.16352">
        <ele>27</ele>
        <time>2017-09-23T17:15:53Z</time>
      </trkpt>
      <trkpt lat="47.33688" lon="-1.16362">
        <ele>27</ele>
        <time>2017-09-23T17:15:57Z</time>
      </trkpt>
      <trkpt lat="47.33692" lon="-1.16362">
        <ele>27</ele>
        <time>2017-09-23T17:15:58Z</time>
      </trkpt>
      <trkpt lat="47.33704" lon="-1.16362">
        <ele>26</ele>
        <time>2017-09-23T17:16:03Z</time>
      </trkpt>
      <trkpt lat="47.33724" lon="-1.16367">
        <ele>28</ele>
        <time>2017-09-23T17:16:11Z</time>
      </trkpt>
      <trkpt lat="47.33743" lon="-1.16371">
        <ele>28</ele>
        <time>2017-09-23T17:16:17Z</time>
      </trkpt>
      <trkpt lat="47.33758" lon="-1.1637">
        <ele>27</ele>
        <time>2017-09-23T17:16:22Z</time>
      </trkpt>
      <trkpt lat="47.33779" lon="-1.16362">
        <ele>26</ele>
        <time>2017-09-23T17:16:28Z</time>
      </trkpt>
      <trkpt lat="47.33799" lon="-1.16355">
        <ele>26</ele>
        <time>2017-09-23T17:16:34Z</time>
      </trkpt>
      <trkpt lat="47.33811" lon="-1.1635">
        <ele>26</ele>
        <time>2017-09-23T17:16:37Z</time>
      </trkpt>
      <trkpt lat="47.33818" lon="-1.16347">
        <ele>26</ele>
        <time>2017-09-23T17:16:39Z</time>
      </trkpt>
      <trkpt lat="47.33832" lon="-1.1634">
        <ele>26</ele>
        <time>2017-09-23T17:16:44Z</time>
      </trkpt>
      <trkpt lat="47.33846" lon="-1.16332">
        <ele>25</ele>
        <time>2017-09-23T17:16:50Z</time>
      </trkpt>
      <trkpt lat="47.33895" lon="-1.1632">
        <ele>25</ele>
        <time>2017-09-23T17:18:02Z</time>
      </trkpt>
      <trkpt lat="47.33901" lon="-1.16321">
        <ele>25</ele>
        <time>2017-09-23T17:18:04Z</time>
      </trkpt>
      <trkpt lat="47.33918" lon="-1.1632">
        <ele>25</ele>
        <time>2017-09-23T17:18:09Z</time>
      </trkpt>
      <trkpt lat="47.3394" lon="-1.16314">
        <ele>25</ele>
        <time>2017-09-23T17:18:15Z</time>
      </trkpt>
      <trkpt lat="47.33952" lon="-1.16311">
        <ele>25</ele>
        <time>2017-09-23T17:18:18Z</time>
      </trkpt>
      <trkpt lat="47.3396" lon="-1.1631">
        <ele>24</ele>
        <time>2017-09-23T17:18:20Z</time>
      </trkpt>
      <trkpt lat="47.33977" lon="-1.16302">
        <ele>24</ele>
        <time>2017-09-23T17:18:24Z</time>
      </trkpt>
      <trkpt lat="47.33996" lon="-1.1628">
        <ele>24</ele>
        <time>2017-09-23T17:18:30Z</time>
      </trkpt>
      <trkpt lat="47.33999" lon="-1.16277">
        <ele>24</ele>
        <time>2017-09-23T17:18:31Z</time>
      </trkpt>
      <trkpt lat="47.34019" lon="-1.16259">
        <ele>23</ele>
        <time>2017-09-23T17:18:36Z</time>
      </trkpt>
      <trkpt lat="47.34034" lon="-1.16233">
        <ele>23</ele>
        <time>2017-09-23T17:18:42Z</time>
      </trkpt>
      <trkpt lat="47.34038" lon="-1.16216">
        <ele>23</ele>
        <time>2017-09-23T17:18:45Z</time>
      </trkpt>
      <trkpt lat="47.34043" lon="-1.16203">
        <ele>23</ele>
        <time>2017-09-23T17:18:47Z</time>
      </trkpt>
      <trkpt lat="47.34057" lon="-1.16168">
        <ele>23</ele>
        <time>2017-09-23T17:18:53Z</time>
      </trkpt>
      <trkpt lat="47.34059" lon="-1.16163">
        <ele>23</ele>
        <time>2017-09-23T17:18:54Z</time>
      </trkpt>
      <trkpt lat="47.34061" lon="-1.16158">
        <ele>23</ele>
        <time>2017-09-23T17:18:55Z</time>
      </trkpt>
      <trkpt lat="47.34073" lon="-1.16142">
        <ele>22</ele>
        <time>2017-09-23T17:18:59Z</time>
      </trkpt>
      <trkpt lat="47.3409" lon="-1.16122">
        <ele>22</ele>
        <time>2017-09-23T17:19:05Z</time>
      </trkpt>
      <trkpt lat="47.34105" lon="-1.16106">
        <ele>23</ele>
        <time>2017-09-23T17:19:09Z</time>
      </trkpt>
      <trkpt lat="47.34119" lon="-1.16096">
        <ele>22</ele>
        <time>2017-09-23T17:19:13Z</time>
      </trkpt>
      <trkpt lat="47.34134" lon="-1.16089">
        <ele>22</ele>
        <time>2017-09-23T17:19:18Z</time>
      </trkpt>
      <trkpt lat="47.34157" lon="-1.16077">
        <ele>22</ele>
        <time>2017-09-23T17:19:24Z</time>
      </trkpt>
      <trkpt lat="47.34166" lon="-1.16078">
        <ele>22</ele>
        <time>2017-09-23T17:19:26Z</time>
      </trkpt>
      <trkpt lat="47.34181" lon="-1.16084">
        <ele>22</ele>
        <time>2017-09-23T17:19:29Z</time>
      </trkpt>
      <trkpt lat="47.34208" lon="-1.16097">
        <ele>22</ele>
        <time>2017-09-23T17:19:35Z</time>
      </trkpt>
      <trkpt lat="47.34218" lon="-1.161">
        <ele>22</ele>
        <time>2017-09-23T17:19:39Z</time>
      </trkpt>
      <trkpt lat="47.34245" lon="-1.16109">
        <ele>25</ele>
        <time>2017-09-23T17:20:06Z</time>
      </trkpt>
      <trkpt lat="47.34252" lon="-1.16107">
        <ele>25</ele>
        <time>2017-09-23T17:20:09Z</time>
      </trkpt>
      <trkpt lat="47.34275" lon="-1.161">
        <ele>26</ele>
        <time>2017-09-23T17:20:15Z</time>
      </trkpt>
      <trkpt lat="47.34278" lon="-1.16099">
        <ele>26</ele>
        <time>2017-09-23T17:20:16Z</time>
      </trkpt>
      <trkpt lat="47.34293" lon="-1.16093">
        <ele>27</ele>
        <time>2017-09-23T17:20:20Z</time>
      </trkpt>
      <trkpt lat="47.343" lon="-1.1609">
        <ele>28</ele>
        <time>2017-09-23T17:20:22Z</time>
      </trkpt>
      <trkpt lat="47.34317" lon="-1.16085">
        <ele>28</ele>
        <time>2017-09-23T17:20:28Z</time>
      </trkpt>
      <trkpt lat="47.34338" lon="-1.16085">
        <ele>28</ele>
        <time>2017-09-23T17:20:34Z</time>
      </trkpt>
      <trkpt lat="47.34363" lon="-1.16089">
        <ele>27</ele>
        <time>2017-09-23T17:20:39Z</time>
      </trkpt>
      <trkpt lat="47.34389" lon="-1.16094">
        <ele>26</ele>
        <time>2017-09-23T17:20:43Z</time>
      </trkpt>
      <trkpt lat="47.34395" lon="-1.16094">
        <ele>26</ele>
        <time>2017-09-23T17:20:44Z</time>
      </trkpt>
      <trkpt lat="47.344" lon="-1.16094">
        <ele>25</ele>
        <time>2017-09-23T17:20:45Z</time>
      </trkpt>
      <trkpt lat="47.34409" lon="-1.16095">
        <ele>24</ele>
        <time>2017-09-23T17:20:47Z</time>
      </trkpt>
      <trkpt lat="47.34412" lon="-1.16096">
        <ele>23</ele>
        <time>2017-09-23T17:20:48Z</time>
      </trkpt>
      <trkpt lat="47.34419" lon="-1.16096">
        <ele>23</ele>
        <time>2017-09-23T17:20:50Z</time>
      </trkpt>
      <trkpt lat="47.34434" lon="-1.16095">
        <ele>22</ele>
        <time>2017-09-23T17:20:55Z</time>
      </trkpt>
    </trkseg>
  </trk>
</gpx>